PWSweather.com
Personal Weather Stations
Station Observations
ALLANTONFL
Allanton, Panama City, FL 32404

AllantonPanama City, FL 32404

Lat: 30.036, Lon: -85.48284060000003

Elevation: 11

Station Type: Acurite 5in1

High Low Average
Temperature 158.0°F70.0°C 66.4°F19.1°C 76.4°F24.7°C
Dew Point 155.0°F68.3°C 61.6°F16.4°C 73.3°F22.9°C
Winds 26.4 mph 42.5 kmh Calm Calm 5.0 mph SSW8.0 kmh SSW
Wind Gusts 30.0 mph48.3 kmh -- 8.0 mph12.9 kmh
Humidity 93% 83% 90%
Pressure 29.88 in1011.9 mb 29.77 in1008.1 mb -
Precipitation 1.44 in36.6 mm - -
Hour Temp Dew Point Humidity Winds Wind Gusts Pressure Precip Precip Rate Daily Precip Total
12:00 AM 72.0°F22.2°C 69.8°F21.0°C 93% 6.3 mph S10.1 kmh S 9.4 mph15.1 kmh 29.81 in1009.5 mb 0.00 in0.0 mm 0.00 in0.0 mm 0.00 in0.0 mm
12:01 AM 72.0°F22.2°C 69.8°F21.0°C 93% 9.9 mph S15.9 kmh S 9.9 mph15.9 kmh 29.80 in1009.1 mb 0.00 in0.0 mm 0.00 in0.0 mm 0.00 in0.0 mm
12:02 AM 72.1°F22.3°C 70.0°F21.1°C 93% 8.3 mph S13.4 kmh S 11.9 mph19.2 kmh 29.80 in1009.1 mb 0.00 in0.0 mm 0.00 in0.0 mm 0.00 in0.0 mm
12:03 AM 72.0°F22.2°C 69.8°F21.0°C 93% 5.8 mph SSW9.3 kmh SSW 11.9 mph19.2 kmh 29.80 in1009.1 mb 0.00 in0.0 mm 0.00 in0.0 mm 0.00 in0.0 mm
12:04 AM 72.0°F22.2°C 69.8°F21.0°C 93% 10.4 mph SSW16.7 kmh SSW 11.9 mph19.2 kmh 29.80 in1009.1 mb 0.00 in0.0 mm 0.00 in0.0 mm 0.00 in0.0 mm
12:05 AM 71.8°F22.1°C 69.6°F20.9°C 93% 12.5 mph SSW20.1 kmh SSW 12.5 mph20.1 kmh 29.80 in1009.1 mb 0.00 in0.0 mm 0.00 in0.0 mm 0.00 in0.0 mm
12:06 AM 72.1°F22.3°C 70.0°F21.1°C 93% 7.8 mph SSW12.6 kmh SSW 12.5 mph20.1 kmh 29.80 in1009.1 mb 0.00 in0.0 mm 0.00 in0.0 mm 0.00 in0.0 mm
12:07 AM 72.0°F22.2°C 69.8°F21.0°C 93% 6.3 mph SSW10.1 kmh SSW 12.5 mph20.1 kmh 29.80 in1009.1 mb 0.00 in0.0 mm 0.00 in0.0 mm 0.00 in0.0 mm
12:08 AM 72.1°F22.3°C 70.0°F21.1°C 93% 10.9 mph S17.5 kmh S 12.5 mph20.1 kmh 29.80 in1009.1 mb 0.00 in0.0 mm 0.00 in0.0 mm 0.00 in0.0 mm
12:09 AM 72.0°F22.2°C 69.8°F21.0°C 93% 8.9 mph S14.3 kmh S 12.5 mph20.1 kmh 29.80 in1009.1 mb 0.00 in0.0 mm 0.00 in0.0 mm 0.00 in0.0 mm
12:10 AM 72.0°F22.2°C 69.8°F21.0°C 93% 9.9 mph S15.9 kmh S 12.5 mph20.1 kmh 29.80 in1009.1 mb 0.00 in0.0 mm 0.00 in0.0 mm 0.00 in0.0 mm
12:11 AM 72.0°F22.2°C 69.8°F21.0°C 93% 8.9 mph S14.3 kmh S 12.5 mph20.1 kmh 29.80 in1009.1 mb 0.00 in0.0 mm 0.00 in0.0 mm 0.00 in0.0 mm
12:12 AM 72.0°F22.2°C 69.8°F21.0°C 93% 8.3 mph S13.4 kmh S 12.5 mph20.1 kmh 29.80 in1009.1 mb 0.00 in0.0 mm 0.00 in0.0 mm 0.00 in0.0 mm
12:13 AM 72.1°F22.3°C 70.0°F21.1°C 93% 7.3 mph SSW11.7 kmh SSW 12.5 mph20.1 kmh 29.80 in1009.1 mb 0.00 in0.0 mm 0.00 in0.0 mm 0.00 in0.0 mm
12:14 AM 72.0°F22.2°C 69.8°F21.0°C 93% 10.4 mph S16.7 kmh S 12.5 mph20.1 kmh 29.80 in1009.1 mb 0.00 in0.0 mm 0.00 in0.0 mm 0.00 in0.0 mm
12:15 AM 72.0°F22.2°C 69.8°F21.0°C 93% 7.3 mph SSW11.7 kmh SSW 12.5 mph20.1 kmh 29.80 in1009.1 mb 0.00 in0.0 mm 0.00 in0.0 mm 0.00 in0.0 mm
12:16 AM 72.1°F22.3°C 70.0°F21.1°C 93% 6.8 mph S10.9 kmh S 11.4 mph18.3 kmh 29.80 in1009.1 mb 0.00 in0.0 mm 0.00 in0.0 mm 0.00 in0.0 mm
12:17 AM 72.5°F22.5°C 70.4°F21.3°C 93% 7.8 mph SSW12.6 kmh SSW 11.4 mph18.3 kmh 29.80 in1009.1 mb 0.00 in0.0 mm 0.00 in0.0 mm 0.00 in0.0 mm
12:18 AM 72.3°F22.4°C 70.2°F21.2°C 93% 7.3 mph S11.7 kmh S 11.4 mph18.3 kmh 29.80 in1009.1 mb 0.00 in0.0 mm 0.00 in0.0 mm 0.00 in0.0 mm
12:19 AM 72.1°F22.3°C 70.0°F21.1°C 93% 7.3 mph SSE11.7 kmh SSE 11.4 mph18.3 kmh 29.80 in1009.1 mb 0.00 in0.0 mm 0.00 in0.0 mm 0.00 in0.0 mm
12:20 AM 72.1°F22.3°C 70.0°F21.1°C 93% 12.0 mph SSW19.3 kmh SSW 11.9 mph19.2 kmh 29.80 in1009.1 mb 0.00 in0.0 mm 0.00 in0.0 mm 0.00 in0.0 mm
12:21 AM 72.3°F22.4°C 70.2°F21.2°C 93% 8.9 mph SSW14.3 kmh SSW 11.9 mph19.2 kmh 29.80 in1009.1 mb 0.00 in0.0 mm 0.00 in0.0 mm 0.00 in0.0 mm
12:22 AM 72.3°F22.4°C 70.2°F21.2°C 93% 3.2 mph S5.1 kmh S 11.9 mph19.2 kmh 29.80 in1009.1 mb 0.00 in0.0 mm 0.00 in0.0 mm 0.00 in0.0 mm
12:23 AM 72.3°F22.4°C 70.2°F21.2°C 93% 9.4 mph S15.1 kmh S 11.9 mph19.2 kmh 29.80 in1009.1 mb 0.00 in0.0 mm 0.00 in0.0 mm 0.00 in0.0 mm
12:24 AM 72.3°F22.4°C 70.2°F21.2°C 93% 9.4 mph S15.1 kmh S 11.9 mph19.2 kmh 29.80 in1009.1 mb 0.00 in0.0 mm 0.00 in0.0 mm 0.00 in0.0 mm
01:26 AM 72.1°F22.3°C 70.0°F21.1°C 93% 6.3 mph S10.1 kmh S 6.3 mph10.1 kmh 29.80 in1009.1 mb 0.00 in0.0 mm 0.00 in0.0 mm 0.00 in0.0 mm
01:27 AM 72.1°F22.3°C 70.0°F21.1°C 93% 9.4 mph S15.1 kmh S 9.4 mph15.1 kmh 29.80 in1009.1 mb 0.00 in0.0 mm 0.00 in0.0 mm 0.00 in0.0 mm
01:28 AM 72.1°F22.3°C 70.0°F21.1°C 93% 6.8 mph SSW10.9 kmh SSW 10.4 mph16.7 kmh 29.80 in1009.1 mb 0.00 in0.0 mm 0.00 in0.0 mm 0.00 in0.0 mm
01:29 AM 72.1°F22.3°C 70.0°F21.1°C 93% 8.3 mph SSW13.4 kmh SSW 11.4 mph18.3 kmh 29.80 in1009.1 mb 0.00 in0.0 mm 0.00 in0.0 mm 0.00 in0.0 mm
01:30 AM 72.1°F22.3°C 70.0°F21.1°C 93% 5.8 mph S9.3 kmh S 11.4 mph18.3 kmh 29.80 in1009.1 mb 0.00 in0.0 mm 0.00 in0.0 mm 0.00 in0.0 mm
01:31 AM 72.1°F22.3°C 70.0°F21.1°C 93% 5.8 mph SSW9.3 kmh SSW 11.4 mph18.3 kmh 29.80 in1009.1 mb 0.00 in0.0 mm 0.00 in0.0 mm 0.00 in0.0 mm
01:32 AM 72.1°F22.3°C 70.0°F21.1°C 93% 6.3 mph SSW10.1 kmh SSW 11.4 mph18.3 kmh 29.80 in1009.1 mb 0.00 in0.0 mm 0.00 in0.0 mm 0.00 in0.0 mm
01:33 AM 72.1°F22.3°C 70.0°F21.1°C 93% 5.3 mph S8.5 kmh S 11.4 mph18.3 kmh 29.80 in1009.1 mb 0.00 in0.0 mm 0.00 in0.0 mm 0.00 in0.0 mm
01:34 AM 72.3°F22.4°C 70.2°F21.2°C 93% 10.9 mph S17.5 kmh S 11.4 mph18.3 kmh 29.80 in1009.1 mb 0.00 in0.0 mm 0.00 in0.0 mm 0.00 in0.0 mm
01:35 AM 72.3°F22.4°C 70.2°F21.2°C 93% 6.8 mph SSW10.9 kmh SSW 11.4 mph18.3 kmh 29.80 in1009.1 mb 0.00 in0.0 mm 0.00 in0.0 mm 0.00 in0.0 mm
01:36 AM 72.3°F22.4°C 70.2°F21.2°C 93% 6.3 mph S10.1 kmh S 11.4 mph18.3 kmh 29.80 in1009.1 mb 0.00 in0.0 mm 0.00 in0.0 mm 0.00 in0.0 mm
01:37 AM 72.3°F22.4°C 70.2°F21.2°C 93% 3.2 mph SSW5.1 kmh SSW 11.4 mph18.3 kmh 29.80 in1009.1 mb 0.00 in0.0 mm 0.00 in0.0 mm 0.00 in0.0 mm
01:38 AM 72.1°F22.3°C 70.0°F21.1°C 93% 5.8 mph S9.3 kmh S 11.4 mph18.3 kmh 29.80 in1009.1 mb 0.00 in0.0 mm 0.00 in0.0 mm 0.00 in0.0 mm
01:39 AM 72.1°F22.3°C 70.0°F21.1°C 93% 4.2 mph SSW6.8 kmh SSW 10.9 mph17.5 kmh 29.80 in1009.1 mb 0.00 in0.0 mm 0.00 in0.0 mm 0.00 in0.0 mm
01:40 AM 72.3°F22.4°C 70.2°F21.2°C 93% 6.3 mph S10.1 kmh S 10.9 mph17.5 kmh 29.80 in1009.1 mb 0.00 in0.0 mm 0.00 in0.0 mm 0.00 in0.0 mm
01:41 AM 72.1°F22.3°C 70.0°F21.1°C 93% 5.3 mph SSW8.5 kmh SSW 10.9 mph17.5 kmh 29.80 in1009.1 mb 0.00 in0.0 mm 0.00 in0.0 mm 0.00 in0.0 mm
01:42 AM 72.3°F22.4°C 70.2°F21.2°C 93% 7.3 mph S11.7 kmh S 10.9 mph17.5 kmh 29.80 in1009.1 mb 0.00 in0.0 mm 0.00 in0.0 mm 0.00 in0.0 mm
01:43 AM 72.3°F22.4°C 70.2°F21.2°C 93% 4.7 mph SSW7.6 kmh SSW 10.9 mph17.5 kmh 29.80 in1009.1 mb 0.00 in0.0 mm 0.00 in0.0 mm 0.00 in0.0 mm
01:44 AM 72.1°F22.3°C 70.0°F21.1°C 93% 8.3 mph SSE13.4 kmh SSE 9.9 mph15.9 kmh 29.80 in1009.1 mb 0.00 in0.0 mm 0.00 in0.0 mm 0.00 in0.0 mm
01:45 AM 72.1°F22.3°C 70.0°F21.1°C 93% 7.3 mph S11.7 kmh S 9.4 mph15.1 kmh 29.80 in1009.1 mb 0.00 in0.0 mm 0.00 in0.0 mm 0.00 in0.0 mm
01:46 AM 72.0°F22.2°C 69.8°F21.0°C 93% 4.7 mph S7.6 kmh S 8.3 mph13.4 kmh 29.80 in1009.1 mb 0.00 in0.0 mm 0.00 in0.0 mm 0.00 in0.0 mm
01:47 AM 72.0°F22.2°C 69.8°F21.0°C 93% 2.7 mph S4.3 kmh S 8.3 mph13.4 kmh 29.80 in1009.1 mb 0.00 in0.0 mm 0.00 in0.0 mm 0.00 in0.0 mm
01:48 AM 72.1°F22.3°C 70.0°F21.1°C 93% 9.4 mph S15.1 kmh S 9.4 mph15.1 kmh 29.80 in1009.1 mb 0.00 in0.0 mm 0.00 in0.0 mm 0.00 in0.0 mm
01:49 AM 72.0°F22.2°C 69.8°F21.0°C 93% 4.2 mph S6.8 kmh S 9.4 mph15.1 kmh 29.79 in1008.8 mb 0.00 in0.0 mm 0.00 in0.0 mm 0.00 in0.0 mm
01:50 AM 72.0°F22.2°C 69.8°F21.0°C 93% 3.7 mph S6.0 kmh S 9.4 mph15.1 kmh 29.79 in1008.8 mb 0.00 in0.0 mm 0.00 in0.0 mm 0.00 in0.0 mm
01:51 AM 71.8°F22.1°C 69.6°F20.9°C 93% 8.9 mph SSW14.3 kmh SSW 10.4 mph16.7 kmh 29.79 in1008.8 mb 0.00 in0.0 mm 0.00 in0.0 mm 0.00 in0.0 mm
01:52 AM 72.0°F22.2°C 69.8°F21.0°C 93% 6.8 mph S10.9 kmh S 10.4 mph16.7 kmh 29.79 in1008.8 mb 0.00 in0.0 mm 0.00 in0.0 mm 0.00 in0.0 mm
01:53 AM 71.8°F22.1°C 69.6°F20.9°C 93% 6.3 mph SSW10.1 kmh SSW 10.4 mph16.7 kmh 29.79 in1008.8 mb 0.00 in0.0 mm 0.00 in0.0 mm 0.00 in0.0 mm
01:54 AM 72.1°F22.3°C 70.0°F21.1°C 93% 6.8 mph S10.9 kmh S 11.4 mph18.3 kmh 29.79 in1008.8 mb 0.00 in0.0 mm 0.00 in0.0 mm 0.00 in0.0 mm
01:55 AM 72.1°F22.3°C 70.0°F21.1°C 93% 7.3 mph SW11.7 kmh SW 11.4 mph18.3 kmh 29.79 in1008.8 mb 0.00 in0.0 mm 0.00 in0.0 mm 0.00 in0.0 mm
01:56 AM 72.1°F22.3°C 70.0°F21.1°C 93% 10.9 mph SW17.5 kmh SW 11.4 mph18.3 kmh 29.79 in1008.8 mb 0.00 in0.0 mm 0.00 in0.0 mm 0.00 in0.0 mm
01:57 AM 72.1°F22.3°C 70.0°F21.1°C 93% 6.3 mph SSW10.1 kmh SSW 11.4 mph18.3 kmh 29.79 in1008.8 mb 0.00 in0.0 mm 0.00 in0.0 mm 0.00 in0.0 mm
01:58 AM 71.8°F22.1°C 69.6°F20.9°C 93% 5.8 mph SSW9.3 kmh SSW 11.4 mph18.3 kmh 29.79 in1008.8 mb 0.00 in0.0 mm 0.00 in0.0 mm 0.00 in0.0 mm
01:59 AM 71.8°F22.1°C 69.6°F20.9°C 93% 5.8 mph SSW9.3 kmh SSW 11.4 mph18.3 kmh 29.79 in1008.8 mb 0.00 in0.0 mm 0.00 in0.0 mm 0.00 in0.0 mm
02:00 AM 72.0°F22.2°C 69.8°F21.0°C 93% 8.3 mph SSW13.4 kmh SSW 11.4 mph18.3 kmh 29.79 in1008.8 mb 0.00 in0.0 mm 0.00 in0.0 mm 0.00 in0.0 mm
02:01 AM 72.0°F22.2°C 69.8°F21.0°C 93% 7.8 mph S12.6 kmh S 11.4 mph18.3 kmh 29.78 in1008.5 mb 0.00 in0.0 mm 0.00 in0.0 mm 0.00 in0.0 mm
02:02 AM 72.0°F22.2°C 69.8°F21.0°C 93% 6.3 mph SSW10.1 kmh SSW 11.4 mph18.3 kmh 29.78 in1008.5 mb 0.00 in0.0 mm 0.00 in0.0 mm 0.00 in0.0 mm
02:03 AM 71.6°F22.0°C 69.5°F20.8°C 93% 3.7 mph SSW6.0 kmh SSW 11.4 mph18.3 kmh 29.78 in1008.5 mb 0.00 in0.0 mm 0.00 in0.0 mm 0.00 in0.0 mm
02:04 AM 71.6°F22.0°C 69.5°F20.8°C 93% 7.3 mph S11.7 kmh S 10.9 mph17.5 kmh 29.78 in1008.5 mb 0.00 in0.0 mm 0.00 in0.0 mm 0.00 in0.0 mm
02:05 AM 71.8°F22.1°C 69.6°F20.9°C 93% 8.9 mph S14.3 kmh S 10.9 mph17.5 kmh 29.78 in1008.5 mb 0.00 in0.0 mm 0.00 in0.0 mm 0.00 in0.0 mm
02:06 AM 72.0°F22.2°C 69.8°F21.0°C 93% 9.9 mph SSW15.9 kmh SSW 10.9 mph17.5 kmh 29.78 in1008.5 mb 0.00 in0.0 mm 0.00 in0.0 mm 0.00 in0.0 mm
02:07 AM 71.8°F22.1°C 69.6°F20.9°C 93% 9.4 mph S15.1 kmh S 10.9 mph17.5 kmh 29.78 in1008.5 mb 0.00 in0.0 mm 0.00 in0.0 mm 0.00 in0.0 mm
02:08 AM 72.0°F22.2°C 69.8°F21.0°C 93% 12.5 mph S20.1 kmh S 12.5 mph20.1 kmh 29.78 in1008.5 mb 0.00 in0.0 mm 0.00 in0.0 mm 0.00 in0.0 mm
02:09 AM 72.0°F22.2°C 69.8°F21.0°C 93% 6.8 mph S10.9 kmh S 12.5 mph20.1 kmh 29.78 in1008.5 mb 0.00 in0.0 mm 0.00 in0.0 mm 0.00 in0.0 mm
02:10 AM 71.8°F22.1°C 69.6°F20.9°C 93% 6.8 mph S10.9 kmh S 12.5 mph20.1 kmh 29.78 in1008.5 mb 0.00 in0.0 mm 0.00 in0.0 mm 0.00 in0.0 mm
02:11 AM 72.0°F22.2°C 69.8°F21.0°C 93% 8.9 mph SSW14.3 kmh SSW 12.5 mph20.1 kmh 29.78 in1008.5 mb 0.00 in0.0 mm 0.00 in0.0 mm 0.00 in0.0 mm
02:12 AM 72.0°F22.2°C 69.8°F21.0°C 93% 12.5 mph SSW20.1 kmh SSW 12.5 mph20.1 kmh 29.78 in1008.5 mb 0.00 in0.0 mm 0.00 in0.0 mm 0.00 in0.0 mm
02:13 AM 71.8°F22.1°C 69.6°F20.9°C 93% 8.9 mph SSE14.3 kmh SSE 12.5 mph20.1 kmh 29.78 in1008.5 mb 0.00 in0.0 mm 0.00 in0.0 mm 0.00 in0.0 mm
02:14 AM 72.0°F22.2°C 69.8°F21.0°C 93% 7.8 mph SSW12.6 kmh SSW 12.5 mph20.1 kmh 29.78 in1008.5 mb 0.00 in0.0 mm 0.00 in0.0 mm 0.00 in0.0 mm
02:15 AM 72.1°F22.3°C 70.0°F21.1°C 93% 8.9 mph SSW14.3 kmh SSW 12.5 mph20.1 kmh 29.78 in1008.5 mb 0.00 in0.0 mm 0.00 in0.0 mm 0.00 in0.0 mm
02:16 AM 72.1°F22.3°C 70.0°F21.1°C 93% 6.8 mph S10.9 kmh S 12.5 mph20.1 kmh 29.78 in1008.5 mb 0.00 in0.0 mm 0.00 in0.0 mm 0.00 in0.0 mm
02:17 AM 72.0°F22.2°C 69.8°F21.0°C 93% 9.9 mph SSW15.9 kmh SSW 12.5 mph20.1 kmh 29.78 in1008.5 mb 0.00 in0.0 mm 0.00 in0.0 mm 0.00 in0.0 mm
02:18 AM 72.1°F22.3°C 70.0°F21.1°C 93% 5.3 mph SSW8.5 kmh SSW 12.5 mph20.1 kmh 29.78 in1008.5 mb 0.00 in0.0 mm 0.00 in0.0 mm 0.00 in0.0 mm
02:19 AM 72.0°F22.2°C 69.8°F21.0°C 93% 8.9 mph SSW14.3 kmh SSW 12.5 mph20.1 kmh 29.78 in1008.5 mb 0.00 in0.0 mm 0.00 in0.0 mm 0.00 in0.0 mm
02:20 AM 72.0°F22.2°C 69.8°F21.0°C 93% 9.9 mph S15.9 kmh S 12.5 mph20.1 kmh 29.78 in1008.5 mb 0.00 in0.0 mm 0.00 in0.0 mm 0.00 in0.0 mm
02:21 AM 72.1°F22.3°C 70.0°F21.1°C 93% 10.9 mph SW17.5 kmh SW 13.5 mph21.7 kmh 29.78 in1008.5 mb 0.00 in0.0 mm 0.00 in0.0 mm 0.00 in0.0 mm
02:22 AM 72.1°F22.3°C 70.0°F21.1°C 93% 8.9 mph S14.3 kmh S 13.5 mph21.7 kmh 29.78 in1008.5 mb 0.00 in0.0 mm 0.00 in0.0 mm 0.00 in0.0 mm
02:23 AM 72.1°F22.3°C 70.0°F21.1°C 93% 8.9 mph S14.3 kmh S 13.5 mph21.7 kmh 29.78 in1008.5 mb 0.00 in0.0 mm 0.00 in0.0 mm 0.00 in0.0 mm
02:24 AM 72.1°F22.3°C 70.0°F21.1°C 93% 7.3 mph SSW11.7 kmh SSW 13.5 mph21.7 kmh 29.78 in1008.5 mb 0.00 in0.0 mm 0.00 in0.0 mm 0.00 in0.0 mm
02:25 AM 72.1°F22.3°C 70.0°F21.1°C 93% 4.2 mph S6.8 kmh S 13.5 mph21.7 kmh 29.77 in1008.1 mb 0.00 in0.0 mm 0.00 in0.0 mm 0.00 in0.0 mm
02:26 AM 72.0°F22.2°C 69.8°F21.0°C 93% 12.0 mph SSW19.3 kmh SSW 13.5 mph21.7 kmh 29.77 in1008.1 mb 0.00 in0.0 mm 0.00 in0.0 mm 0.00 in0.0 mm
02:27 AM 72.1°F22.3°C 70.0°F21.1°C 93% 14.0 mph SSW22.5 kmh SSW 14.0 mph22.5 kmh 29.77 in1008.1 mb 0.00 in0.0 mm 0.00 in0.0 mm 0.00 in0.0 mm
02:28 AM 72.3°F22.4°C 70.2°F21.2°C 93% 9.9 mph SSW15.9 kmh SSW 14.0 mph22.5 kmh 29.77 in1008.1 mb 0.00 in0.0 mm 0.00 in0.0 mm 0.00 in0.0 mm
02:29 AM 72.1°F22.3°C 70.0°F21.1°C 93% 14.0 mph S22.5 kmh S 14.0 mph22.5 kmh 29.77 in1008.1 mb 0.00 in0.0 mm 0.00 in0.0 mm 0.00 in0.0 mm
02:30 AM 72.3°F22.4°C 70.2°F21.2°C 93% 11.4 mph SSW18.3 kmh SSW 14.0 mph22.5 kmh 29.77 in1008.1 mb 0.00 in0.0 mm 0.00 in0.0 mm 0.00 in0.0 mm
02:31 AM 72.3°F22.4°C 70.2°F21.2°C 93% 12.5 mph SSW20.1 kmh SSW 16.1 mph25.9 kmh 29.77 in1008.1 mb 0.00 in0.0 mm 0.00 in0.0 mm 0.00 in0.0 mm
02:32 AM 72.3°F22.4°C 70.2°F21.2°C 93% 7.8 mph SSW12.6 kmh SSW 16.1 mph25.9 kmh 29.77 in1008.1 mb 0.00 in0.0 mm 0.00 in0.0 mm 0.00 in0.0 mm
02:33 AM 72.5°F22.5°C 70.4°F21.3°C 93% 8.9 mph S14.3 kmh S 16.1 mph25.9 kmh 29.77 in1008.1 mb 0.00 in0.0 mm 0.00 in0.0 mm 0.00 in0.0 mm
02:34 AM 72.5°F22.5°C 70.4°F21.3°C 93% 7.3 mph SSW11.7 kmh SSW 16.1 mph25.9 kmh 29.77 in1008.1 mb 0.00 in0.0 mm 0.00 in0.0 mm 0.00 in0.0 mm
02:35 AM 72.3°F22.4°C 70.2°F21.2°C 93% 12.5 mph SSW20.1 kmh SSW 16.1 mph25.9 kmh 29.77 in1008.1 mb 0.00 in0.0 mm 0.00 in0.0 mm 0.00 in0.0 mm
02:36 AM 72.3°F22.4°C 70.2°F21.2°C 93% 9.9 mph SSW15.9 kmh SSW 16.1 mph25.9 kmh 29.77 in1008.1 mb 0.00 in0.0 mm 0.00 in0.0 mm 0.00 in0.0 mm
02:37 AM 72.3°F22.4°C 70.2°F21.2°C 93% 11.4 mph SSW18.3 kmh SSW 16.1 mph25.9 kmh 29.77 in1008.1 mb 0.00 in0.0 mm 0.00 in0.0 mm 0.00 in0.0 mm
02:38 AM 72.3°F22.4°C 70.2°F21.2°C 93% 15.6 mph SSW25.1 kmh SSW 16.1 mph25.9 kmh 29.77 in1008.1 mb 0.00 in0.0 mm 0.00 in0.0 mm 0.00 in0.0 mm
02:39 AM 72.7°F22.6°C 70.5°F21.4°C 93% 12.0 mph SSW19.3 kmh SSW 16.1 mph25.9 kmh 29.77 in1008.1 mb 0.00 in0.0 mm 0.00 in0.0 mm 0.00 in0.0 mm
02:40 AM 72.5°F22.5°C 70.4°F21.3°C 93% 14.0 mph SW22.5 kmh SW 16.1 mph25.9 kmh 29.77 in1008.1 mb 0.00 in0.0 mm 0.00 in0.0 mm 0.00 in0.0 mm
02:41 AM 72.5°F22.5°C 70.4°F21.3°C 93% 11.4 mph S18.3 kmh S 15.6 mph25.1 kmh 29.77 in1008.1 mb 0.00 in0.0 mm 0.00 in0.0 mm 0.00 in0.0 mm
02:42 AM 72.7°F22.6°C 70.5°F21.4°C 93% 14.5 mph SSW23.3 kmh SSW 17.6 mph28.3 kmh 29.77 in1008.1 mb 0.00 in0.0 mm 0.00 in0.0 mm 0.00 in0.0 mm
02:43 AM 72.7°F22.6°C 70.5°F21.4°C 93% 7.8 mph SSW12.6 kmh SSW 17.6 mph28.3 kmh 29.77 in1008.1 mb 0.00 in0.0 mm 0.00 in0.0 mm 0.00 in0.0 mm
02:44 AM 72.3°F22.4°C 70.2°F21.2°C 93% 13.0 mph SSW20.9 kmh SSW 17.6 mph28.3 kmh 29.77 in1008.1 mb 0.00 in0.0 mm 0.00 in0.0 mm 0.00 in0.0 mm
02:45 AM 72.3°F22.4°C 70.2°F21.2°C 93% 13.0 mph SSW20.9 kmh SSW 17.6 mph28.3 kmh 29.77 in1008.1 mb 0.00 in0.0 mm 0.00 in0.0 mm 0.00 in0.0 mm
02:46 AM 72.3°F22.4°C 70.2°F21.2°C 93% 7.3 mph S11.7 kmh S 17.6 mph28.3 kmh 29.77 in1008.1 mb 0.00 in0.0 mm 0.00 in0.0 mm 0.00 in0.0 mm
02:47 AM 72.3°F22.4°C 70.2°F21.2°C 93% 8.3 mph SSW13.4 kmh SSW 17.6 mph28.3 kmh 29.77 in1008.1 mb 0.00 in0.0 mm 0.00 in0.0 mm 0.00 in0.0 mm
02:48 AM 72.3°F22.4°C 70.2°F21.2°C 93% 9.9 mph S15.9 kmh S 17.6 mph28.3 kmh 29.77 in1008.1 mb 0.00 in0.0 mm 0.00 in0.0 mm 0.00 in0.0 mm
02:49 AM 72.1°F22.3°C 70.0°F21.1°C 93% 7.8 mph SSW12.6 kmh SSW 17.6 mph28.3 kmh 29.77 in1008.1 mb 0.00 in0.0 mm 0.00 in0.0 mm 0.00 in0.0 mm
02:50 AM 72.1°F22.3°C 70.0°F21.1°C 93% 8.9 mph SSW14.3 kmh SSW 17.6 mph28.3 kmh 29.77 in1008.1 mb 0.00 in0.0 mm 0.00 in0.0 mm 0.00 in0.0 mm
02:51 AM 72.1°F22.3°C 70.0°F21.1°C 93% 6.3 mph S10.1 kmh S 17.6 mph28.3 kmh 29.77 in1008.1 mb 0.00 in0.0 mm 0.00 in0.0 mm 0.00 in0.0 mm
02:52 AM 72.3°F22.4°C 70.2°F21.2°C 93% 12.5 mph SSW20.1 kmh SSW 15.6 mph25.1 kmh 29.77 in1008.1 mb 0.00 in0.0 mm 0.00 in0.0 mm 0.00 in0.0 mm
02:53 AM 72.3°F22.4°C 70.2°F21.2°C 93% 13.5 mph SSW21.7 kmh SSW 15.6 mph25.1 kmh 29.77 in1008.1 mb 0.00 in0.0 mm 0.00 in0.0 mm 0.00 in0.0 mm
02:54 AM 72.1°F22.3°C 70.0°F21.1°C 93% 8.9 mph SSW14.3 kmh SSW 15.6 mph25.1 kmh 29.77 in1008.1 mb 0.00 in0.0 mm 0.00 in0.0 mm 0.00 in0.0 mm
02:55 AM 72.3°F22.4°C 70.2°F21.2°C 93% 9.4 mph SSW15.1 kmh SSW 14.0 mph22.5 kmh 29.77 in1008.1 mb 0.00 in0.0 mm 0.00 in0.0 mm 0.00 in0.0 mm
02:56 AM 72.5°F22.5°C 70.4°F21.3°C 93% 7.3 mph S11.7 kmh S 13.5 mph21.7 kmh 29.77 in1008.1 mb 0.00 in0.0 mm 0.00 in0.0 mm 0.00 in0.0 mm
02:57 AM 72.5°F22.5°C 70.4°F21.3°C 93% 10.9 mph SSW17.5 kmh SSW 13.5 mph21.7 kmh 29.77 in1008.1 mb 0.00 in0.0 mm 0.00 in0.0 mm 0.00 in0.0 mm
02:58 AM 72.3°F22.4°C 70.2°F21.2°C 93% 4.7 mph SSW7.6 kmh SSW 13.5 mph21.7 kmh 29.77 in1008.1 mb 0.00 in0.0 mm 0.00 in0.0 mm 0.00 in0.0 mm
02:59 AM 72.3°F22.4°C 70.2°F21.2°C 93% 8.9 mph SSW14.3 kmh SSW 13.5 mph21.7 kmh 29.77 in1008.1 mb 0.00 in0.0 mm 0.00 in0.0 mm 0.00 in0.0 mm
03:00 AM 72.3°F22.4°C 70.2°F21.2°C 93% 8.3 mph SSW13.4 kmh SSW 13.5 mph21.7 kmh 29.77 in1008.1 mb 0.00 in0.0 mm 0.00 in0.0 mm 0.00 in0.0 mm
03:01 AM 72.5°F22.5°C 70.4°F21.3°C 93% 8.3 mph S13.4 kmh S 13.5 mph21.7 kmh 29.78 in1008.5 mb 0.00 in0.0 mm 0.00 in0.0 mm 0.00 in0.0 mm
03:02 AM 72.7°F22.6°C 70.5°F21.4°C 93% 7.8 mph S12.6 kmh S 13.5 mph21.7 kmh 29.78 in1008.5 mb 0.00 in0.0 mm 0.00 in0.0 mm 0.00 in0.0 mm
03:03 AM 72.3°F22.4°C 70.2°F21.2°C 93% 9.4 mph S15.1 kmh S 11.9 mph19.2 kmh 29.78 in1008.5 mb 0.00 in0.0 mm 0.00 in0.0 mm 0.00 in0.0 mm
03:04 AM 72.3°F22.4°C 70.2°F21.2°C 93% 7.8 mph S12.6 kmh S 11.9 mph19.2 kmh 29.78 in1008.5 mb 0.00 in0.0 mm 0.00 in0.0 mm 0.00 in0.0 mm
03:05 AM 72.3°F22.4°C 70.2°F21.2°C 93% 8.9 mph SW14.3 kmh SW 11.9 mph19.2 kmh 29.78 in1008.5 mb 0.00 in0.0 mm 0.00 in0.0 mm 0.00 in0.0 mm
03:06 AM 72.3°F22.4°C 70.2°F21.2°C 93% 3.7 mph SSW6.0 kmh SSW 11.9 mph19.2 kmh 29.78 in1008.5 mb 0.00 in0.0 mm 0.00 in0.0 mm 0.00 in0.0 mm
03:07 AM 72.3°F22.4°C 70.2°F21.2°C 93% 4.7 mph SSW7.6 kmh SSW 11.9 mph19.2 kmh 29.78 in1008.5 mb 0.00 in0.0 mm 0.00 in0.0 mm 0.00 in0.0 mm
03:08 AM 72.3°F22.4°C 70.2°F21.2°C 93% 9.9 mph S15.9 kmh S 11.4 mph18.3 kmh 29.78 in1008.5 mb 0.00 in0.0 mm 0.00 in0.0 mm 0.00 in0.0 mm
03:09 AM 72.3°F22.4°C 70.2°F21.2°C 93% 4.2 mph SSW6.8 kmh SSW 11.4 mph18.3 kmh 29.78 in1008.5 mb 0.00 in0.0 mm 0.00 in0.0 mm 0.00 in0.0 mm
03:10 AM 72.3°F22.4°C 70.2°F21.2°C 93% 12.0 mph SSW19.3 kmh SSW 11.9 mph19.2 kmh 29.78 in1008.5 mb 0.00 in0.0 mm 0.00 in0.0 mm 0.00 in0.0 mm
03:11 AM 72.1°F22.3°C 70.0°F21.1°C 93% 4.2 mph SSW6.8 kmh SSW 11.9 mph19.2 kmh 29.78 in1008.5 mb 0.00 in0.0 mm 0.00 in0.0 mm 0.00 in0.0 mm
03:12 AM 72.1°F22.3°C 70.0°F21.1°C 93% 9.4 mph S15.1 kmh S 11.9 mph19.2 kmh 29.78 in1008.5 mb 0.00 in0.0 mm 0.00 in0.0 mm 0.00 in0.0 mm
03:13 AM 72.1°F22.3°C 70.0°F21.1°C 93% 8.3 mph SSW13.4 kmh SSW 11.9 mph19.2 kmh 29.78 in1008.5 mb 0.00 in0.0 mm 0.00 in0.0 mm 0.00 in0.0 mm
03:14 AM 72.1°F22.3°C 70.0°F21.1°C 93% 8.9 mph SSW14.3 kmh SSW 11.9 mph19.2 kmh 29.78 in1008.5 mb 0.00 in0.0 mm 0.00 in0.0 mm 0.00 in0.0 mm
03:15 AM 72.1°F22.3°C 70.0°F21.1°C 93% 5.8 mph SSW9.3 kmh SSW 11.9 mph19.2 kmh 29.78 in1008.5 mb 0.00 in0.0 mm 0.00 in0.0 mm 0.00 in0.0 mm
03:16 AM 72.1°F22.3°C 70.0°F21.1°C 93% 9.9 mph SSW15.9 kmh SSW 11.9 mph19.2 kmh 29.78 in1008.5 mb 0.00 in0.0 mm 0.00 in0.0 mm 0.00 in0.0 mm
03:17 AM 72.1°F22.3°C 70.0°F21.1°C 93% 7.3 mph SSE11.7 kmh SSE 11.9 mph19.2 kmh 29.78 in1008.5 mb 0.00 in0.0 mm 0.00 in0.0 mm 0.00 in0.0 mm
03:18 AM 72.3°F22.4°C 70.2°F21.2°C 93% 13.0 mph SSW20.9 kmh SSW 13.0 mph20.9 kmh 29.78 in1008.5 mb 0.00 in0.0 mm 0.00 in0.0 mm 0.00 in0.0 mm
03:19 AM 72.5°F22.5°C 70.4°F21.3°C 93% 12.5 mph SSW20.1 kmh SSW 13.0 mph20.9 kmh 29.78 in1008.5 mb 0.00 in0.0 mm 0.00 in0.0 mm 0.00 in0.0 mm
03:20 AM 72.1°F22.3°C 70.0°F21.1°C 93% 10.9 mph S17.5 kmh S 13.0 mph20.9 kmh 29.78 in1008.5 mb 0.00 in0.0 mm 0.00 in0.0 mm 0.00 in0.0 mm
03:21 AM 72.1°F22.3°C 70.0°F21.1°C 93% 10.4 mph S16.7 kmh S 13.0 mph20.9 kmh 29.78 in1008.5 mb 0.00 in0.0 mm 0.00 in0.0 mm 0.00 in0.0 mm
03:22 AM 72.0°F22.2°C 69.8°F21.0°C 93% 8.9 mph SSW14.3 kmh SSW 13.0 mph20.9 kmh 29.78 in1008.5 mb 0.00 in0.0 mm 0.00 in0.0 mm 0.00 in0.0 mm
03:23 AM 72.0°F22.2°C 69.8°F21.0°C 93% 10.4 mph SSW16.7 kmh SSW 13.0 mph20.9 kmh 29.78 in1008.5 mb 0.00 in0.0 mm 0.00 in0.0 mm 0.00 in0.0 mm
03:24 AM 71.8°F22.1°C 69.6°F20.9°C 93% 8.3 mph SSW13.4 kmh SSW 13.0 mph20.9 kmh 29.78 in1008.5 mb 0.00 in0.0 mm 0.00 in0.0 mm 0.00 in0.0 mm
03:25 AM 72.1°F22.3°C 70.0°F21.1°C 93% 9.4 mph SSW15.1 kmh SSW 13.0 mph20.9 kmh 29.78 in1008.5 mb 0.00 in0.0 mm 0.00 in0.0 mm 0.00 in0.0 mm
03:26 AM 72.1°F22.3°C 70.0°F21.1°C 93% 10.4 mph SSE16.7 kmh SSE 13.0 mph20.9 kmh 29.78 in1008.5 mb 0.00 in0.0 mm 0.00 in0.0 mm 0.00 in0.0 mm
03:27 AM 72.0°F22.2°C 69.8°F21.0°C 93% 9.4 mph SSW15.1 kmh SSW 13.0 mph20.9 kmh 29.78 in1008.5 mb 0.00 in0.0 mm 0.00 in0.0 mm 0.00 in0.0 mm
03:28 AM 72.0°F22.2°C 69.8°F21.0°C 93% 10.4 mph SSW16.7 kmh SSW 13.5 mph21.7 kmh 29.78 in1008.5 mb 0.00 in0.0 mm 0.00 in0.0 mm 0.00 in0.0 mm
03:29 AM 72.1°F22.3°C 70.0°F21.1°C 93% 10.9 mph SSW17.5 kmh SSW 13.5 mph21.7 kmh 29.78 in1008.5 mb 0.00 in0.0 mm 0.00 in0.0 mm 0.00 in0.0 mm
03:30 AM 72.3°F22.4°C 70.2°F21.2°C 93% 10.4 mph SSW16.7 kmh SSW 13.5 mph21.7 kmh 29.78 in1008.5 mb 0.00 in0.0 mm 0.00 in0.0 mm 0.00 in0.0 mm
03:31 AM 72.5°F22.5°C 70.4°F21.3°C 93% 11.4 mph SSW18.3 kmh SSW 13.5 mph21.7 kmh 29.78 in1008.5 mb 0.00 in0.0 mm 0.00 in0.0 mm 0.00 in0.0 mm
03:32 AM 72.3°F22.4°C 70.2°F21.2°C 93% 10.4 mph S16.7 kmh S 14.0 mph22.5 kmh 29.78 in1008.5 mb 0.00 in0.0 mm 0.00 in0.0 mm 0.00 in0.0 mm
03:33 AM 72.5°F22.5°C 70.4°F21.3°C 93% 14.0 mph S22.5 kmh S 14.0 mph22.5 kmh 29.78 in1008.5 mb 0.00 in0.0 mm 0.00 in0.0 mm 0.00 in0.0 mm
03:34 AM 72.7°F22.6°C 70.5°F21.4°C 93% 13.0 mph SSW20.9 kmh SSW 15.0 mph24.1 kmh 29.78 in1008.5 mb 0.00 in0.0 mm 0.00 in0.0 mm 0.00 in0.0 mm
03:35 AM 72.7°F22.6°C 70.5°F21.4°C 93% 13.0 mph SSW20.9 kmh SSW 15.0 mph24.1 kmh 29.78 in1008.5 mb 0.00 in0.0 mm 0.00 in0.0 mm 0.00 in0.0 mm
03:36 AM 72.7°F22.6°C 70.5°F21.4°C 93% 14.5 mph SSW23.3 kmh SSW 17.1 mph27.5 kmh 29.78 in1008.5 mb 0.00 in0.0 mm 0.00 in0.0 mm 0.00 in0.0 mm
03:37 AM 72.5°F22.5°C 70.4°F21.3°C 93% 9.9 mph SSW15.9 kmh SSW 17.1 mph27.5 kmh 29.78 in1008.5 mb 0.00 in0.0 mm 0.00 in0.0 mm 0.00 in0.0 mm
03:38 AM 72.5°F22.5°C 70.4°F21.3°C 93% 10.9 mph SSW17.5 kmh SSW 17.1 mph27.5 kmh 29.78 in1008.5 mb 0.00 in0.0 mm 0.00 in0.0 mm 0.00 in0.0 mm
03:39 AM 72.5°F22.5°C 70.4°F21.3°C 93% 13.5 mph SSW21.7 kmh SSW 17.1 mph27.5 kmh 29.78 in1008.5 mb 0.00 in0.0 mm 0.00 in0.0 mm 0.00 in0.0 mm
03:40 AM 72.5°F22.5°C 70.4°F21.3°C 93% 15.6 mph SSW25.1 kmh SSW 17.1 mph27.5 kmh 29.78 in1008.5 mb 0.00 in0.0 mm 0.00 in0.0 mm 0.00 in0.0 mm
03:41 AM 72.7°F22.6°C 70.5°F21.4°C 93% 10.9 mph SSW17.5 kmh SSW 17.1 mph27.5 kmh 29.78 in1008.5 mb 0.00 in0.0 mm 0.00 in0.0 mm 0.00 in0.0 mm
03:42 AM 72.5°F22.5°C 70.0°F21.1°C 92% 10.4 mph SSW16.7 kmh SSW 17.1 mph27.5 kmh 29.78 in1008.5 mb 0.00 in0.0 mm 0.00 in0.0 mm 0.00 in0.0 mm
03:43 AM 72.3°F22.4°C 69.9°F21.1°C 92% 10.9 mph SSW17.5 kmh SSW 17.1 mph27.5 kmh 29.78 in1008.5 mb 0.00 in0.0 mm 0.00 in0.0 mm 0.00 in0.0 mm
03:44 AM 72.5°F22.5°C 70.0°F21.1°C 92% 9.4 mph SSW15.1 kmh SSW 17.1 mph27.5 kmh 29.78 in1008.5 mb 0.00 in0.0 mm 0.00 in0.0 mm 0.00 in0.0 mm
03:45 AM 72.5°F22.5°C 70.0°F21.1°C 92% 10.9 mph SSW17.5 kmh SSW 17.1 mph27.5 kmh 29.78 in1008.5 mb 0.00 in0.0 mm 0.00 in0.0 mm 0.00 in0.0 mm
03:46 AM 72.5°F22.5°C 70.0°F21.1°C 92% 10.9 mph SSW17.5 kmh SSW 16.1 mph25.9 kmh 29.78 in1008.5 mb 0.00 in0.0 mm 0.00 in0.0 mm 0.00 in0.0 mm
03:47 AM 72.5°F22.5°C 70.0°F21.1°C 92% 9.9 mph SW15.9 kmh SW 16.1 mph25.9 kmh 29.78 in1008.5 mb 0.00 in0.0 mm 0.00 in0.0 mm 0.00 in0.0 mm
03:48 AM 72.5°F22.5°C 70.0°F21.1°C 92% 10.4 mph SSW16.7 kmh SSW 16.1 mph25.9 kmh 29.78 in1008.5 mb 0.00 in0.0 mm 0.00 in0.0 mm 0.00 in0.0 mm
03:49 AM 72.5°F22.5°C 70.0°F21.1°C 92% 8.9 mph SW14.3 kmh SW 16.1 mph25.9 kmh 29.78 in1008.5 mb 0.00 in0.0 mm 0.00 in0.0 mm 0.00 in0.0 mm
03:50 AM 72.3°F22.4°C 69.9°F21.1°C 92% 7.3 mph SW11.7 kmh SW 13.0 mph20.9 kmh 29.79 in1008.8 mb 0.00 in0.0 mm 0.00 in0.0 mm 0.00 in0.0 mm
03:51 AM 72.3°F22.4°C 69.9°F21.1°C 92% 10.4 mph SSW16.7 kmh SSW 13.0 mph20.9 kmh 29.79 in1008.8 mb 0.00 in0.0 mm 0.00 in0.0 mm 0.00 in0.0 mm
03:52 AM 72.3°F22.4°C 69.9°F21.1°C 92% 9.4 mph SSW15.1 kmh SSW 13.0 mph20.9 kmh 29.79 in1008.8 mb 0.00 in0.0 mm 0.00 in0.0 mm 0.00 in0.0 mm
03:53 AM 72.3°F22.4°C 69.9°F21.1°C 92% 7.3 mph SSW11.7 kmh SSW 11.9 mph19.2 kmh 29.79 in1008.8 mb 0.00 in0.0 mm 0.00 in0.0 mm 0.00 in0.0 mm
03:54 AM 72.3°F22.4°C 69.9°F21.1°C 92% 12.0 mph SSW19.3 kmh SSW 11.9 mph19.2 kmh 29.79 in1008.8 mb 0.00 in0.0 mm 0.00 in0.0 mm 0.00 in0.0 mm
03:55 AM 72.3°F22.4°C 69.9°F21.1°C 92% 13.5 mph SSW21.7 kmh SSW 13.5 mph21.7 kmh 29.79 in1008.8 mb 0.00 in0.0 mm 0.00 in0.0 mm 0.00 in0.0 mm
03:56 AM 72.5°F22.5°C 70.0°F21.1°C 92% 12.5 mph SSW20.1 kmh SSW 13.5 mph21.7 kmh 29.79 in1008.8 mb 0.00 in0.0 mm 0.00 in0.0 mm 0.00 in0.0 mm
03:57 AM 72.3°F22.4°C 69.9°F21.1°C 92% 10.9 mph SSW17.5 kmh SSW 13.5 mph21.7 kmh 29.79 in1008.8 mb 0.00 in0.0 mm 0.00 in0.0 mm 0.00 in0.0 mm
03:58 AM 72.1°F22.3°C 69.7°F20.9°C 92% 9.9 mph SW15.9 kmh SW 13.5 mph21.7 kmh 29.79 in1008.8 mb 0.00 in0.0 mm 0.00 in0.0 mm 0.00 in0.0 mm
03:59 AM 72.1°F22.3°C 69.7°F20.9°C 92% 15.0 mph SSW24.1 kmh SSW 15.0 mph24.1 kmh 29.79 in1008.8 mb 0.00 in0.0 mm 0.00 in0.0 mm 0.00 in0.0 mm
04:00 AM 72.3°F22.4°C 69.9°F21.1°C 92% 14.0 mph SSW22.5 kmh SSW 15.0 mph24.1 kmh 29.79 in1008.8 mb 0.00 in0.0 mm 0.00 in0.0 mm 0.00 in0.0 mm
04:01 AM 72.3°F22.4°C 69.9°F21.1°C 92% 8.9 mph S14.3 kmh S 15.0 mph24.1 kmh 29.79 in1008.8 mb 0.00 in0.0 mm 0.00 in0.0 mm 0.00 in0.0 mm
04:02 AM 72.3°F22.4°C 69.9°F21.1°C 92% 10.4 mph SSW16.7 kmh SSW 15.0 mph24.1 kmh 29.79 in1008.8 mb 0.00 in0.0 mm 0.00 in0.0 mm 0.00 in0.0 mm
04:03 AM 72.3°F22.4°C 69.9°F21.1°C 92% 11.4 mph SSW18.3 kmh SSW 15.0 mph24.1 kmh 29.79 in1008.8 mb 0.00 in0.0 mm 0.00 in0.0 mm 0.00 in0.0 mm
04:04 AM 72.5°F22.5°C 70.0°F21.1°C 92% 10.4 mph SSW16.7 kmh SSW 15.0 mph24.1 kmh 29.79 in1008.8 mb 0.00 in0.0 mm 0.00 in0.0 mm 0.00 in0.0 mm
04:05 AM 72.3°F22.4°C 69.9°F21.1°C 92% 13.5 mph SW21.7 kmh SW 15.0 mph24.1 kmh 29.79 in1008.8 mb 0.00 in0.0 mm 0.00 in0.0 mm 0.00 in0.0 mm
04:06 AM 72.3°F22.4°C 69.9°F21.1°C 92% 10.9 mph SSW17.5 kmh SSW 15.0 mph24.1 kmh 29.79 in1008.8 mb 0.00 in0.0 mm 0.00 in0.0 mm 0.00 in0.0 mm
04:07 AM 72.3°F22.4°C 69.9°F21.1°C 92% 11.4 mph S18.3 kmh S 15.0 mph24.1 kmh 29.79 in1008.8 mb 0.00 in0.0 mm 0.00 in0.0 mm 0.00 in0.0 mm
04:08 AM 72.1°F22.3°C 69.7°F20.9°C 92% 10.9 mph SSW17.5 kmh SSW 15.0 mph24.1 kmh 29.79 in1008.8 mb 0.00 in0.0 mm 0.00 in0.0 mm 0.00 in0.0 mm
04:09 AM 72.3°F22.4°C 69.9°F21.1°C 92% 13.0 mph SSW20.9 kmh SSW 14.0 mph22.5 kmh 29.79 in1008.8 mb 0.00 in0.0 mm 0.00 in0.0 mm 0.00 in0.0 mm
04:10 AM 72.5°F22.5°C 70.0°F21.1°C 92% 15.6 mph SSW25.1 kmh SSW 17.1 mph27.5 kmh 29.79 in1008.8 mb 0.00 in0.0 mm 0.00 in0.0 mm 0.00 in0.0 mm
04:11 AM 72.5°F22.5°C 70.0°F21.1°C 92% 13.5 mph SSW21.7 kmh SSW 17.1 mph27.5 kmh 29.79 in1008.8 mb 0.00 in0.0 mm 0.00 in0.0 mm 0.00 in0.0 mm
04:12 AM 72.7°F22.6°C 70.2°F21.2°C 92% 12.5 mph SSW20.1 kmh SSW 17.1 mph27.5 kmh 29.79 in1008.8 mb 0.00 in0.0 mm 0.00 in0.0 mm 0.00 in0.0 mm
04:13 AM 72.9°F22.7°C 70.4°F21.3°C 92% 18.1 mph SSW29.1 kmh SSW 18.1 mph29.1 kmh 29.79 in1008.8 mb 0.00 in0.0 mm 0.00 in0.0 mm 0.00 in0.0 mm
04:14 AM 72.9°F22.7°C 70.4°F21.3°C 92% 14.0 mph S22.5 kmh S 18.1 mph29.1 kmh 29.78 in1008.5 mb 0.00 in0.0 mm 0.00 in0.0 mm 0.00 in0.0 mm
04:15 AM 72.9°F22.7°C 70.4°F21.3°C 92% 14.0 mph SSW22.5 kmh SSW 18.1 mph29.1 kmh 29.78 in1008.5 mb 0.00 in0.0 mm 0.00 in0.0 mm 0.00 in0.0 mm
04:16 AM 72.9°F22.7°C 70.4°F21.3°C 92% 18.6 mph W29.9 kmh W 18.6 mph29.9 kmh 29.78 in1008.5 mb 0.00 in0.0 mm 0.00 in0.0 mm 0.00 in0.0 mm
04:17 AM 72.9°F22.7°C 70.4°F21.3°C 92% 13.5 mph SSW21.7 kmh SSW 18.6 mph29.9 kmh 29.78 in1008.5 mb 0.00 in0.0 mm 0.00 in0.0 mm 0.00 in0.0 mm
04:18 AM 72.9°F22.7°C 70.4°F21.3°C 92% 15.0 mph S24.1 kmh S 18.6 mph29.9 kmh 29.78 in1008.5 mb 0.00 in0.0 mm 0.00 in0.0 mm 0.00 in0.0 mm
04:19 AM 73.0°F22.8°C 70.6°F21.4°C 92% 15.6 mph S25.1 kmh S 18.6 mph29.9 kmh 29.78 in1008.5 mb 0.00 in0.0 mm 0.00 in0.0 mm 0.00 in0.0 mm
04:20 AM 73.0°F22.8°C 70.6°F21.4°C 92% 14.5 mph SSW23.3 kmh SSW 18.6 mph29.9 kmh 29.78 in1008.5 mb 0.00 in0.0 mm 0.00 in0.0 mm 0.00 in0.0 mm
04:21 AM 73.0°F22.8°C 70.6°F21.4°C 92% 17.1 mph S27.5 kmh S 18.6 mph29.9 kmh 29.78 in1008.5 mb 0.00 in0.0 mm 0.00 in0.0 mm 0.00 in0.0 mm
04:22 AM 72.9°F22.7°C 70.4°F21.3°C 92% 13.5 mph SSW21.7 kmh SSW 18.6 mph29.9 kmh 29.78 in1008.5 mb 0.00 in0.0 mm 0.00 in0.0 mm 0.00 in0.0 mm
04:23 AM 72.9°F22.7°C 70.4°F21.3°C 92% 14.5 mph SSW23.3 kmh SSW 18.6 mph29.9 kmh 29.78 in1008.5 mb 0.00 in0.0 mm 0.00 in0.0 mm 0.00 in0.0 mm
04:24 AM 72.9°F22.7°C 70.4°F21.3°C 92% 12.0 mph SW19.3 kmh SW 18.6 mph29.9 kmh 29.78 in1008.5 mb 0.00 in0.0 mm 0.00 in0.0 mm 0.00 in0.0 mm
04:25 AM 72.7°F22.6°C 70.2°F21.2°C 92% 11.4 mph SSW18.3 kmh SSW 18.6 mph29.9 kmh 29.79 in1008.8 mb 0.00 in0.0 mm 0.00 in0.0 mm 0.00 in0.0 mm
04:26 AM 72.7°F22.6°C 70.2°F21.2°C 92% 15.0 mph SSW24.1 kmh SSW 18.6 mph29.9 kmh 29.79 in1008.8 mb 0.00 in0.0 mm 0.00 in0.0 mm 0.00 in0.0 mm
04:27 AM 72.5°F22.5°C 70.0°F21.1°C 92% 17.1 mph SSW27.5 kmh SSW 18.6 mph29.9 kmh 29.79 in1008.8 mb 0.00 in0.0 mm 0.00 in0.0 mm 0.00 in0.0 mm
04:28 AM 72.9°F22.7°C 70.4°F21.3°C 92% 15.6 mph SSW25.1 kmh SSW 18.6 mph29.9 kmh 29.79 in1008.8 mb 0.00 in0.0 mm 0.00 in0.0 mm 0.00 in0.0 mm
04:29 AM 72.9°F22.7°C 70.4°F21.3°C 92% 14.5 mph SSW23.3 kmh SSW 18.1 mph29.1 kmh 29.79 in1008.8 mb 0.00 in0.0 mm 0.00 in0.0 mm 0.00 in0.0 mm
04:30 AM 72.7°F22.6°C 70.2°F21.2°C 92% 12.0 mph SSW19.3 kmh SSW 17.1 mph27.5 kmh 29.79 in1008.8 mb 0.00 in0.0 mm 0.00 in0.0 mm 0.00 in0.0 mm
04:31 AM 72.9°F22.7°C 70.4°F21.3°C 92% 12.5 mph S20.1 kmh S 18.6 mph29.9 kmh 29.79 in1008.8 mb 0.00 in0.0 mm 0.00 in0.0 mm 0.00 in0.0 mm
04:32 AM 72.7°F22.6°C 70.2°F21.2°C 92% 12.0 mph SSW19.3 kmh SSW 18.6 mph29.9 kmh 29.79 in1008.8 mb 0.00 in0.0 mm 0.00 in0.0 mm 0.00 in0.0 mm
04:33 AM 72.3°F22.4°C 69.9°F21.1°C 92% 13.5 mph SSW21.7 kmh SSW 18.6 mph29.9 kmh 29.79 in1008.8 mb 0.00 in0.0 mm 0.00 in0.0 mm 0.00 in0.0 mm
04:34 AM 72.3°F22.4°C 69.9°F21.1°C 92% 15.6 mph SW25.1 kmh SW 18.6 mph29.9 kmh 29.79 in1008.8 mb 0.00 in0.0 mm 0.00 in0.0 mm 0.00 in0.0 mm
04:35 AM 72.5°F22.5°C 70.0°F21.1°C 92% 10.9 mph SSW17.5 kmh SSW 18.6 mph29.9 kmh 29.79 in1008.8 mb 0.00 in0.0 mm 0.00 in0.0 mm 0.00 in0.0 mm
04:36 AM 72.3°F22.4°C 69.9°F21.1°C 92% 12.0 mph SSW19.3 kmh SSW 18.6 mph29.9 kmh 29.79 in1008.8 mb 0.00 in0.0 mm 0.00 in0.0 mm 0.00 in0.0 mm
04:37 AM 72.7°F22.6°C 70.2°F21.2°C 92% 15.0 mph SSW24.1 kmh SSW 18.6 mph29.9 kmh 29.79 in1008.8 mb 0.00 in0.0 mm 0.00 in0.0 mm 0.00 in0.0 mm
04:38 AM 72.7°F22.6°C 70.2°F21.2°C 92% 11.4 mph SSW18.3 kmh SSW 18.6 mph29.9 kmh 29.79 in1008.8 mb 0.00 in0.0 mm 0.00 in0.0 mm 0.00 in0.0 mm
04:39 AM 72.5°F22.5°C 70.0°F21.1°C 92% 12.0 mph SSW19.3 kmh SSW 18.6 mph29.9 kmh 29.79 in1008.8 mb 0.00 in0.0 mm 0.00 in0.0 mm 0.00 in0.0 mm
04:40 AM 72.5°F22.5°C 70.0°F21.1°C 92% 13.0 mph SSW20.9 kmh SSW 18.6 mph29.9 kmh 29.79 in1008.8 mb 0.00 in0.0 mm 0.00 in0.0 mm 0.00 in0.0 mm
04:41 AM 72.7°F22.6°C 70.2°F21.2°C 92% 11.4 mph SSW18.3 kmh SSW 16.1 mph25.9 kmh 29.79 in1008.8 mb 0.00 in0.0 mm 0.00 in0.0 mm 0.00 in0.0 mm
04:42 AM 72.7°F22.6°C 70.2°F21.2°C 92% 12.5 mph SSW20.1 kmh SSW 16.1 mph25.9 kmh 29.79 in1008.8 mb 0.00 in0.0 mm 0.00 in0.0 mm 0.00 in0.0 mm
04:43 AM 72.9°F22.7°C 70.4°F21.3°C 92% 12.0 mph SSW19.3 kmh SSW 16.1 mph25.9 kmh 29.79 in1008.8 mb 0.00 in0.0 mm 0.00 in0.0 mm 0.00 in0.0 mm
04:44 AM 72.9°F22.7°C 70.4°F21.3°C 92% 13.0 mph SSW20.9 kmh SSW 16.1 mph25.9 kmh 29.79 in1008.8 mb 0.00 in0.0 mm 0.00 in0.0 mm 0.00 in0.0 mm
04:45 AM 72.7°F22.6°C 70.2°F21.2°C 92% 12.0 mph SSW19.3 kmh SSW 16.1 mph25.9 kmh 29.79 in1008.8 mb 0.00 in0.0 mm 0.00 in0.0 mm 0.00 in0.0 mm
04:46 AM 72.9°F22.7°C 70.4°F21.3°C 92% 8.9 mph SSW14.3 kmh SSW 16.1 mph25.9 kmh 29.79 in1008.8 mb 0.00 in0.0 mm 0.00 in0.0 mm 0.00 in0.0 mm
04:47 AM 72.7°F22.6°C 70.2°F21.2°C 92% 7.8 mph SSW12.6 kmh SSW 16.1 mph25.9 kmh 29.79 in1008.8 mb 0.00 in0.0 mm 0.00 in0.0 mm 0.00 in0.0 mm
04:48 AM 72.5°F22.5°C 70.0°F21.1°C 92% 7.3 mph SW11.7 kmh SW 16.1 mph25.9 kmh 29.79 in1008.8 mb 0.00 in0.0 mm 0.00 in0.0 mm 0.00 in0.0 mm
04:49 AM 72.3°F22.4°C 69.9°F21.1°C 92% 7.8 mph SSW12.6 kmh SSW 16.1 mph25.9 kmh 29.79 in1008.8 mb 0.00 in0.0 mm 0.00 in0.0 mm 0.00 in0.0 mm
04:50 AM 72.5°F22.5°C 70.0°F21.1°C 92% 7.8 mph SSW12.6 kmh SSW 16.1 mph25.9 kmh 29.79 in1008.8 mb 0.00 in0.0 mm 0.00 in0.0 mm 0.00 in0.0 mm
04:51 AM 72.5°F22.5°C 70.0°F21.1°C 92% 7.8 mph SSW12.6 kmh SSW 13.5 mph21.7 kmh 29.79 in1008.8 mb 0.00 in0.0 mm 0.00 in0.0 mm 0.00 in0.0 mm
04:52 AM 72.5°F22.5°C 70.0°F21.1°C 92% 6.8 mph SSW10.9 kmh SSW 13.5 mph21.7 kmh 29.79 in1008.8 mb 0.00 in0.0 mm 0.00 in0.0 mm 0.00 in0.0 mm
04:53 AM 72.3°F22.4°C 69.9°F21.1°C 92% 9.4 mph SSW15.1 kmh SSW 13.5 mph21.7 kmh 29.79 in1008.8 mb 0.00 in0.0 mm 0.00 in0.0 mm 0.00 in0.0 mm
04:54 AM 72.3°F22.4°C 69.9°F21.1°C 92% 9.9 mph SSW15.9 kmh SSW 13.5 mph21.7 kmh 29.79 in1008.8 mb 0.00 in0.0 mm 0.00 in0.0 mm 0.00 in0.0 mm
04:55 AM 72.3°F22.4°C 69.9°F21.1°C 92% 7.8 mph SSW12.6 kmh SSW 11.9 mph19.2 kmh 29.79 in1008.8 mb 0.00 in0.0 mm 0.00 in0.0 mm 0.00 in0.0 mm
04:56 AM 72.5°F22.5°C 70.0°F21.1°C 92% 7.3 mph SSW11.7 kmh SSW 9.9 mph15.9 kmh 29.79 in1008.8 mb 0.00 in0.0 mm 0.00 in0.0 mm 0.00 in0.0 mm
04:57 AM 72.3°F22.4°C 69.9°F21.1°C 92% 6.3 mph SSW10.1 kmh SSW 9.9 mph15.9 kmh 29.79 in1008.8 mb 0.00 in0.0 mm 0.00 in0.0 mm 0.00 in0.0 mm
04:58 AM 72.3°F22.4°C 69.9°F21.1°C 92% 9.9 mph SSW15.9 kmh SSW 9.9 mph15.9 kmh 29.79 in1008.8 mb 0.00 in0.0 mm 0.00 in0.0 mm 0.00 in0.0 mm
04:59 AM 72.3°F22.4°C 69.9°F21.1°C 92% 5.8 mph SSW9.3 kmh SSW 9.9 mph15.9 kmh 29.79 in1008.8 mb 0.00 in0.0 mm 0.00 in0.0 mm 0.00 in0.0 mm
05:00 AM 72.1°F22.3°C 69.7°F20.9°C 92% 6.3 mph SSW10.1 kmh SSW 9.9 mph15.9 kmh 29.79 in1008.8 mb 0.00 in0.0 mm 0.00 in0.0 mm 0.00 in0.0 mm
05:01 AM 72.3°F22.4°C 69.9°F21.1°C 92% 5.8 mph SSW9.3 kmh SSW 9.9 mph15.9 kmh 29.79 in1008.8 mb 0.00 in0.0 mm 0.00 in0.0 mm 0.00 in0.0 mm
05:02 AM 72.3°F22.4°C 69.9°F21.1°C 92% 7.3 mph SSW11.7 kmh SSW 9.9 mph15.9 kmh 29.79 in1008.8 mb 0.00 in0.0 mm 0.00 in0.0 mm 0.00 in0.0 mm
05:03 AM 72.3°F22.4°C 69.9°F21.1°C 92% 8.3 mph SSW13.4 kmh SSW 9.9 mph15.9 kmh 29.79 in1008.8 mb 0.00 in0.0 mm 0.00 in0.0 mm 0.00 in0.0 mm
05:04 AM 72.3°F22.4°C 69.9°F21.1°C 92% 5.3 mph SSW8.5 kmh SSW 9.9 mph15.9 kmh 29.79 in1008.8 mb 0.00 in0.0 mm 0.00 in0.0 mm 0.00 in0.0 mm
05:05 AM 72.3°F22.4°C 69.9°F21.1°C 92% 6.8 mph SSW10.9 kmh SSW 9.9 mph15.9 kmh 29.79 in1008.8 mb 0.00 in0.0 mm 0.00 in0.0 mm 0.00 in0.0 mm
05:06 AM 72.3°F22.4°C 69.9°F21.1°C 92% 6.8 mph SSW10.9 kmh SSW 9.9 mph15.9 kmh 29.79 in1008.8 mb 0.00 in0.0 mm 0.00 in0.0 mm 0.00 in0.0 mm
05:07 AM 72.3°F22.4°C 69.9°F21.1°C 92% 3.2 mph S5.1 kmh S 9.9 mph15.9 kmh 29.79 in1008.8 mb 0.00 in0.0 mm 0.00 in0.0 mm 0.00 in0.0 mm
05:08 AM 72.3°F22.4°C 69.9°F21.1°C 92% 3.7 mph SSW6.0 kmh SSW 9.9 mph15.9 kmh 29.79 in1008.8 mb 0.00 in0.0 mm 0.00 in0.0 mm 0.00 in0.0 mm
05:09 AM 72.3°F22.4°C 69.9°F21.1°C 92% 4.7 mph SW7.6 kmh SW 9.9 mph15.9 kmh 29.79 in1008.8 mb 0.00 in0.0 mm 0.00 in0.0 mm 0.00 in0.0 mm
05:10 AM 72.1°F22.3°C 69.7°F20.9°C 92% 5.3 mph SE8.5 kmh SE 9.9 mph15.9 kmh 29.79 in1008.8 mb 0.00 in0.0 mm 0.00 in0.0 mm 0.00 in0.0 mm
05:11 AM 72.0°F22.2°C 69.5°F20.8°C 92% 4.2 mph SSW6.8 kmh SSW 9.9 mph15.9 kmh 29.79 in1008.8 mb 0.00 in0.0 mm 0.00 in0.0 mm 0.00 in0.0 mm
05:12 AM 72.1°F22.3°C 69.7°F20.9°C 92% 3.7 mph S6.0 kmh S 9.9 mph15.9 kmh 29.79 in1008.8 mb 0.00 in0.0 mm 0.00 in0.0 mm 0.00 in0.0 mm
05:13 AM 72.1°F22.3°C 69.7°F20.9°C 92% Calm Calm 9.9 mph15.9 kmh 29.79 in1008.8 mb 0.00 in0.0 mm 0.00 in0.0 mm 0.00 in0.0 mm
05:14 AM 72.1°F22.3°C 69.7°F20.9°C 92% 7.3 mph S11.7 kmh S 10.4 mph16.7 kmh 29.80 in1009.1 mb 0.00 in0.0 mm 0.00 in0.0 mm 0.00 in0.0 mm
05:15 AM 72.1°F22.3°C 69.7°F20.9°C 92% 5.3 mph SSW8.5 kmh SSW 10.4 mph16.7 kmh 29.80 in1009.1 mb 0.00 in0.0 mm 0.00 in0.0 mm 0.00 in0.0 mm
05:16 AM 72.1°F22.3°C 69.7°F20.9°C 92% 6.8 mph S10.9 kmh S 10.4 mph16.7 kmh 29.80 in1009.1 mb 0.00 in0.0 mm 0.00 in0.0 mm 0.00 in0.0 mm
05:17 AM 72.3°F22.4°C 69.9°F21.1°C 92% 6.8 mph S10.9 kmh S 10.4 mph16.7 kmh 29.80 in1009.1 mb 0.00 in0.0 mm 0.00 in0.0 mm 0.00 in0.0 mm
05:18 AM 72.3°F22.4°C 69.9°F21.1°C 92% 7.3 mph S11.7 kmh S 10.4 mph16.7 kmh 29.80 in1009.1 mb 0.00 in0.0 mm 0.00 in0.0 mm 0.00 in0.0 mm
05:19 AM 72.3°F22.4°C 69.9°F21.1°C 92% 6.3 mph S10.1 kmh S 10.4 mph16.7 kmh 29.80 in1009.1 mb 0.00 in0.0 mm 0.00 in0.0 mm 0.00 in0.0 mm
05:20 AM 72.5°F22.5°C 70.0°F21.1°C 92% 6.8 mph S10.9 kmh S 10.4 mph16.7 kmh 29.80 in1009.1 mb 0.00 in0.0 mm 0.00 in0.0 mm 0.00 in0.0 mm
05:21 AM 72.7°F22.6°C 70.2°F21.2°C 92% 7.8 mph S12.6 kmh S 10.4 mph16.7 kmh 29.80 in1009.1 mb 0.00 in0.0 mm 0.00 in0.0 mm 0.00 in0.0 mm
05:22 AM 72.5°F22.5°C 70.0°F21.1°C 92% 8.9 mph S14.3 kmh S 10.4 mph16.7 kmh 29.80 in1009.1 mb 0.00 in0.0 mm 0.00 in0.0 mm 0.00 in0.0 mm
05:23 AM 72.3°F22.4°C 69.9°F21.1°C 92% 6.3 mph S10.1 kmh S 10.4 mph16.7 kmh 29.80 in1009.1 mb 0.00 in0.0 mm 0.00 in0.0 mm 0.00 in0.0 mm
05:24 AM 72.3°F22.4°C 69.9°F21.1°C 92% 9.4 mph SSW15.1 kmh SSW 9.4 mph15.1 kmh 29.80 in1009.1 mb 0.00 in0.0 mm 0.00 in0.0 mm 0.00 in0.0 mm
05:25 AM 72.5°F22.5°C 70.0°F21.1°C 92% 6.3 mph SSW10.1 kmh SSW 9.4 mph15.1 kmh 29.80 in1009.1 mb 0.00 in0.0 mm 0.00 in0.0 mm 0.00 in0.0 mm
05:26 AM 72.5°F22.5°C 70.0°F21.1°C 92% 6.3 mph SSW10.1 kmh SSW 9.4 mph15.1 kmh 29.80 in1009.1 mb 0.00 in0.0 mm 0.00 in0.0 mm 0.00 in0.0 mm
05:27 AM 72.5°F22.5°C 70.0°F21.1°C 92% 5.8 mph S9.3 kmh S 9.4 mph15.1 kmh 29.80 in1009.1 mb 0.00 in0.0 mm 0.00 in0.0 mm 0.00 in0.0 mm
05:28 AM 72.5°F22.5°C 70.0°F21.1°C 92% 3.7 mph S6.0 kmh S 9.4 mph15.1 kmh 29.80 in1009.1 mb 0.00 in0.0 mm 0.00 in0.0 mm 0.00 in0.0 mm
05:29 AM 72.5°F22.5°C 70.0°F21.1°C 92% 3.7 mph S6.0 kmh S 9.4 mph15.1 kmh 29.80 in1009.1 mb 0.00 in0.0 mm 0.00 in0.0 mm 0.00 in0.0 mm
05:30 AM 72.5°F22.5°C 70.0°F21.1°C 92% 8.3 mph S13.4 kmh S 9.4 mph15.1 kmh 29.80 in1009.1 mb 0.00 in0.0 mm 0.00 in0.0 mm 0.00 in0.0 mm
05:31 AM 72.7°F22.6°C 70.2°F21.2°C 92% 5.8 mph S9.3 kmh S 9.4 mph15.1 kmh 29.80 in1009.1 mb 0.00 in0.0 mm 0.00 in0.0 mm 0.00 in0.0 mm
05:32 AM 72.9°F22.7°C 70.4°F21.3°C 92% 5.8 mph SSW9.3 kmh SSW 9.4 mph15.1 kmh 29.80 in1009.1 mb 0.00 in0.0 mm 0.00 in0.0 mm 0.00 in0.0 mm
05:33 AM 72.9°F22.7°C 70.4°F21.3°C 92% 3.7 mph SSW6.0 kmh SSW 9.4 mph15.1 kmh 29.80 in1009.1 mb 0.00 in0.0 mm 0.00 in0.0 mm 0.00 in0.0 mm
05:34 AM 72.9°F22.7°C 70.4°F21.3°C 92% 5.3 mph SSW8.5 kmh SSW 8.3 mph13.4 kmh 29.80 in1009.1 mb 0.00 in0.0 mm 0.00 in0.0 mm 0.00 in0.0 mm
05:35 AM 72.9°F22.7°C 70.4°F21.3°C 92% 5.3 mph SSW8.5 kmh SSW 8.3 mph13.4 kmh 29.80 in1009.1 mb 0.00 in0.0 mm 0.00 in0.0 mm 0.00 in0.0 mm
05:36 AM 72.9°F22.7°C 70.4°F21.3°C 92% 5.3 mph SSW8.5 kmh SSW 8.3 mph13.4 kmh 29.80 in1009.1 mb 0.00 in0.0 mm 0.00 in0.0 mm 0.00 in0.0 mm
05:37 AM 72.9°F22.7°C 70.4°F21.3°C 92% 5.3 mph SSW8.5 kmh SSW 8.3 mph13.4 kmh 29.80 in1009.1 mb 0.00 in0.0 mm 0.00 in0.0 mm 0.00 in0.0 mm
05:38 AM 72.9°F22.7°C 70.4°F21.3°C 92% 8.9 mph S14.3 kmh S 8.9 mph14.3 kmh 29.80 in1009.1 mb 0.00 in0.0 mm 0.00 in0.0 mm 0.00 in0.0 mm
05:39 AM 72.9°F22.7°C 70.4°F21.3°C 92% 5.8 mph S9.3 kmh S 8.9 mph14.3 kmh 29.80 in1009.1 mb 0.00 in0.0 mm 0.00 in0.0 mm 0.00 in0.0 mm
05:40 AM 73.0°F22.8°C 70.6°F21.4°C 92% 10.9 mph SSW17.5 kmh SSW 10.9 mph17.5 kmh 29.80 in1009.1 mb 0.00 in0.0 mm 0.00 in0.0 mm 0.00 in0.0 mm
05:41 AM 72.9°F22.7°C 70.4°F21.3°C 92% 4.7 mph S7.6 kmh S 10.9 mph17.5 kmh 29.80 in1009.1 mb 0.00 in0.0 mm 0.00 in0.0 mm 0.00 in0.0 mm
05:42 AM 72.9°F22.7°C 70.4°F21.3°C 92% 7.8 mph SSW12.6 kmh SSW 10.9 mph17.5 kmh 29.80 in1009.1 mb 0.00 in0.0 mm 0.00 in0.0 mm 0.00 in0.0 mm
05:43 AM 72.9°F22.7°C 70.4°F21.3°C 92% 4.7 mph SSW7.6 kmh SSW 10.9 mph17.5 kmh 29.80 in1009.1 mb 0.00 in0.0 mm 0.00 in0.0 mm 0.00 in0.0 mm
05:44 AM 72.9°F22.7°C 70.4°F21.3°C 92% 6.3 mph S10.1 kmh S 11.4 mph18.3 kmh 29.80 in1009.1 mb 0.00 in0.0 mm 0.00 in0.0 mm 0.00 in0.0 mm
05:45 AM 73.0°F22.8°C 70.6°F21.4°C 92% 5.8 mph SSE9.3 kmh SSE 11.4 mph18.3 kmh 29.80 in1009.1 mb 0.00 in0.0 mm 0.00 in0.0 mm 0.00 in0.0 mm
05:46 AM 72.9°F22.7°C 70.4°F21.3°C 92% 5.8 mph S9.3 kmh S 11.4 mph18.3 kmh 29.80 in1009.1 mb 0.00 in0.0 mm 0.00 in0.0 mm 0.00 in0.0 mm
05:47 AM 72.9°F22.7°C 70.4°F21.3°C 92% 4.2 mph SSW6.8 kmh SSW 11.4 mph18.3 kmh 29.80 in1009.1 mb 0.00 in0.0 mm 0.00 in0.0 mm 0.00 in0.0 mm
05:48 AM 72.9°F22.7°C 70.4°F21.3°C 92% 4.2 mph SSW6.8 kmh SSW 11.4 mph18.3 kmh 29.80 in1009.1 mb 0.00 in0.0 mm 0.00 in0.0 mm 0.00 in0.0 mm
05:49 AM 72.9°F22.7°C 70.4°F21.3°C 92% 6.3 mph S10.1 kmh S 11.4 mph18.3 kmh 29.80 in1009.1 mb 0.00 in0.0 mm 0.00 in0.0 mm 0.00 in0.0 mm
05:50 AM 72.9°F22.7°C 70.4°F21.3°C 92% 10.9 mph SSW17.5 kmh SSW 11.4 mph18.3 kmh 29.80 in1009.1 mb 0.00 in0.0 mm 0.00 in0.0 mm 0.00 in0.0 mm
05:51 AM 72.9°F22.7°C 70.4°F21.3°C 92% 8.3 mph S13.4 kmh S 11.4 mph18.3 kmh 29.80 in1009.1 mb 0.00 in0.0 mm 0.00 in0.0 mm 0.00 in0.0 mm
05:52 AM 72.9°F22.7°C 70.4°F21.3°C 92% 6.3 mph S10.1 kmh S 11.4 mph18.3 kmh 29.80 in1009.1 mb 0.00 in0.0 mm 0.00 in0.0 mm 0.00 in0.0 mm
05:53 AM 72.9°F22.7°C 70.4°F21.3°C 92% 9.9 mph SSW15.9 kmh SSW 11.4 mph18.3 kmh 29.80 in1009.1 mb 0.00 in0.0 mm 0.00 in0.0 mm 0.00 in0.0 mm
05:54 AM 72.7°F22.6°C 70.2°F21.2°C 92% 7.8 mph SSW12.6 kmh SSW 10.9 mph17.5 kmh 29.80 in1009.1 mb 0.00 in0.0 mm 0.00 in0.0 mm 0.00 in0.0 mm
05:55 AM 72.7°F22.6°C 70.2°F21.2°C 92% 9.9 mph SW15.9 kmh SW 10.9 mph17.5 kmh 29.80 in1009.1 mb 0.00 in0.0 mm 0.00 in0.0 mm 0.00 in0.0 mm
05:56 AM 72.7°F22.6°C 70.2°F21.2°C 92% 9.9 mph SSW15.9 kmh SSW 10.9 mph17.5 kmh 29.80 in1009.1 mb 0.00 in0.0 mm 0.00 in0.0 mm 0.00 in0.0 mm
05:57 AM 72.9°F22.7°C 70.4°F21.3°C 92% 8.9 mph SSW14.3 kmh SSW 10.9 mph17.5 kmh 29.80 in1009.1 mb 0.00 in0.0 mm 0.00 in0.0 mm 0.00 in0.0 mm
05:58 AM 72.7°F22.6°C 70.2°F21.2°C 92% 6.3 mph SSW10.1 kmh SSW 10.9 mph17.5 kmh 29.80 in1009.1 mb 0.00 in0.0 mm 0.00 in0.0 mm 0.00 in0.0 mm
05:59 AM 72.7°F22.6°C 70.2°F21.2°C 92% 7.8 mph SSW12.6 kmh SSW 10.9 mph17.5 kmh 29.80 in1009.1 mb 0.00 in0.0 mm 0.00 in0.0 mm 0.00 in0.0 mm
06:00 AM 72.7°F22.6°C 70.2°F21.2°C 92% 5.8 mph SSW9.3 kmh SSW 10.9 mph17.5 kmh 29.80 in1009.1 mb 0.00 in0.0 mm 0.00 in0.0 mm 0.00 in0.0 mm
06:01 AM 72.5°F22.5°C 70.0°F21.1°C 92% 4.7 mph SSW7.6 kmh SSW 10.4 mph16.7 kmh 29.80 in1009.1 mb 0.00 in0.0 mm 0.00 in0.0 mm 0.00 in0.0 mm
06:02 AM 72.7°F22.6°C 70.2°F21.2°C 92% 2.7 mph SSE4.3 kmh SSE 10.4 mph16.7 kmh 29.80 in1009.1 mb 0.00 in0.0 mm 0.00 in0.0 mm 0.00 in0.0 mm
06:03 AM 72.7°F22.6°C 70.2°F21.2°C 92% 4.2 mph SSW6.8 kmh SSW 10.9 mph17.5 kmh 29.80 in1009.1 mb 0.00 in0.0 mm 0.00 in0.0 mm 0.00 in0.0 mm
06:04 AM 72.7°F22.6°C 70.2°F21.2°C 92% 5.3 mph S8.5 kmh S 10.9 mph17.5 kmh 29.80 in1009.1 mb 0.00 in0.0 mm 0.00 in0.0 mm 0.00 in0.0 mm
06:05 AM 72.7°F22.6°C 70.2°F21.2°C 92% 5.8 mph S9.3 kmh S 10.9 mph17.5 kmh 29.80 in1009.1 mb 0.00 in0.0 mm 0.00 in0.0 mm 0.00 in0.0 mm
06:06 AM 72.7°F22.6°C 70.2°F21.2°C 92% 4.2 mph S6.8 kmh S 10.9 mph17.5 kmh 29.80 in1009.1 mb 0.00 in0.0 mm 0.00 in0.0 mm 0.00 in0.0 mm
06:07 AM 72.7°F22.6°C 70.2°F21.2°C 92% 3.2 mph S5.1 kmh S 10.9 mph17.5 kmh 29.80 in1009.1 mb 0.00 in0.0 mm 0.00 in0.0 mm 0.00 in0.0 mm
06:08 AM 72.7°F22.6°C 70.2°F21.2°C 92% 4.2 mph S6.8 kmh S 10.9 mph17.5 kmh 29.80 in1009.1 mb 0.00 in0.0 mm 0.00 in0.0 mm 0.00 in0.0 mm
06:09 AM 72.7°F22.6°C 70.2°F21.2°C 92% 5.3 mph SE8.5 kmh SE 10.9 mph17.5 kmh 29.80 in1009.1 mb 0.00 in0.0 mm 0.00 in0.0 mm 0.00 in0.0 mm
06:10 AM 72.7°F22.6°C 70.2°F21.2°C 92% 3.7 mph S6.0 kmh S 10.9 mph17.5 kmh 29.80 in1009.1 mb 0.00 in0.0 mm 0.00 in0.0 mm 0.00 in0.0 mm
06:11 AM 72.7°F22.6°C 70.2°F21.2°C 92% 6.3 mph SSW10.1 kmh SSW 10.9 mph17.5 kmh 29.80 in1009.1 mb 0.00 in0.0 mm 0.00 in0.0 mm 0.00 in0.0 mm
06:12 AM 72.7°F22.6°C 70.2°F21.2°C 92% 4.7 mph S7.6 kmh S 10.9 mph17.5 kmh 29.80 in1009.1 mb 0.00 in0.0 mm 0.00 in0.0 mm 0.00 in0.0 mm
06:13 AM 72.7°F22.6°C 70.2°F21.2°C 92% 3.2 mph S5.1 kmh S 9.9 mph15.9 kmh 29.80 in1009.1 mb 0.00 in0.0 mm 0.00 in0.0 mm 0.00 in0.0 mm
06:14 AM 72.7°F22.6°C 70.2°F21.2°C 92% 3.7 mph S6.0 kmh S 9.9 mph15.9 kmh 29.79 in1008.8 mb 0.00 in0.0 mm 0.00 in0.0 mm 0.00 in0.0 mm
06:15 AM 72.7°F22.6°C 70.2°F21.2°C 92% 3.2 mph SSW5.1 kmh SSW 6.8 mph10.9 kmh 29.79 in1008.8 mb 0.00 in0.0 mm 0.00 in0.0 mm 0.00 in0.0 mm
06:16 AM 72.7°F22.6°C 70.2°F21.2°C 92% 4.7 mph SSW7.6 kmh SSW 6.8 mph10.9 kmh 29.79 in1008.8 mb 0.00 in0.0 mm 0.00 in0.0 mm 0.00 in0.0 mm
06:17 AM 72.7°F22.6°C 70.2°F21.2°C 92% 5.8 mph S9.3 kmh S 6.8 mph10.9 kmh 29.79 in1008.8 mb 0.00 in0.0 mm 0.00 in0.0 mm 0.00 in0.0 mm
06:18 AM 72.7°F22.6°C 70.2°F21.2°C 92% 8.3 mph SSW13.4 kmh SSW 13.0 mph20.9 kmh 29.79 in1008.8 mb 0.00 in0.0 mm 0.00 in0.0 mm 0.00 in0.0 mm
06:19 AM 72.9°F22.7°C 70.4°F21.3°C 92% 9.4 mph S15.1 kmh S 13.0 mph20.9 kmh 29.79 in1008.8 mb 0.00 in0.0 mm 0.00 in0.0 mm 0.00 in0.0 mm
06:20 AM 72.7°F22.6°C 70.2°F21.2°C 92% 10.9 mph SSW17.5 kmh SSW 13.0 mph20.9 kmh 29.79 in1008.8 mb 0.00 in0.0 mm 0.00 in0.0 mm 0.00 in0.0 mm
06:21 AM 72.9°F22.7°C 70.4°F21.3°C 92% 9.4 mph SSW15.1 kmh SSW 13.0 mph20.9 kmh 29.79 in1008.8 mb 0.00 in0.0 mm 0.00 in0.0 mm 0.00 in0.0 mm
06:22 AM 72.7°F22.6°C 70.2°F21.2°C 92% 6.3 mph S10.1 kmh S 13.0 mph20.9 kmh 29.79 in1008.8 mb 0.00 in0.0 mm 0.00 in0.0 mm 0.00 in0.0 mm
06:23 AM 72.9°F22.7°C 70.4°F21.3°C 92% 9.9 mph S15.9 kmh S 13.0 mph20.9 kmh 29.79 in1008.8 mb 0.00 in0.0 mm 0.00 in0.0 mm 0.00 in0.0 mm
06:24 AM 72.9°F22.7°C 70.4°F21.3°C 92% 7.8 mph SSW12.6 kmh SSW 13.0 mph20.9 kmh 29.79 in1008.8 mb 0.00 in0.0 mm 0.00 in0.0 mm 0.00 in0.0 mm
06:25 AM 73.0°F22.8°C 70.6°F21.4°C 92% 10.4 mph SSW16.7 kmh SSW 13.0 mph20.9 kmh 29.79 in1008.8 mb 0.00 in0.0 mm 0.00 in0.0 mm 0.00 in0.0 mm
06:26 AM 72.9°F22.7°C 70.4°F21.3°C 92% 4.7 mph S7.6 kmh S 13.0 mph20.9 kmh 29.79 in1008.8 mb 0.00 in0.0 mm 0.00 in0.0 mm 0.00 in0.0 mm
06:27 AM 72.9°F22.7°C 70.4°F21.3°C 92% 6.8 mph S10.9 kmh S 13.0 mph20.9 kmh 29.79 in1008.8 mb 0.00 in0.0 mm 0.00 in0.0 mm 0.00 in0.0 mm
06:28 AM 72.9°F22.7°C 70.4°F21.3°C 92% 3.2 mph SSE5.1 kmh SSE 11.9 mph19.2 kmh 29.79 in1008.8 mb 0.00 in0.0 mm 0.00 in0.0 mm 0.00 in0.0 mm
06:29 AM 72.9°F22.7°C 70.4°F21.3°C 92% 2.7 mph SSW4.3 kmh SSW 11.9 mph19.2 kmh 29.79 in1008.8 mb 0.00 in0.0 mm 0.00 in0.0 mm 0.00 in0.0 mm
06:30 AM 72.9°F22.7°C 70.4°F21.3°C 92% 8.9 mph SSW14.3 kmh SSW 11.9 mph19.2 kmh 29.79 in1008.8 mb 0.00 in0.0 mm 0.00 in0.0 mm 0.00 in0.0 mm
06:31 AM 72.9°F22.7°C 70.4°F21.3°C 92% 5.8 mph SSW9.3 kmh SSW 11.4 mph18.3 kmh 29.79 in1008.8 mb 0.00 in0.0 mm 0.00 in0.0 mm 0.00 in0.0 mm
06:32 AM 72.9°F22.7°C 70.4°F21.3°C 92% 6.8 mph SW10.9 kmh SW 11.4 mph18.3 kmh 29.79 in1008.8 mb 0.00 in0.0 mm 0.00 in0.0 mm 0.00 in0.0 mm
06:33 AM 72.9°F22.7°C 70.4°F21.3°C 92% 6.3 mph S10.1 kmh S 11.4 mph18.3 kmh 29.79 in1008.8 mb 0.00 in0.0 mm 0.00 in0.0 mm 0.00 in0.0 mm
06:34 AM 72.9°F22.7°C 70.4°F21.3°C 92% 5.8 mph SSW9.3 kmh SSW 11.4 mph18.3 kmh 29.79 in1008.8 mb 0.00 in0.0 mm 0.00 in0.0 mm 0.00 in0.0 mm
06:35 AM 72.9°F22.7°C 70.4°F21.3°C 92% 7.3 mph SSW11.7 kmh SSW 11.9 mph19.2 kmh 29.79 in1008.8 mb 0.00 in0.0 mm 0.00 in0.0 mm 0.00 in0.0 mm
06:36 AM 72.5°F22.5°C 70.0°F21.1°C 92% 6.3 mph S10.1 kmh S 11.9 mph19.2 kmh 29.79 in1008.8 mb 0.00 in0.0 mm 0.00 in0.0 mm 0.00 in0.0 mm
06:37 AM 72.5°F22.5°C 70.0°F21.1°C 92% 8.3 mph SSW13.4 kmh SSW 11.9 mph19.2 kmh 29.80 in1009.1 mb 0.00 in0.0 mm 0.00 in0.0 mm 0.00 in0.0 mm
06:38 AM 72.5°F22.5°C 70.0°F21.1°C 92% 6.3 mph SSW10.1 kmh SSW 11.9 mph19.2 kmh 29.80 in1009.1 mb 0.00 in0.0 mm 0.00 in0.0 mm 0.00 in0.0 mm
06:39 AM 72.5°F22.5°C 70.0°F21.1°C 92% 5.3 mph S8.5 kmh S 11.9 mph19.2 kmh 29.80 in1009.1 mb 0.00 in0.0 mm 0.00 in0.0 mm 0.00 in0.0 mm
06:40 AM 72.7°F22.6°C 70.2°F21.2°C 92% 10.4 mph SSW16.7 kmh SSW 14.0 mph22.5 kmh 29.80 in1009.1 mb 0.00 in0.0 mm 0.00 in0.0 mm 0.00 in0.0 mm
06:41 AM 72.7°F22.6°C 70.2°F21.2°C 92% 5.8 mph S9.3 kmh S 14.0 mph22.5 kmh 29.80 in1009.1 mb 0.00 in0.0 mm 0.00 in0.0 mm 0.00 in0.0 mm
06:42 AM 72.5°F22.5°C 70.0°F21.1°C 92% 8.9 mph S14.3 kmh S 14.0 mph22.5 kmh 29.80 in1009.1 mb 0.00 in0.0 mm 0.00 in0.0 mm 0.00 in0.0 mm
06:43 AM 72.5°F22.5°C 70.0°F21.1°C 92% 8.3 mph SSW13.4 kmh SSW 14.0 mph22.5 kmh 29.80 in1009.1 mb 0.00 in0.0 mm 0.00 in0.0 mm 0.00 in0.0 mm
06:44 AM 72.5°F22.5°C 70.0°F21.1°C 92% 6.8 mph SSW10.9 kmh SSW 14.0 mph22.5 kmh 29.80 in1009.1 mb 0.00 in0.0 mm 0.00 in0.0 mm 0.00 in0.0 mm
06:45 AM 72.5°F22.5°C 70.0°F21.1°C 92% 8.9 mph SSW14.3 kmh SSW 14.0 mph22.5 kmh 29.80 in1009.1 mb 0.00 in0.0 mm 0.00 in0.0 mm 0.00 in0.0 mm
06:46 AM 72.5°F22.5°C 70.0°F21.1°C 92% 5.3 mph SSE8.5 kmh SSE 14.0 mph22.5 kmh 29.80 in1009.1 mb 0.00 in0.0 mm 0.00 in0.0 mm 0.00 in0.0 mm
06:47 AM 72.7°F22.6°C 70.2°F21.2°C 92% 8.9 mph SSW14.3 kmh SSW 14.0 mph22.5 kmh 29.80 in1009.1 mb 0.00 in0.0 mm 0.00 in0.0 mm 0.00 in0.0 mm
06:48 AM 72.5°F22.5°C 70.0°F21.1°C 92% 4.7 mph S7.6 kmh S 14.0 mph22.5 kmh 29.80 in1009.1 mb 0.00 in0.0 mm 0.00 in0.0 mm 0.00 in0.0 mm
06:49 AM 72.9°F22.7°C 70.4°F21.3°C 92% 11.4 mph SSW18.3 kmh SSW 14.0 mph22.5 kmh 29.80 in1009.1 mb 0.00 in0.0 mm 0.00 in0.0 mm 0.00 in0.0 mm
06:50 AM 72.9°F22.7°C 70.4°F21.3°C 92% 8.3 mph S13.4 kmh S 13.0 mph20.9 kmh 29.80 in1009.1 mb 0.00 in0.0 mm 0.00 in0.0 mm 0.00 in0.0 mm
06:51 AM 72.9°F22.7°C 70.4°F21.3°C 92% 5.3 mph SW8.5 kmh SW 13.0 mph20.9 kmh 29.80 in1009.1 mb 0.00 in0.0 mm 0.00 in0.0 mm 0.00 in0.0 mm
06:52 AM 72.9°F22.7°C 70.4°F21.3°C 92% 8.9 mph SSW14.3 kmh SSW 13.0 mph20.9 kmh 29.80 in1009.1 mb 0.00 in0.0 mm 0.00 in0.0 mm 0.00 in0.0 mm
06:53 AM 72.7°F22.6°C 70.2°F21.2°C 92% 8.3 mph S13.4 kmh S 13.0 mph20.9 kmh 29.80 in1009.1 mb 0.00 in0.0 mm 0.00 in0.0 mm 0.00 in0.0 mm
06:54 AM 72.7°F22.6°C 70.2°F21.2°C 92% 9.4 mph S15.1 kmh S 13.0 mph20.9 kmh 29.80 in1009.1 mb 0.00 in0.0 mm 0.00 in0.0 mm 0.00 in0.0 mm
06:55 AM 72.9°F22.7°C 70.4°F21.3°C 92% 12.5 mph SSW20.1 kmh SSW 13.0 mph20.9 kmh 29.80 in1009.1 mb 0.00 in0.0 mm 0.00 in0.0 mm 0.00 in0.0 mm
06:56 AM 72.5°F22.5°C 70.0°F21.1°C 92% 6.3 mph S10.1 kmh S 13.0 mph20.9 kmh 29.80 in1009.1 mb 0.00 in0.0 mm 0.00 in0.0 mm 0.00 in0.0 mm
06:57 AM 72.5°F22.5°C 70.0°F21.1°C 92% 4.7 mph S7.6 kmh S 12.5 mph20.1 kmh 29.80 in1009.1 mb 0.00 in0.0 mm 0.00 in0.0 mm 0.00 in0.0 mm
06:58 AM 72.7°F22.6°C 70.2°F21.2°C 92% 7.8 mph SSE12.6 kmh SSE 13.0 mph20.9 kmh 29.80 in1009.1 mb 0.00 in0.0 mm 0.00 in0.0 mm 0.00 in0.0 mm
06:59 AM 72.9°F22.7°C 70.4°F21.3°C 92% 12.5 mph SSW20.1 kmh SSW 14.5 mph23.3 kmh 29.80 in1009.1 mb 0.00 in0.0 mm 0.00 in0.0 mm 0.00 in0.0 mm
07:00 AM 72.9°F22.7°C 70.4°F21.3°C 92% 9.4 mph SSE15.1 kmh SSE 14.5 mph23.3 kmh 29.80 in1009.1 mb 0.00 in0.0 mm 0.00 in0.0 mm 0.00 in0.0 mm
07:01 AM 73.0°F22.8°C 70.6°F21.4°C 92% 14.0 mph SSW22.5 kmh SSW 14.5 mph23.3 kmh 29.80 in1009.1 mb 0.00 in0.0 mm 0.00 in0.0 mm 0.00 in0.0 mm
07:02 AM 73.0°F22.8°C 70.6°F21.4°C 92% 12.5 mph SSW20.1 kmh SSW 15.6 mph25.1 kmh 29.80 in1009.1 mb 0.00 in0.0 mm 0.00 in0.0 mm 0.00 in0.0 mm
07:03 AM 73.0°F22.8°C 70.6°F21.4°C 92% 13.0 mph SW20.9 kmh SW 15.6 mph25.1 kmh 29.80 in1009.1 mb 0.00 in0.0 mm 0.00 in0.0 mm 0.00 in0.0 mm
07:04 AM 73.0°F22.8°C 70.6°F21.4°C 92% 7.8 mph SSW12.6 kmh SSW 15.6 mph25.1 kmh 29.80 in1009.1 mb 0.00 in0.0 mm 0.00 in0.0 mm 0.00 in0.0 mm
07:05 AM 73.0°F22.8°C 70.6°F21.4°C 92% 10.9 mph S17.5 kmh S 15.6 mph25.1 kmh 29.80 in1009.1 mb 0.00 in0.0 mm 0.00 in0.0 mm 0.00 in0.0 mm
07:06 AM 73.0°F22.8°C 70.6°F21.4°C 92% 9.9 mph SSW15.9 kmh SSW 15.6 mph25.1 kmh 29.80 in1009.1 mb 0.00 in0.0 mm 0.00 in0.0 mm 0.00 in0.0 mm
07:07 AM 72.9°F22.7°C 70.4°F21.3°C 92% 9.9 mph S15.9 kmh S 15.6 mph25.1 kmh 29.80 in1009.1 mb 0.00 in0.0 mm 0.00 in0.0 mm 0.00 in0.0 mm
07:08 AM 72.9°F22.7°C 70.4°F21.3°C 92% 9.9 mph SSW15.9 kmh SSW 15.6 mph25.1 kmh 29.80 in1009.1 mb 0.00 in0.0 mm 0.00 in0.0 mm 0.00 in0.0 mm
07:09 AM 73.0°F22.8°C 70.6°F21.4°C 92% 12.0 mph SSW19.3 kmh SSW 15.6 mph25.1 kmh 29.80 in1009.1 mb 0.00 in0.0 mm 0.00 in0.0 mm 0.00 in0.0 mm
07:10 AM 72.9°F22.7°C 70.4°F21.3°C 92% 11.4 mph SSW18.3 kmh SSW 15.6 mph25.1 kmh 29.80 in1009.1 mb 0.00 in0.0 mm 0.00 in0.0 mm 0.00 in0.0 mm
07:11 AM 72.9°F22.7°C 70.4°F21.3°C 92% 9.4 mph SSW15.1 kmh SSW 15.6 mph25.1 kmh 29.80 in1009.1 mb 0.00 in0.0 mm 0.00 in0.0 mm 0.00 in0.0 mm
07:12 AM 72.9°F22.7°C 70.4°F21.3°C 92% 9.4 mph SSW15.1 kmh SSW 15.0 mph24.1 kmh 29.80 in1009.1 mb 0.00 in0.0 mm 0.00 in0.0 mm 0.00 in0.0 mm
07:13 AM 72.7°F22.6°C 70.2°F21.2°C 92% 7.3 mph SSW11.7 kmh SSW 15.0 mph24.1 kmh 29.81 in1009.5 mb 0.00 in0.0 mm 0.00 in0.0 mm 0.00 in0.0 mm
07:14 AM 72.7°F22.6°C 70.2°F21.2°C 92% 8.3 mph SSW13.4 kmh SSW 15.0 mph24.1 kmh 29.81 in1009.5 mb 0.00 in0.0 mm 0.00 in0.0 mm 0.00 in0.0 mm
07:15 AM 72.9°F22.7°C 70.4°F21.3°C 92% 9.9 mph SSW15.9 kmh SSW 15.0 mph24.1 kmh 29.81 in1009.5 mb 0.00 in0.0 mm 0.00 in0.0 mm 0.00 in0.0 mm
07:16 AM 72.9°F22.7°C 70.4°F21.3°C 92% 10.4 mph S16.7 kmh S 15.0 mph24.1 kmh 29.81 in1009.5 mb 0.00 in0.0 mm 0.00 in0.0 mm 0.00 in0.0 mm
07:17 AM 72.9°F22.7°C 70.4°F21.3°C 92% 8.3 mph S13.4 kmh S 15.0 mph24.1 kmh 29.81 in1009.5 mb 0.00 in0.0 mm 0.00 in0.0 mm 0.00 in0.0 mm
07:18 AM 72.7°F22.6°C 70.2°F21.2°C 92% 8.3 mph SSW13.4 kmh SSW 15.0 mph24.1 kmh 29.81 in1009.5 mb 0.00 in0.0 mm 0.00 in0.0 mm 0.00 in0.0 mm
07:19 AM 72.7°F22.6°C 70.2°F21.2°C 92% 10.9 mph S17.5 kmh S 14.0 mph22.5 kmh 29.81 in1009.5 mb 0.00 in0.0 mm 0.00 in0.0 mm 0.00 in0.0 mm
07:20 AM 72.9°F22.7°C 70.4°F21.3°C 92% 7.8 mph S12.6 kmh S 14.0 mph22.5 kmh 29.81 in1009.5 mb 0.00 in0.0 mm 0.00 in0.0 mm 0.00 in0.0 mm
07:21 AM 72.7°F22.6°C 70.2°F21.2°C 92% 8.9 mph SSW14.3 kmh SSW 14.0 mph22.5 kmh 29.81 in1009.5 mb 0.00 in0.0 mm 0.00 in0.0 mm 0.00 in0.0 mm
07:22 AM 72.9°F22.7°C 70.4°F21.3°C 92% 9.4 mph S15.1 kmh S 14.0 mph22.5 kmh 29.81 in1009.5 mb 0.00 in0.0 mm 0.00 in0.0 mm 0.00 in0.0 mm
07:23 AM 72.9°F22.7°C 70.4°F21.3°C 92% 9.4 mph S15.1 kmh S 14.0 mph22.5 kmh 29.81 in1009.5 mb 0.00 in0.0 mm 0.00 in0.0 mm 0.00 in0.0 mm
07:24 AM 72.7°F22.6°C 70.2°F21.2°C 92% 7.3 mph SSW11.7 kmh SSW 14.0 mph22.5 kmh 29.81 in1009.5 mb 0.00 in0.0 mm 0.00 in0.0 mm 0.00 in0.0 mm
07:25 AM 72.7°F22.6°C 70.2°F21.2°C 92% 6.3 mph SSW10.1 kmh SSW 10.9 mph17.5 kmh 29.81 in1009.5 mb 0.00 in0.0 mm 0.00 in0.0 mm 0.00 in0.0 mm
07:26 AM 72.5°F22.5°C 70.0°F21.1°C 92% 7.8 mph S12.6 kmh S 10.9 mph17.5 kmh 29.82 in1009.8 mb 0.00 in0.0 mm 0.00 in0.0 mm 0.00 in0.0 mm
07:27 AM 72.5°F22.5°C 70.0°F21.1°C 92% 8.9 mph SSW14.3 kmh SSW 10.9 mph17.5 kmh 29.82 in1009.8 mb 0.00 in0.0 mm 0.00 in0.0 mm 0.00 in0.0 mm
07:28 AM 72.5°F22.5°C 70.0°F21.1°C 92% 9.4 mph SSW15.1 kmh SSW 10.9 mph17.5 kmh 29.82 in1009.8 mb 0.00 in0.0 mm 0.00 in0.0 mm 0.00 in0.0 mm
07:29 AM 72.7°F22.6°C 70.2°F21.2°C 92% 9.4 mph SSW15.1 kmh SSW 15.0 mph24.1 kmh 29.82 in1009.8 mb 0.00 in0.0 mm 0.00 in0.0 mm 0.00 in0.0 mm
07:30 AM 72.5°F22.5°C 70.0°F21.1°C 92% 11.4 mph SSW18.3 kmh SSW 15.0 mph24.1 kmh 29.82 in1009.8 mb 0.00 in0.0 mm 0.00 in0.0 mm 0.00 in0.0 mm
07:31 AM 72.5°F22.5°C 70.0°F21.1°C 92% 10.9 mph SSW17.5 kmh SSW 15.0 mph24.1 kmh 29.82 in1009.8 mb 0.00 in0.0 mm 0.00 in0.0 mm 0.00 in0.0 mm
07:32 AM 72.5°F22.5°C 70.0°F21.1°C 92% 10.4 mph SSW16.7 kmh SSW 15.0 mph24.1 kmh 29.82 in1009.8 mb 0.00 in0.0 mm 0.00 in0.0 mm 0.00 in0.0 mm
07:33 AM 72.5°F22.5°C 70.0°F21.1°C 92% 9.9 mph SSW15.9 kmh SSW 15.0 mph24.1 kmh 29.82 in1009.8 mb 0.00 in0.0 mm 0.00 in0.0 mm 0.00 in0.0 mm
07:34 AM 72.5°F22.5°C 70.0°F21.1°C 92% 10.9 mph SSW17.5 kmh SSW 15.0 mph24.1 kmh 29.82 in1009.8 mb 0.00 in0.0 mm 0.00 in0.0 mm 0.00 in0.0 mm
07:35 AM 72.5°F22.5°C 70.0°F21.1°C 92% 11.4 mph SSW18.3 kmh SSW 15.0 mph24.1 kmh 29.82 in1009.8 mb 0.00 in0.0 mm 0.00 in0.0 mm 0.00 in0.0 mm
07:36 AM 72.7°F22.6°C 70.2°F21.2°C 92% 8.3 mph SW13.4 kmh SW 15.0 mph24.1 kmh 29.82 in1009.8 mb 0.00 in0.0 mm 0.00 in0.0 mm 0.00 in0.0 mm
07:37 AM 72.5°F22.5°C 70.0°F21.1°C 92% 10.9 mph SW17.5 kmh SW 15.0 mph24.1 kmh 29.83 in1010.2 mb 0.00 in0.0 mm 0.00 in0.0 mm 0.00 in0.0 mm
07:38 AM 72.5°F22.5°C 70.0°F21.1°C 92% 7.8 mph WSW12.6 kmh WSW 15.0 mph24.1 kmh 29.83 in1010.2 mb 0.00 in0.0 mm 0.00 in0.0 mm 0.00 in0.0 mm
07:39 AM 72.5°F22.5°C 70.0°F21.1°C 92% 7.3 mph SSW11.7 kmh SSW 15.0 mph24.1 kmh 29.83 in1010.2 mb 0.00 in0.0 mm 0.00 in0.0 mm 0.00 in0.0 mm
07:40 AM 72.3°F22.4°C 69.9°F21.1°C 92% 9.9 mph SSW15.9 kmh SSW 15.0 mph24.1 kmh 29.83 in1010.2 mb 0.00 in0.0 mm 0.00 in0.0 mm 0.00 in0.0 mm
07:41 AM 72.3°F22.4°C 69.9°F21.1°C 92% 10.4 mph S16.7 kmh S 15.0 mph24.1 kmh 29.83 in1010.2 mb 0.00 in0.0 mm 0.00 in0.0 mm 0.00 in0.0 mm
07:42 AM 72.5°F22.5°C 70.0°F21.1°C 92% 6.3 mph SSW10.1 kmh SSW 15.0 mph24.1 kmh 29.83 in1010.2 mb 0.00 in0.0 mm 0.00 in0.0 mm 0.00 in0.0 mm
07:43 AM 72.3°F22.4°C 69.9°F21.1°C 92% 13.5 mph S21.7 kmh S 15.0 mph24.1 kmh 29.83 in1010.2 mb 0.00 in0.0 mm 0.00 in0.0 mm 0.00 in0.0 mm
07:44 AM 72.3°F22.4°C 69.9°F21.1°C 92% 7.3 mph SW11.7 kmh SW 15.0 mph24.1 kmh 29.83 in1010.2 mb 0.00 in0.0 mm 0.00 in0.0 mm 0.00 in0.0 mm
07:45 AM 72.1°F22.3°C 69.7°F20.9°C 92% 9.4 mph SSW15.1 kmh SSW 15.0 mph24.1 kmh 29.83 in1010.2 mb 0.00 in0.0 mm 0.00 in0.0 mm 0.00 in0.0 mm
07:46 AM 72.3°F22.4°C 69.9°F21.1°C 92% 12.5 mph SSW20.1 kmh SSW 15.0 mph24.1 kmh 29.83 in1010.2 mb 0.00 in0.0 mm 0.00 in0.0 mm 0.00 in0.0 mm
07:47 AM 72.3°F22.4°C 69.9°F21.1°C 92% 10.4 mph SSW16.7 kmh SSW 15.0 mph24.1 kmh 29.83 in1010.2 mb 0.00 in0.0 mm 0.00 in0.0 mm 0.00 in0.0 mm
07:48 AM 72.3°F22.4°C 69.9°F21.1°C 92% 10.4 mph SSW16.7 kmh SSW 15.0 mph24.1 kmh 29.83 in1010.2 mb 0.00 in0.0 mm 0.00 in0.0 mm 0.00 in0.0 mm
07:49 AM 72.3°F22.4°C 69.9°F21.1°C 92% 11.4 mph SSW18.3 kmh SSW 15.0 mph24.1 kmh 29.83 in1010.2 mb 0.00 in0.0 mm 0.00 in0.0 mm 0.00 in0.0 mm
07:50 AM 72.1°F22.3°C 69.7°F20.9°C 92% 9.9 mph S15.9 kmh S 15.0 mph24.1 kmh 29.83 in1010.2 mb 0.00 in0.0 mm 0.00 in0.0 mm 0.00 in0.0 mm
07:51 AM 72.1°F22.3°C 69.7°F20.9°C 92% 10.9 mph SSW17.5 kmh SSW 15.0 mph24.1 kmh 29.83 in1010.2 mb 0.00 in0.0 mm 0.00 in0.0 mm 0.00 in0.0 mm
07:52 AM 72.1°F22.3°C 69.7°F20.9°C 92% 11.4 mph S18.3 kmh S 15.0 mph24.1 kmh 29.83 in1010.2 mb 0.00 in0.0 mm 0.00 in0.0 mm 0.00 in0.0 mm
07:53 AM 72.1°F22.3°C 69.7°F20.9°C 92% 10.4 mph SSW16.7 kmh SSW 15.0 mph24.1 kmh 29.83 in1010.2 mb 0.00 in0.0 mm 0.00 in0.0 mm 0.00 in0.0 mm
07:54 AM 72.3°F22.4°C 69.9°F21.1°C 92% 10.9 mph S17.5 kmh S 14.0 mph22.5 kmh 29.83 in1010.2 mb 0.00 in0.0 mm 0.00 in0.0 mm 0.00 in0.0 mm
07:55 AM 72.5°F22.5°C 70.0°F21.1°C 92% 9.4 mph SSW15.1 kmh SSW 14.0 mph22.5 kmh 29.83 in1010.2 mb 0.00 in0.0 mm 0.00 in0.0 mm 0.00 in0.0 mm
07:56 AM 72.5°F22.5°C 70.0°F21.1°C 92% 13.5 mph SSW21.7 kmh SSW 13.5 mph21.7 kmh 29.83 in1010.2 mb 0.00 in0.0 mm 0.00 in0.0 mm 0.00 in0.0 mm
07:57 AM 72.5°F22.5°C 70.0°F21.1°C 92% 10.4 mph SSW16.7 kmh SSW 13.5 mph21.7 kmh 29.83 in1010.2 mb 0.00 in0.0 mm 0.00 in0.0 mm 0.00 in0.0 mm
07:58 AM 72.3°F22.4°C 69.9°F21.1°C 92% 9.4 mph SSW15.1 kmh SSW 13.5 mph21.7 kmh 29.83 in1010.2 mb 0.00 in0.0 mm 0.00 in0.0 mm 0.00 in0.0 mm
07:59 AM 72.3°F22.4°C 69.9°F21.1°C 92% 10.9 mph SW17.5 kmh SW 13.5 mph21.7 kmh 29.83 in1010.2 mb 0.00 in0.0 mm 0.00 in0.0 mm 0.00 in0.0 mm
08:00 AM 72.7°F22.6°C 70.2°F21.2°C 92% 10.9 mph SSW17.5 kmh SSW 14.0 mph22.5 kmh 29.83 in1010.2 mb 0.00 in0.0 mm 0.00 in0.0 mm 0.00 in0.0 mm
08:01 AM 72.7°F22.6°C 70.2°F21.2°C 92% 8.9 mph SSW14.3 kmh SSW 14.0 mph22.5 kmh 29.83 in1010.2 mb 0.00 in0.0 mm 0.00 in0.0 mm 0.00 in0.0 mm
08:02 AM 72.5°F22.5°C 70.0°F21.1°C 92% 10.9 mph SSW17.5 kmh SSW 14.0 mph22.5 kmh 29.83 in1010.2 mb 0.00 in0.0 mm 0.00 in0.0 mm 0.00 in0.0 mm
08:03 AM 72.5°F22.5°C 70.0°F21.1°C 92% 12.5 mph SSW20.1 kmh SSW 14.0 mph22.5 kmh 29.83 in1010.2 mb 0.00 in0.0 mm 0.00 in0.0 mm 0.00 in0.0 mm
08:04 AM 72.5°F22.5°C 70.0°F21.1°C 92% 9.9 mph SSW15.9 kmh SSW 14.0 mph22.5 kmh 29.83 in1010.2 mb 0.00 in0.0 mm 0.00 in0.0 mm 0.00 in0.0 mm
08:05 AM 72.5°F22.5°C 70.0°F21.1°C 92% 10.4 mph S16.7 kmh S 14.0 mph22.5 kmh 29.83 in1010.2 mb 0.00 in0.0 mm 0.00 in0.0 mm 0.00 in0.0 mm
08:06 AM 72.5°F22.5°C 70.0°F21.1°C 92% 13.5 mph SSW21.7 kmh SSW 14.0 mph22.5 kmh 29.83 in1010.2 mb 0.00 in0.0 mm 0.00 in0.0 mm 0.00 in0.0 mm
08:07 AM 72.7°F22.6°C 70.2°F21.2°C 92% 9.4 mph SSW15.1 kmh SSW 14.0 mph22.5 kmh 29.83 in1010.2 mb 0.00 in0.0 mm 0.00 in0.0 mm 0.00 in0.0 mm
08:08 AM 72.3°F22.4°C 69.5°F20.8°C 91% 8.3 mph SSW13.4 kmh SSW 14.0 mph22.5 kmh 29.83 in1010.2 mb 0.00 in0.0 mm 0.00 in0.0 mm 0.00 in0.0 mm
08:09 AM 72.5°F22.5°C 69.7°F20.9°C 91% 10.4 mph SSW16.7 kmh SSW 14.0 mph22.5 kmh 29.83 in1010.2 mb 0.00 in0.0 mm 0.00 in0.0 mm 0.00 in0.0 mm
08:10 AM 72.5°F22.5°C 69.7°F20.9°C 91% 12.0 mph SSW19.3 kmh SSW 13.5 mph21.7 kmh 29.83 in1010.2 mb 0.00 in0.0 mm 0.00 in0.0 mm 0.00 in0.0 mm
08:11 AM 72.5°F22.5°C 69.7°F20.9°C 91% 13.5 mph SSW21.7 kmh SSW 13.5 mph21.7 kmh 29.83 in1010.2 mb 0.00 in0.0 mm 0.00 in0.0 mm 0.00 in0.0 mm
08:12 AM 72.7°F22.6°C 69.9°F21.1°C 91% 13.0 mph SSW20.9 kmh SSW 13.5 mph21.7 kmh 29.83 in1010.2 mb 0.00 in0.0 mm 0.00 in0.0 mm 0.00 in0.0 mm
08:13 AM 72.7°F22.6°C 69.9°F21.1°C 91% 10.9 mph S17.5 kmh S 15.0 mph24.1 kmh 29.84 in1010.5 mb 0.00 in0.0 mm 0.00 in0.0 mm 0.00 in0.0 mm
08:14 AM 72.5°F22.5°C 69.7°F20.9°C 91% 13.5 mph SSW21.7 kmh SSW 15.0 mph24.1 kmh 29.84 in1010.5 mb 0.00 in0.0 mm 0.00 in0.0 mm 0.00 in0.0 mm
08:15 AM 72.5°F22.5°C 69.7°F20.9°C 91% 12.5 mph SSW20.1 kmh SSW 15.0 mph24.1 kmh 29.84 in1010.5 mb 0.00 in0.0 mm 0.00 in0.0 mm 0.00 in0.0 mm
08:16 AM 72.7°F22.6°C 69.9°F21.1°C 91% 13.0 mph SSW20.9 kmh SSW 15.0 mph24.1 kmh 29.84 in1010.5 mb 0.00 in0.0 mm 0.00 in0.0 mm 0.00 in0.0 mm
08:17 AM 72.5°F22.5°C 69.7°F20.9°C 91% 12.5 mph SSW20.1 kmh SSW 15.0 mph24.1 kmh 29.84 in1010.5 mb 0.00 in0.0 mm 0.00 in0.0 mm 0.00 in0.0 mm
08:18 AM 72.5°F22.5°C 69.7°F20.9°C 91% 10.9 mph SSW17.5 kmh SSW 15.0 mph24.1 kmh 29.84 in1010.5 mb 0.00 in0.0 mm 0.00 in0.0 mm 0.00 in0.0 mm
08:19 AM 72.5°F22.5°C 69.7°F20.9°C 91% 12.0 mph SSW19.3 kmh SSW 15.0 mph24.1 kmh 29.84 in1010.5 mb 0.00 in0.0 mm 0.00 in0.0 mm 0.00 in0.0 mm
08:20 AM 72.5°F22.5°C 69.7°F20.9°C 91% 11.4 mph SSW18.3 kmh SSW 15.0 mph24.1 kmh 29.84 in1010.5 mb 0.00 in0.0 mm 0.00 in0.0 mm 0.00 in0.0 mm
08:21 AM 72.5°F22.5°C 69.7°F20.9°C 91% 11.4 mph SSW18.3 kmh SSW 15.0 mph24.1 kmh 29.84 in1010.5 mb 0.00 in0.0 mm 0.00 in0.0 mm 0.00 in0.0 mm
08:22 AM 72.5°F22.5°C 69.7°F20.9°C 91% 14.5 mph SW23.3 kmh SW 15.0 mph24.1 kmh 29.84 in1010.5 mb 0.00 in0.0 mm 0.00 in0.0 mm 0.00 in0.0 mm
08:23 AM 72.5°F22.5°C 69.7°F20.9°C 91% 14.0 mph SSW22.5 kmh SSW 14.5 mph23.3 kmh 29.84 in1010.5 mb 0.00 in0.0 mm 0.00 in0.0 mm 0.00 in0.0 mm
08:24 AM 72.3°F22.4°C 69.5°F20.8°C 91% 10.9 mph SSW17.5 kmh SSW 14.5 mph23.3 kmh 29.84 in1010.5 mb 0.00 in0.0 mm 0.00 in0.0 mm 0.00 in0.0 mm
08:25 AM 72.3°F22.4°C 69.5°F20.8°C 91% 12.5 mph SSW20.1 kmh SSW 14.5 mph23.3 kmh 29.85 in1010.8 mb 0.00 in0.0 mm 0.00 in0.0 mm 0.00 in0.0 mm
08:26 AM 72.3°F22.4°C 69.5°F20.8°C 91% 14.5 mph SSW23.3 kmh SSW 14.5 mph23.3 kmh 29.85 in1010.8 mb 0.00 in0.0 mm 0.00 in0.0 mm 0.00 in0.0 mm
08:27 AM 72.5°F22.5°C 69.7°F20.9°C 91% 14.5 mph S23.3 kmh S 15.0 mph24.1 kmh 29.85 in1010.8 mb 0.00 in0.0 mm 0.00 in0.0 mm 0.00 in0.0 mm
08:28 AM 72.7°F22.6°C 69.9°F21.1°C 91% 12.0 mph SSW19.3 kmh SSW 15.0 mph24.1 kmh 29.85 in1010.8 mb 0.00 in0.0 mm 0.00 in0.0 mm 0.00 in0.0 mm
08:29 AM 72.5°F22.5°C 69.7°F20.9°C 91% 10.9 mph SSW17.5 kmh SSW 15.0 mph24.1 kmh 29.85 in1010.8 mb 0.00 in0.0 mm 0.00 in0.0 mm 0.00 in0.0 mm
08:30 AM 72.1°F22.3°C 69.4°F20.8°C 91% 13.0 mph S20.9 kmh S 15.0 mph24.1 kmh 29.85 in1010.8 mb 0.00 in0.0 mm 0.00 in0.0 mm 0.00 in0.0 mm
08:31 AM 72.3°F22.4°C 69.5°F20.8°C 91% 15.6 mph SSW25.1 kmh SSW 15.6 mph25.1 kmh 29.85 in1010.8 mb 0.00 in0.0 mm 0.00 in0.0 mm 0.00 in0.0 mm
08:32 AM 72.3°F22.4°C 69.5°F20.8°C 91% 14.0 mph SSW22.5 kmh SSW 15.6 mph25.1 kmh 29.85 in1010.8 mb 0.00 in0.0 mm 0.00 in0.0 mm 0.00 in0.0 mm
08:33 AM 72.3°F22.4°C 69.5°F20.8°C 91% 13.5 mph S21.7 kmh S 15.6 mph25.1 kmh 29.85 in1010.8 mb 0.00 in0.0 mm 0.00 in0.0 mm 0.00 in0.0 mm
08:34 AM 72.1°F22.3°C 69.4°F20.8°C 91% 12.5 mph S20.1 kmh S 15.6 mph25.1 kmh 29.85 in1010.8 mb 0.00 in0.0 mm 0.00 in0.0 mm 0.00 in0.0 mm
08:35 AM 72.5°F22.5°C 69.7°F20.9°C 91% 13.0 mph S20.9 kmh S 15.6 mph25.1 kmh 29.85 in1010.8 mb 0.00 in0.0 mm 0.00 in0.0 mm 0.00 in0.0 mm
08:36 AM 72.5°F22.5°C 69.7°F20.9°C 91% 16.6 mph SSW26.7 kmh SSW 16.6 mph26.7 kmh 29.85 in1010.8 mb 0.00 in0.0 mm 0.00 in0.0 mm 0.00 in0.0 mm
08:37 AM 72.5°F22.5°C 69.7°F20.9°C 91% 14.0 mph S22.5 kmh S 16.6 mph26.7 kmh 29.84 in1010.5 mb 0.00 in0.0 mm 0.00 in0.0 mm 0.00 in0.0 mm
08:38 AM 72.9°F22.7°C 70.1°F21.2°C 91% 15.0 mph SSW24.1 kmh SSW 16.6 mph26.7 kmh 29.84 in1010.5 mb 0.00 in0.0 mm 0.00 in0.0 mm 0.00 in0.0 mm
08:39 AM 72.9°F22.7°C 70.1°F21.2°C 91% 12.0 mph SSW19.3 kmh SSW 16.6 mph26.7 kmh 29.84 in1010.5 mb 0.00 in0.0 mm 0.00 in0.0 mm 0.00 in0.0 mm
08:40 AM 72.7°F22.6°C 69.9°F21.1°C 91% 9.9 mph SSW15.9 kmh SSW 16.6 mph26.7 kmh 29.84 in1010.5 mb 0.00 in0.0 mm 0.00 in0.0 mm 0.00 in0.0 mm
08:41 AM 72.5°F22.5°C 69.7°F20.9°C 91% 12.5 mph SSW20.1 kmh SSW 16.6 mph26.7 kmh 29.84 in1010.5 mb 0.00 in0.0 mm 0.00 in0.0 mm 0.00 in0.0 mm
08:42 AM 72.5°F22.5°C 69.7°F20.9°C 91% 13.5 mph S21.7 kmh S 16.6 mph26.7 kmh 29.84 in1010.5 mb 0.00 in0.0 mm 0.00 in0.0 mm 0.00 in0.0 mm
08:43 AM 72.7°F22.6°C 69.9°F21.1°C 91% 12.0 mph S19.3 kmh S 16.6 mph26.7 kmh 29.84 in1010.5 mb 0.00 in0.0 mm 0.00 in0.0 mm 0.00 in0.0 mm
08:44 AM 72.7°F22.6°C 69.9°F21.1°C 91% 13.0 mph SSW20.9 kmh SSW 16.6 mph26.7 kmh 29.84 in1010.5 mb 0.00 in0.0 mm 0.00 in0.0 mm 0.00 in0.0 mm
08:45 AM 72.7°F22.6°C 69.9°F21.1°C 91% 11.4 mph SSW18.3 kmh SSW 16.6 mph26.7 kmh 29.84 in1010.5 mb 0.00 in0.0 mm 0.00 in0.0 mm 0.00 in0.0 mm
08:46 AM 72.7°F22.6°C 69.9°F21.1°C 91% 12.5 mph SSW20.1 kmh SSW 16.6 mph26.7 kmh 29.84 in1010.5 mb 0.00 in0.0 mm 0.00 in0.0 mm 0.00 in0.0 mm
08:47 AM 72.7°F22.6°C 69.9°F21.1°C 91% 10.4 mph SSW16.7 kmh SSW 16.1 mph25.9 kmh 29.84 in1010.5 mb 0.00 in0.0 mm 0.00 in0.0 mm 0.00 in0.0 mm
08:48 AM 72.5°F22.5°C 69.7°F20.9°C 91% 9.9 mph S15.9 kmh S 16.1 mph25.9 kmh 29.84 in1010.5 mb 0.00 in0.0 mm 0.00 in0.0 mm 0.00 in0.0 mm
08:49 AM 72.5°F22.5°C 69.7°F20.9°C 91% 16.1 mph S25.9 kmh S 16.1 mph25.9 kmh 29.84 in1010.5 mb 0.00 in0.0 mm 0.00 in0.0 mm 0.00 in0.0 mm
08:50 AM 72.9°F22.7°C 70.1°F21.2°C 91% 18.6 mph SSW29.9 kmh SSW 18.6 mph29.9 kmh 29.84 in1010.5 mb 0.00 in0.0 mm 0.00 in0.0 mm 0.00 in0.0 mm
08:51 AM 72.9°F22.7°C 70.1°F21.2°C 91% 12.5 mph SSW20.1 kmh SSW 18.6 mph29.9 kmh 29.84 in1010.5 mb 0.00 in0.0 mm 0.00 in0.0 mm 0.00 in0.0 mm
08:52 AM 72.9°F22.7°C 70.1°F21.2°C 91% 15.6 mph SSW25.1 kmh SSW 18.6 mph29.9 kmh 29.84 in1010.5 mb 0.00 in0.0 mm 0.00 in0.0 mm 0.00 in0.0 mm
08:53 AM 72.9°F22.7°C 70.1°F21.2°C 91% 7.3 mph SW11.7 kmh SW 18.6 mph29.9 kmh 29.84 in1010.5 mb 0.00 in0.0 mm 0.00 in0.0 mm 0.00 in0.0 mm
08:54 AM 72.7°F22.6°C 69.9°F21.1°C 91% 10.4 mph WSW16.7 kmh WSW 18.6 mph29.9 kmh 29.84 in1010.5 mb 0.00 in0.0 mm 0.00 in0.0 mm 0.00 in0.0 mm
08:55 AM 72.7°F22.6°C 69.9°F21.1°C 91% 8.3 mph SSW13.4 kmh SSW 18.6 mph29.9 kmh 29.84 in1010.5 mb 0.00 in0.0 mm 0.00 in0.0 mm 0.00 in0.0 mm
08:56 AM 72.7°F22.6°C 69.9°F21.1°C 91% 9.4 mph W15.1 kmh W 18.6 mph29.9 kmh 29.84 in1010.5 mb 0.00 in0.0 mm 0.00 in0.0 mm 0.00 in0.0 mm
08:57 AM 72.7°F22.6°C 69.9°F21.1°C 91% 7.8 mph SSW12.6 kmh SSW 18.6 mph29.9 kmh 29.84 in1010.5 mb 0.00 in0.0 mm 0.00 in0.0 mm 0.00 in0.0 mm
08:58 AM 72.5°F22.5°C 69.7°F20.9°C 91% 12.0 mph SW19.3 kmh SW 18.6 mph29.9 kmh 29.84 in1010.5 mb 0.00 in0.0 mm 0.00 in0.0 mm 0.00 in0.0 mm
08:59 AM 72.7°F22.6°C 69.9°F21.1°C 91% 14.0 mph SSW22.5 kmh SSW 18.6 mph29.9 kmh 29.84 in1010.5 mb 0.00 in0.0 mm 0.00 in0.0 mm 0.00 in0.0 mm
09:00 AM 72.7°F22.6°C 69.9°F21.1°C 91% 12.5 mph SW20.1 kmh SW 18.6 mph29.9 kmh 29.84 in1010.5 mb 0.00 in0.0 mm 0.00 in0.0 mm 0.00 in0.0 mm
09:01 AM 72.7°F22.6°C 69.9°F21.1°C 91% 8.3 mph SSW13.4 kmh SSW 17.6 mph28.3 kmh 29.85 in1010.8 mb 0.00 in0.0 mm 0.00 in0.0 mm 0.00 in0.0 mm
09:02 AM 72.5°F22.5°C 69.7°F20.9°C 91% 15.6 mph SSW25.1 kmh SSW 17.6 mph28.3 kmh 29.85 in1010.8 mb 0.00 in0.0 mm 0.00 in0.0 mm 0.00 in0.0 mm
09:03 AM 72.5°F22.5°C 69.7°F20.9°C 91% 10.9 mph SSW17.5 kmh SSW 17.6 mph28.3 kmh 29.85 in1010.8 mb 0.00 in0.0 mm 0.00 in0.0 mm 0.00 in0.0 mm
09:04 AM 72.7°F22.6°C 69.9°F21.1°C 91% 11.4 mph SSW18.3 kmh SSW 17.6 mph28.3 kmh 29.85 in1010.8 mb 0.00 in0.0 mm 0.00 in0.0 mm 0.00 in0.0 mm
09:05 AM 72.5°F22.5°C 69.7°F20.9°C 91% 16.6 mph SSW26.7 kmh SSW 17.6 mph28.3 kmh 29.85 in1010.8 mb 0.00 in0.0 mm 0.00 in0.0 mm 0.00 in0.0 mm
09:06 AM 72.7°F22.6°C 69.9°F21.1°C 91% 11.4 mph SSW18.3 kmh SSW 17.6 mph28.3 kmh 29.85 in1010.8 mb 0.00 in0.0 mm 0.00 in0.0 mm 0.00 in0.0 mm
09:07 AM 72.5°F22.5°C 69.7°F20.9°C 91% 13.5 mph SW21.7 kmh SW 17.6 mph28.3 kmh 29.85 in1010.8 mb 0.00 in0.0 mm 0.00 in0.0 mm 0.00 in0.0 mm
09:08 AM 72.5°F22.5°C 69.7°F20.9°C 91% 15.6 mph S25.1 kmh S 17.6 mph28.3 kmh 29.85 in1010.8 mb 0.00 in0.0 mm 0.00 in0.0 mm 0.00 in0.0 mm
09:09 AM 72.7°F22.6°C 69.9°F21.1°C 91% 13.0 mph SSW20.9 kmh SSW 17.6 mph28.3 kmh 29.85 in1010.8 mb 0.00 in0.0 mm 0.00 in0.0 mm 0.00 in0.0 mm
09:10 AM 72.7°F22.6°C 69.9°F21.1°C 91% 18.1 mph SSW29.1 kmh SSW 18.1 mph29.1 kmh 29.85 in1010.8 mb 0.00 in0.0 mm 0.00 in0.0 mm 0.00 in0.0 mm
09:11 AM 72.7°F22.6°C 69.9°F21.1°C 91% 15.6 mph S25.1 kmh S 18.1 mph29.1 kmh 29.85 in1010.8 mb 0.00 in0.0 mm 0.00 in0.0 mm 0.00 in0.0 mm
09:12 AM 72.9°F22.7°C 70.1°F21.2°C 91% 15.0 mph SSW24.1 kmh SSW 18.1 mph29.1 kmh 29.85 in1010.8 mb 0.00 in0.0 mm 0.00 in0.0 mm 0.00 in0.0 mm
09:13 AM 72.9°F22.7°C 70.1°F21.2°C 91% 15.0 mph SW24.1 kmh SW 18.1 mph29.1 kmh 29.84 in1010.5 mb 0.00 in0.0 mm 0.00 in0.0 mm 0.00 in0.0 mm
09:14 AM 73.2°F22.9°C 70.1°F21.2°C 90% 15.6 mph SSW25.1 kmh SSW 18.1 mph29.1 kmh 29.84 in1010.5 mb 0.00 in0.0 mm 0.00 in0.0 mm 0.00 in0.0 mm
09:15 AM 73.2°F22.9°C 70.1°F21.2°C 90% 18.1 mph SSW29.1 kmh SSW 18.1 mph29.1 kmh 29.84 in1010.5 mb 0.00 in0.0 mm 0.00 in0.0 mm 0.00 in0.0 mm
09:16 AM 73.8°F23.2°C 70.6°F21.4°C 90% 16.6 mph SSW26.7 kmh SSW 19.1 mph30.7 kmh 29.84 in1010.5 mb 0.00 in0.0 mm 0.00 in0.0 mm 0.00 in0.0 mm
09:17 AM 74.1°F23.4°C 71.0°F21.7°C 90% 20.2 mph SSW32.5 kmh SSW 20.2 mph32.5 kmh 29.84 in1010.5 mb 0.00 in0.0 mm 0.00 in0.0 mm 0.00 in0.0 mm
09:18 AM 74.1°F23.4°C 70.7°F21.5°C 89% 16.6 mph SW26.7 kmh SW 20.2 mph32.5 kmh 29.84 in1010.5 mb 0.00 in0.0 mm 0.00 in0.0 mm 0.00 in0.0 mm
09:19 AM 74.3°F23.5°C 70.8°F21.6°C 89% 14.5 mph SSW23.3 kmh SSW 20.2 mph32.5 kmh 29.84 in1010.5 mb 0.00 in0.0 mm 0.00 in0.0 mm 0.00 in0.0 mm
09:20 AM 74.3°F23.5°C 70.8°F21.6°C 89% 17.6 mph S28.3 kmh S 20.2 mph32.5 kmh 29.84 in1010.5 mb 0.00 in0.0 mm 0.00 in0.0 mm 0.00 in0.0 mm
09:21 AM 74.7°F23.7°C 71.2°F21.8°C 89% 17.6 mph SW28.3 kmh SW 23.3 mph37.5 kmh 29.84 in1010.5 mb 0.00 in0.0 mm 0.00 in0.0 mm 0.00 in0.0 mm
09:22 AM 74.5°F23.6°C 71.0°F21.7°C 89% 19.7 mph S31.7 kmh S 23.3 mph37.5 kmh 29.84 in1010.5 mb 0.00 in0.0 mm 0.00 in0.0 mm 0.00 in0.0 mm
09:23 AM 74.5°F23.6°C 71.0°F21.7°C 89% 18.1 mph SSW29.1 kmh SSW 23.3 mph37.5 kmh 29.84 in1010.5 mb 0.00 in0.0 mm 0.00 in0.0 mm 0.00 in0.0 mm
09:24 AM 74.7°F23.7°C 71.2°F21.8°C 89% 9.9 mph SSW15.9 kmh SSW 23.3 mph37.5 kmh 29.84 in1010.5 mb 0.00 in0.0 mm 0.00 in0.0 mm 0.00 in0.0 mm
09:25 AM 74.7°F23.7°C 71.2°F21.8°C 89% 17.6 mph SW28.3 kmh SW 23.3 mph37.5 kmh 29.84 in1010.5 mb 0.00 in0.0 mm 0.00 in0.0 mm 0.00 in0.0 mm
09:26 AM 74.8°F23.8°C 71.4°F21.9°C 89% 19.2 mph SSW30.9 kmh SSW 23.3 mph37.5 kmh 29.84 in1010.5 mb 0.00 in0.0 mm 0.00 in0.0 mm 0.00 in0.0 mm
09:27 AM 75.0°F23.9°C 71.2°F21.8°C 88% 12.5 mph SSW20.1 kmh SSW 23.3 mph37.5 kmh 29.84 in1010.5 mb 0.00 in0.0 mm 0.00 in0.0 mm 0.00 in0.0 mm
09:28 AM 75.0°F23.9°C 71.2°F21.8°C 88% 21.7 mph SSW34.9 kmh SSW 23.3 mph37.5 kmh 29.84 in1010.5 mb 0.00 in0.0 mm 0.00 in0.0 mm 0.00 in0.0 mm
09:29 AM 75.0°F23.9°C 71.2°F21.8°C 88% 20.7 mph SSW33.3 kmh SSW 23.3 mph37.5 kmh 29.84 in1010.5 mb 0.00 in0.0 mm 0.00 in0.0 mm 0.00 in0.0 mm
09:30 AM 75.0°F23.9°C 71.2°F21.8°C 88% 22.2 mph SW35.7 kmh SW 23.3 mph37.5 kmh 29.84 in1010.5 mb 0.00 in0.0 mm 0.00 in0.0 mm 0.00 in0.0 mm
09:31 AM 75.4°F24.1°C 71.6°F22.0°C 88% 16.6 mph SW26.7 kmh SW 22.2 mph35.7 kmh 29.84 in1010.5 mb 0.00 in0.0 mm 0.00 in0.0 mm 0.00 in0.0 mm
09:32 AM 75.4°F24.1°C 71.6°F22.0°C 88% 18.1 mph SW29.1 kmh SW 22.2 mph35.7 kmh 29.84 in1010.5 mb 0.00 in0.0 mm 0.00 in0.0 mm 0.00 in0.0 mm
09:33 AM 75.4°F24.1°C 71.6°F22.0°C 88% 13.0 mph SSW20.9 kmh SSW 22.2 mph35.7 kmh 29.84 in1010.5 mb 0.00 in0.0 mm 0.00 in0.0 mm 0.00 in0.0 mm
09:34 AM 75.6°F24.2°C 71.7°F22.1°C 88% 14.0 mph S22.5 kmh S 22.2 mph35.7 kmh 29.84 in1010.5 mb 0.00 in0.0 mm 0.00 in0.0 mm 0.00 in0.0 mm
09:35 AM 75.4°F24.1°C 71.6°F22.0°C 88% 17.1 mph SSW27.5 kmh SSW 22.2 mph35.7 kmh 29.84 in1010.5 mb 0.00 in0.0 mm 0.00 in0.0 mm 0.00 in0.0 mm
09:36 AM 75.4°F24.1°C 71.6°F22.0°C 88% 20.7 mph SW33.3 kmh SW 23.8 mph38.3 kmh 29.84 in1010.5 mb 0.00 in0.0 mm 0.00 in0.0 mm 0.00 in0.0 mm
09:37 AM 75.4°F24.1°C 71.6°F22.0°C 88% 14.5 mph SSW23.3 kmh SSW 23.8 mph38.3 kmh 29.85 in1010.8 mb 0.00 in0.0 mm 0.00 in0.0 mm 0.00 in0.0 mm
09:38 AM 75.2°F24.0°C 71.4°F21.9°C 88% 20.2 mph SSW32.5 kmh SSW 23.8 mph38.3 kmh 29.85 in1010.8 mb 0.00 in0.0 mm 0.00 in0.0 mm 0.00 in0.0 mm
09:39 AM 75.2°F24.0°C 71.4°F21.9°C 88% 12.0 mph SSW19.3 kmh SSW 23.8 mph38.3 kmh 29.85 in1010.8 mb 0.00 in0.0 mm 0.00 in0.0 mm 0.00 in0.0 mm
09:40 AM 75.2°F24.0°C 71.4°F21.9°C 88% 17.1 mph S27.5 kmh S 23.8 mph38.3 kmh 29.85 in1010.8 mb 0.00 in0.0 mm 0.00 in0.0 mm 0.00 in0.0 mm
09:41 AM 75.2°F24.0°C 71.4°F21.9°C 88% 11.4 mph SSW18.3 kmh SSW 23.8 mph38.3 kmh 29.85 in1010.8 mb 0.00 in0.0 mm 0.00 in0.0 mm 0.00 in0.0 mm
09:42 AM 75.2°F24.0°C 71.4°F21.9°C 88% 14.0 mph SSW22.5 kmh SSW 23.8 mph38.3 kmh 29.85 in1010.8 mb 0.00 in0.0 mm 0.00 in0.0 mm 0.00 in0.0 mm
09:43 AM 75.2°F24.0°C 71.4°F21.9°C 88% 13.5 mph SSW21.7 kmh SSW 23.8 mph38.3 kmh 29.85 in1010.8 mb 0.00 in0.0 mm 0.00 in0.0 mm 0.00 in0.0 mm
09:44 AM 75.2°F24.0°C 71.4°F21.9°C 88% 15.6 mph SSW25.1 kmh SSW 23.8 mph38.3 kmh 29.85 in1010.8 mb 0.00 in0.0 mm 0.00 in0.0 mm 0.00 in0.0 mm
09:45 AM 75.4°F24.1°C 71.6°F22.0°C 88% 11.4 mph W18.3 kmh W 23.8 mph38.3 kmh 29.85 in1010.8 mb 0.00 in0.0 mm 0.00 in0.0 mm 0.00 in0.0 mm
09:46 AM 75.4°F24.1°C 71.6°F22.0°C 88% 15.0 mph SSW24.1 kmh SSW 20.7 mph33.3 kmh 29.85 in1010.8 mb 0.00 in0.0 mm 0.00 in0.0 mm 0.00 in0.0 mm
09:47 AM 75.2°F24.0°C 71.4°F21.9°C 88% 12.5 mph SSW20.1 kmh SSW 20.2 mph32.5 kmh 29.85 in1010.8 mb 0.00 in0.0 mm 0.00 in0.0 mm 0.00 in0.0 mm
09:48 AM 75.6°F24.2°C 71.7°F22.1°C 88% 12.5 mph SW20.1 kmh SW 20.2 mph32.5 kmh 29.85 in1010.8 mb 0.00 in0.0 mm 0.00 in0.0 mm 0.00 in0.0 mm
09:49 AM 75.6°F24.2°C 71.7°F22.1°C 88% 13.5 mph SSW21.7 kmh SSW 18.6 mph29.9 kmh 29.86 in1011.2 mb 0.00 in0.0 mm 0.00 in0.0 mm 0.00 in0.0 mm
09:50 AM 75.4°F24.1°C 71.6°F22.0°C 88% 18.1 mph SSW29.1 kmh SSW 18.6 mph29.9 kmh 29.86 in1011.2 mb 0.00 in0.0 mm 0.00 in0.0 mm 0.00 in0.0 mm
09:51 AM 75.4°F24.1°C 71.6°F22.0°C 88% 12.0 mph SW19.3 kmh SW 18.6 mph29.9 kmh 29.86 in1011.2 mb 0.00 in0.0 mm 0.00 in0.0 mm 0.00 in0.0 mm
09:52 AM 75.0°F23.9°C 71.2°F21.8°C 88% 15.0 mph SSW24.1 kmh SSW 18.6 mph29.9 kmh 29.86 in1011.2 mb 0.00 in0.0 mm 0.00 in0.0 mm 0.00 in0.0 mm
09:53 AM 75.0°F23.9°C 71.2°F21.8°C 88% 14.0 mph SW22.5 kmh SW 18.6 mph29.9 kmh 29.86 in1011.2 mb 0.00 in0.0 mm 0.00 in0.0 mm 0.00 in0.0 mm
09:54 AM 74.8°F23.8°C 71.0°F21.7°C 88% 17.1 mph SSW27.5 kmh SSW 18.6 mph29.9 kmh 29.86 in1011.2 mb 0.00 in0.0 mm 0.00 in0.0 mm 0.00 in0.0 mm
09:55 AM 74.8°F23.8°C 71.0°F21.7°C 88% 16.1 mph SSW25.9 kmh SSW 18.6 mph29.9 kmh 29.86 in1011.2 mb 0.00 in0.0 mm 0.00 in0.0 mm 0.00 in0.0 mm
09:56 AM 74.8°F23.8°C 71.4°F21.9°C 89% 15.0 mph SSW24.1 kmh SSW 18.1 mph29.1 kmh 29.86 in1011.2 mb 0.00 in0.0 mm 0.00 in0.0 mm 0.00 in0.0 mm
09:57 AM 74.8°F23.8°C 71.4°F21.9°C 89% 9.4 mph SW15.1 kmh SW 18.1 mph29.1 kmh 29.86 in1011.2 mb 0.00 in0.0 mm 0.00 in0.0 mm 0.00 in0.0 mm
09:58 AM 74.8°F23.8°C 71.4°F21.9°C 89% 14.0 mph S22.5 kmh S 18.1 mph29.1 kmh 29.86 in1011.2 mb 0.00 in0.0 mm 0.00 in0.0 mm 0.00 in0.0 mm
09:59 AM 75.0°F23.9°C 71.5°F21.9°C 89% 10.9 mph SSW17.5 kmh SSW 18.1 mph29.1 kmh 29.86 in1011.2 mb 0.00 in0.0 mm 0.00 in0.0 mm 0.00 in0.0 mm
10:00 AM 75.0°F23.9°C 71.5°F21.9°C 89% 9.4 mph SW15.1 kmh SW 18.1 mph29.1 kmh 29.86 in1011.2 mb 0.00 in0.0 mm 0.00 in0.0 mm 0.00 in0.0 mm
10:01 AM 74.8°F23.8°C 71.4°F21.9°C 89% 13.5 mph SSW21.7 kmh SSW 17.1 mph27.5 kmh 29.86 in1011.2 mb 0.00 in0.0 mm 0.00 in0.0 mm 0.00 in0.0 mm
10:02 AM 75.0°F23.9°C 71.5°F21.9°C 89% 15.6 mph SSW25.1 kmh SSW 17.1 mph27.5 kmh 29.85 in1010.8 mb 0.00 in0.0 mm 0.00 in0.0 mm 0.00 in0.0 mm
10:03 AM 75.2°F24.0°C 71.7°F22.1°C 89% 14.0 mph SSW22.5 kmh SSW 18.6 mph29.9 kmh 29.85 in1010.8 mb 0.00 in0.0 mm 0.00 in0.0 mm 0.00 in0.0 mm
10:04 AM 75.2°F24.0°C 71.4°F21.9°C 88% 10.9 mph SSW17.5 kmh SSW 18.6 mph29.9 kmh 29.85 in1010.8 mb 0.00 in0.0 mm 0.00 in0.0 mm 0.00 in0.0 mm
10:05 AM 75.2°F24.0°C 71.4°F21.9°C 88% 16.1 mph SW25.9 kmh SW 18.6 mph29.9 kmh 29.85 in1010.8 mb 0.00 in0.0 mm 0.00 in0.0 mm 0.00 in0.0 mm
10:06 AM 75.4°F24.1°C 71.6°F22.0°C 88% 12.5 mph SSW20.1 kmh SSW 18.6 mph29.9 kmh 29.85 in1010.8 mb 0.00 in0.0 mm 0.00 in0.0 mm 0.00 in0.0 mm
10:07 AM 75.2°F24.0°C 71.4°F21.9°C 88% 15.0 mph SSW24.1 kmh SSW 18.6 mph29.9 kmh 29.85 in1010.8 mb 0.00 in0.0 mm 0.00 in0.0 mm 0.00 in0.0 mm
10:08 AM 75.4°F24.1°C 71.6°F22.0°C 88% 13.0 mph SSW20.9 kmh SSW 18.6 mph29.9 kmh 29.85 in1010.8 mb 0.00 in0.0 mm 0.00 in0.0 mm 0.00 in0.0 mm
10:09 AM 75.4°F24.1°C 71.6°F22.0°C 88% 12.5 mph SSW20.1 kmh SSW 18.6 mph29.9 kmh 29.85 in1010.8 mb 0.00 in0.0 mm 0.00 in0.0 mm 0.00 in0.0 mm
10:10 AM 75.2°F24.0°C 71.4°F21.9°C 88% 15.0 mph SSW24.1 kmh SSW 18.6 mph29.9 kmh 29.85 in1010.8 mb 0.00 in0.0 mm 0.00 in0.0 mm 0.00 in0.0 mm
10:11 AM 75.2°F24.0°C 71.4°F21.9°C 88% 11.4 mph SSW18.3 kmh SSW 18.6 mph29.9 kmh 29.85 in1010.8 mb 0.00 in0.0 mm 0.00 in0.0 mm 0.00 in0.0 mm
10:12 AM 75.2°F24.0°C 71.4°F21.9°C 88% 16.6 mph SSW26.7 kmh SSW 18.6 mph29.9 kmh 29.85 in1010.8 mb 0.00 in0.0 mm 0.00 in0.0 mm 0.00 in0.0 mm
10:13 AM 75.2°F24.0°C 71.4°F21.9°C 88% 10.4 mph SSW16.7 kmh SSW 16.6 mph26.7 kmh 29.85 in1010.8 mb 0.00 in0.0 mm 0.00 in0.0 mm 0.00 in0.0 mm
10:14 AM 75.0°F23.9°C 71.2°F21.8°C 88% 11.4 mph SW18.3 kmh SW 16.6 mph26.7 kmh 29.85 in1010.8 mb 0.00 in0.0 mm 0.00 in0.0 mm 0.00 in0.0 mm
10:15 AM 75.0°F23.9°C 71.2°F21.8°C 88% 10.9 mph WSW17.5 kmh WSW 16.6 mph26.7 kmh 29.85 in1010.8 mb 0.00 in0.0 mm 0.00 in0.0 mm 0.00 in0.0 mm
10:16 AM 75.2°F24.0°C 71.4°F21.9°C 88% 14.0 mph SSW22.5 kmh SSW 16.6 mph26.7 kmh 29.85 in1010.8 mb 0.00 in0.0 mm 0.00 in0.0 mm 0.00 in0.0 mm
10:17 AM 75.0°F23.9°C 71.2°F21.8°C 88% 14.0 mph SSW22.5 kmh SSW 16.6 mph26.7 kmh 29.85 in1010.8 mb 0.00 in0.0 mm 0.00 in0.0 mm 0.00 in0.0 mm
10:18 AM 75.0°F23.9°C 71.2°F21.8°C 88% 13.0 mph SW20.9 kmh SW 16.6 mph26.7 kmh 29.85 in1010.8 mb 0.00 in0.0 mm 0.00 in0.0 mm 0.00 in0.0 mm
10:19 AM 75.0°F23.9°C 71.2°F21.8°C 88% 6.8 mph SSW10.9 kmh SSW 16.6 mph26.7 kmh 29.85 in1010.8 mb 0.00 in0.0 mm 0.00 in0.0 mm 0.00 in0.0 mm
10:20 AM 75.0°F23.9°C 71.2°F21.8°C 88% 5.8 mph SW9.3 kmh SW 16.6 mph26.7 kmh 29.85 in1010.8 mb 0.00 in0.0 mm 0.00 in0.0 mm 0.00 in0.0 mm
10:21 AM 75.0°F23.9°C 71.2°F21.8°C 88% 12.0 mph SSW19.3 kmh SSW 16.6 mph26.7 kmh 29.85 in1010.8 mb 0.00 in0.0 mm 0.00 in0.0 mm 0.00 in0.0 mm
10:22 AM 75.0°F23.9°C 71.2°F21.8°C 88% 13.5 mph SSW21.7 kmh SSW 14.5 mph23.3 kmh 29.85 in1010.8 mb 0.00 in0.0 mm 0.00 in0.0 mm 0.00 in0.0 mm
10:23 AM 75.0°F23.9°C 71.2°F21.8°C 88% 10.9 mph S17.5 kmh S 14.5 mph23.3 kmh 29.85 in1010.8 mb 0.00 in0.0 mm 0.00 in0.0 mm 0.00 in0.0 mm
10:24 AM 74.8°F23.8°C 71.4°F21.9°C 89% 7.3 mph SSW11.7 kmh SSW 14.5 mph23.3 kmh 29.85 in1010.8 mb 0.00 in0.0 mm 0.00 in0.0 mm 0.00 in0.0 mm
10:25 AM 74.8°F23.8°C 71.4°F21.9°C 89% 10.4 mph SSW16.7 kmh SSW 14.5 mph23.3 kmh 29.85 in1010.8 mb 0.00 in0.0 mm 0.00 in0.0 mm 0.00 in0.0 mm
10:26 AM 74.8°F23.8°C 71.4°F21.9°C 89% 8.3 mph WSW13.4 kmh WSW 15.6 mph25.1 kmh 29.85 in1010.8 mb 0.00 in0.0 mm 0.00 in0.0 mm 0.00 in0.0 mm
10:27 AM 74.8°F23.8°C 71.4°F21.9°C 89% 13.0 mph SSW20.9 kmh SSW 15.6 mph25.1 kmh 29.85 in1010.8 mb 0.00 in0.0 mm 0.00 in0.0 mm 0.00 in0.0 mm
10:28 AM 75.0°F23.9°C 71.5°F21.9°C 89% 12.0 mph SSW19.3 kmh SSW 17.1 mph27.5 kmh 29.85 in1010.8 mb 0.00 in0.0 mm 0.00 in0.0 mm 0.00 in0.0 mm
10:29 AM 75.2°F24.0°C 71.7°F22.1°C 89% 15.0 mph SSW24.1 kmh SSW 17.1 mph27.5 kmh 29.85 in1010.8 mb 0.00 in0.0 mm 0.00 in0.0 mm 0.00 in0.0 mm
10:30 AM 75.0°F23.9°C 71.5°F21.9°C 89% 9.9 mph SSW15.9 kmh SSW 17.1 mph27.5 kmh 29.85 in1010.8 mb 0.00 in0.0 mm 0.00 in0.0 mm 0.00 in0.0 mm
10:31 AM 75.2°F24.0°C 71.7°F22.1°C 89% 5.3 mph W8.5 kmh W 17.1 mph27.5 kmh 29.85 in1010.8 mb 0.00 in0.0 mm 0.00 in0.0 mm 0.00 in0.0 mm
10:32 AM 75.0°F23.9°C 71.5°F21.9°C 89% 16.1 mph SSW25.9 kmh SSW 17.1 mph27.5 kmh 29.85 in1010.8 mb 0.00 in0.0 mm 0.00 in0.0 mm 0.00 in0.0 mm
10:33 AM 75.0°F23.9°C 71.5°F21.9°C 89% 10.4 mph SSW16.7 kmh SSW 17.1 mph27.5 kmh 29.85 in1010.8 mb 0.00 in0.0 mm 0.00 in0.0 mm 0.00 in0.0 mm
10:34 AM 75.0°F23.9°C 71.5°F21.9°C 89% 6.8 mph S10.9 kmh S 17.1 mph27.5 kmh 29.85 in1010.8 mb 0.00 in0.0 mm 0.00 in0.0 mm 0.00 in0.0 mm
10:35 AM 75.0°F23.9°C 71.5°F21.9°C 89% 6.8 mph SSW10.9 kmh SSW 17.1 mph27.5 kmh 29.85 in1010.8 mb 0.00 in0.0 mm 0.00 in0.0 mm 0.00 in0.0 mm
10:36 AM 74.8°F23.8°C 71.4°F21.9°C 89% 6.3 mph SSW10.1 kmh SSW 17.1 mph27.5 kmh 29.85 in1010.8 mb 0.00 in0.0 mm 0.00 in0.0 mm 0.00 in0.0 mm
10:37 AM 74.8°F23.8°C 71.4°F21.9°C 89% 15.6 mph SW25.1 kmh SW 17.1 mph27.5 kmh 29.85 in1010.8 mb 0.00 in0.0 mm 0.00 in0.0 mm 0.00 in0.0 mm
10:38 AM 74.8°F23.8°C 71.4°F21.9°C 89% 10.9 mph SSW17.5 kmh SSW 17.1 mph27.5 kmh 29.85 in1010.8 mb 0.00 in0.0 mm 0.00 in0.0 mm 0.00 in0.0 mm
10:39 AM 74.8°F23.8°C 71.4°F21.9°C 89% 9.9 mph SW15.9 kmh SW 17.1 mph27.5 kmh 29.85 in1010.8 mb 0.00 in0.0 mm 0.00 in0.0 mm 0.00 in0.0 mm
10:40 AM 74.8°F23.8°C 71.4°F21.9°C 89% 6.3 mph SW10.1 kmh SW 17.1 mph27.5 kmh 29.85 in1010.8 mb 0.00 in0.0 mm 0.00 in0.0 mm 0.00 in0.0 mm
10:41 AM 74.8°F23.8°C 71.4°F21.9°C 89% 8.3 mph SW13.4 kmh SW 17.1 mph27.5 kmh 29.85 in1010.8 mb 0.00 in0.0 mm 0.00 in0.0 mm 0.00 in0.0 mm
10:42 AM 74.5°F23.6°C 71.0°F21.7°C 89% 7.8 mph SSW12.6 kmh SSW 17.1 mph27.5 kmh 29.85 in1010.8 mb 0.00 in0.0 mm 0.00 in0.0 mm 0.00 in0.0 mm
10:43 AM 74.3°F23.5°C 70.8°F21.6°C 89% 7.3 mph WSW11.7 kmh WSW 17.1 mph27.5 kmh 29.85 in1010.8 mb 0.00 in0.0 mm 0.00 in0.0 mm 0.00 in0.0 mm
10:44 AM 74.1°F23.4°C 70.7°F21.5°C 89% 8.3 mph W13.4 kmh W 16.1 mph25.9 kmh 29.85 in1010.8 mb 0.00 in0.0 mm 0.00 in0.0 mm 0.00 in0.0 mm
10:45 AM 73.8°F23.2°C 70.3°F21.3°C 89% 6.3 mph W10.1 kmh W 16.1 mph25.9 kmh 29.85 in1010.8 mb 0.00 in0.0 mm 0.00 in0.0 mm 0.00 in0.0 mm
10:46 AM 73.6°F23.1°C 70.1°F21.2°C 89% 8.3 mph WSW13.4 kmh WSW 16.1 mph25.9 kmh 29.85 in1010.8 mb 0.00 in0.0 mm 0.00 in0.0 mm 0.00 in0.0 mm
10:47 AM 73.2°F22.9°C 69.8°F21.0°C 89% 5.8 mph SW9.3 kmh SW 16.1 mph25.9 kmh 29.85 in1010.8 mb 0.00 in0.0 mm 0.00 in0.0 mm 0.00 in0.0 mm
10:48 AM 73.0°F22.8°C 69.6°F20.9°C 89% 5.8 mph SW9.3 kmh SW 10.9 mph17.5 kmh 29.85 in1010.8 mb 0.00 in0.0 mm 0.00 in0.0 mm 0.00 in0.0 mm
10:49 AM 73.0°F22.8°C 69.6°F20.9°C 89% 9.4 mph SW15.1 kmh SW 10.9 mph17.5 kmh 29.85 in1010.8 mb 0.00 in0.0 mm 0.00 in0.0 mm 0.00 in0.0 mm
10:50 AM 73.2°F22.9°C 70.1°F21.2°C 90% 4.7 mph SSW7.6 kmh SSW 10.9 mph17.5 kmh 29.85 in1010.8 mb 0.00 in0.0 mm 0.00 in0.0 mm 0.00 in0.0 mm
10:51 AM 73.2°F22.9°C 70.1°F21.2°C 90% 8.9 mph SW14.3 kmh SW 10.9 mph17.5 kmh 29.85 in1010.8 mb 0.00 in0.0 mm 0.00 in0.0 mm 0.00 in0.0 mm
10:52 AM 73.4°F23.0°C 70.3°F21.3°C 90% 4.7 mph SW7.6 kmh SW 10.9 mph17.5 kmh 29.85 in1010.8 mb 0.00 in0.0 mm 0.00 in0.0 mm 0.00 in0.0 mm
10:53 AM 73.4°F23.0°C 70.3°F21.3°C 90% 5.8 mph W9.3 kmh W 10.4 mph16.7 kmh 29.85 in1010.8 mb 0.00 in0.0 mm 0.00 in0.0 mm 0.00 in0.0 mm
10:54 AM 73.2°F22.9°C 70.1°F21.2°C 90% 4.7 mph SW7.6 kmh SW 10.4 mph16.7 kmh 29.85 in1010.8 mb 0.00 in0.0 mm 0.00 in0.0 mm 0.00 in0.0 mm
10:55 AM 73.0°F22.8°C 69.9°F21.1°C 90% 3.7 mph SW6.0 kmh SW 10.4 mph16.7 kmh 29.85 in1010.8 mb 0.00 in0.0 mm 0.00 in0.0 mm 0.00 in0.0 mm
10:56 AM 73.0°F22.8°C 69.9°F21.1°C 90% 5.8 mph SSW9.3 kmh SSW 10.4 mph16.7 kmh 29.85 in1010.8 mb 0.00 in0.0 mm 0.00 in0.0 mm 0.00 in0.0 mm
10:57 AM 73.0°F22.8°C 69.9°F21.1°C 90% 3.7 mph W6.0 kmh W 10.4 mph16.7 kmh 29.85 in1010.8 mb 0.00 in0.0 mm 0.00 in0.0 mm 0.00 in0.0 mm
10:58 AM 72.9°F22.7°C 69.7°F20.9°C 90% 5.3 mph WSW8.5 kmh WSW 10.4 mph16.7 kmh 29.85 in1010.8 mb 0.00 in0.0 mm 0.00 in0.0 mm 0.00 in0.0 mm
10:59 AM 72.7°F22.6°C 69.6°F20.9°C 90% 4.7 mph SW7.6 kmh SW 10.4 mph16.7 kmh 29.85 in1010.8 mb 0.00 in0.0 mm 0.00 in0.0 mm 0.00 in0.0 mm
11:00 AM 72.7°F22.6°C 69.6°F20.9°C 90% 8.3 mph SW13.4 kmh SW 10.4 mph16.7 kmh 29.85 in1010.8 mb 0.00 in0.0 mm 0.00 in0.0 mm 0.00 in0.0 mm
11:01 AM 72.7°F22.6°C 69.6°F20.9°C 90% 6.8 mph SSW10.9 kmh SSW 10.4 mph16.7 kmh 29.85 in1010.8 mb 0.00 in0.0 mm 0.00 in0.0 mm 0.00 in0.0 mm
11:02 AM 72.7°F22.6°C 69.6°F20.9°C 90% 5.3 mph SW8.5 kmh SW 8.3 mph13.4 kmh 29.85 in1010.8 mb 0.00 in0.0 mm 0.00 in0.0 mm 0.00 in0.0 mm
11:03 AM 72.7°F22.6°C 69.6°F20.9°C 90% 5.8 mph SW9.3 kmh SW 8.3 mph13.4 kmh 29.85 in1010.8 mb 0.00 in0.0 mm 0.00 in0.0 mm 0.00 in0.0 mm
11:04 AM 72.7°F22.6°C 69.6°F20.9°C 90% 3.2 mph WSW5.1 kmh WSW 8.3 mph13.4 kmh 29.85 in1010.8 mb 0.00 in0.0 mm 0.00 in0.0 mm 0.00 in0.0 mm
11:05 AM 72.7°F22.6°C 69.6°F20.9°C 90% 3.2 mph SW5.1 kmh SW 8.3 mph13.4 kmh 29.85 in1010.8 mb 0.00 in0.0 mm 0.00 in0.0 mm 0.00 in0.0 mm
11:06 AM 72.7°F22.6°C 69.6°F20.9°C 90% 2.2 mph WSW3.5 kmh WSW 8.3 mph13.4 kmh 29.85 in1010.8 mb 0.00 in0.0 mm 0.00 in0.0 mm 0.00 in0.0 mm
11:07 AM 72.7°F22.6°C 69.6°F20.9°C 90% 1.7 mph SSW2.7 kmh SSW 8.3 mph13.4 kmh 29.85 in1010.8 mb 0.00 in0.0 mm 0.00 in0.0 mm 0.00 in0.0 mm
11:08 AM 72.9°F22.7°C 69.7°F20.9°C 90% Calm Calm 8.3 mph13.4 kmh 29.85 in1010.8 mb 0.00 in0.0 mm 0.00 in0.0 mm 0.00 in0.0 mm
11:09 AM 72.9°F22.7°C 69.7°F20.9°C 90% Calm Calm 8.3 mph13.4 kmh 29.85 in1010.8 mb 0.00 in0.0 mm 0.00 in0.0 mm 0.00 in0.0 mm
11:10 AM 72.9°F22.7°C 69.7°F20.9°C 90% 1.7 mph SSW2.7 kmh SSW 7.3 mph11.7 kmh 29.85 in1010.8 mb 0.00 in0.0 mm 0.00 in0.0 mm 0.00 in0.0 mm
11:11 AM 73.2°F22.9°C 70.1°F21.2°C 90% 3.2 mph SW5.1 kmh SW 7.3 mph11.7 kmh 29.85 in1010.8 mb 0.00 in0.0 mm 0.00 in0.0 mm 0.00 in0.0 mm
11:12 AM 73.6°F23.1°C 70.5°F21.4°C 90% 3.7 mph SSE6.0 kmh SSE 5.8 mph9.3 kmh 29.84 in1010.5 mb 0.00 in0.0 mm 0.00 in0.0 mm 0.00 in0.0 mm
11:13 AM 73.8°F23.2°C 70.3°F21.3°C 89% 2.7 mph SSW4.3 kmh SSW 4.7 mph7.6 kmh 29.84 in1010.5 mb 0.00 in0.0 mm 0.00 in0.0 mm 0.00 in0.0 mm
11:14 AM 73.9°F23.3°C 70.5°F21.4°C 89% 5.8 mph WSW9.3 kmh WSW 5.8 mph9.3 kmh 29.84 in1010.5 mb 0.00 in0.0 mm 0.00 in0.0 mm 0.00 in0.0 mm
11:15 AM 73.8°F23.2°C 70.3°F21.3°C 89% 5.8 mph WSW9.3 kmh WSW 5.8 mph9.3 kmh 29.84 in1010.5 mb 0.00 in0.0 mm 0.00 in0.0 mm 0.00 in0.0 mm
11:16 AM 73.9°F23.3°C 70.5°F21.4°C 89% 4.7 mph SW7.6 kmh SW 6.8 mph10.9 kmh 29.84 in1010.5 mb 0.00 in0.0 mm 0.00 in0.0 mm 0.00 in0.0 mm
11:17 AM 73.9°F23.3°C 70.5°F21.4°C 89% 7.3 mph SW11.7 kmh SW 7.3 mph11.7 kmh 29.84 in1010.5 mb 0.00 in0.0 mm 0.00 in0.0 mm 0.00 in0.0 mm
11:18 AM 73.9°F23.3°C 70.5°F21.4°C 89% 5.8 mph WSW9.3 kmh WSW 7.3 mph11.7 kmh 29.84 in1010.5 mb 0.00 in0.0 mm 0.00 in0.0 mm 0.00 in0.0 mm
11:19 AM 73.8°F23.2°C 70.3°F21.3°C 89% 8.9 mph WSW14.3 kmh WSW 8.9 mph14.3 kmh 29.84 in1010.5 mb 0.00 in0.0 mm 0.00 in0.0 mm 0.00 in0.0 mm
11:20 AM 73.6°F23.1°C 70.1°F21.2°C 89% 9.4 mph W15.1 kmh W 9.4 mph15.1 kmh 29.84 in1010.5 mb 0.00 in0.0 mm 0.00 in0.0 mm 0.00 in0.0 mm
11:21 AM 73.2°F22.9°C 69.8°F21.0°C 89% 10.9 mph W17.5 kmh W 10.9 mph17.5 kmh 29.84 in1010.5 mb 0.00 in0.0 mm 0.00 in0.0 mm 0.00 in0.0 mm
11:22 AM 73.0°F22.8°C 69.6°F20.9°C 89% 10.9 mph WSW17.5 kmh WSW 13.0 mph20.9 kmh 29.84 in1010.5 mb 0.00 in0.0 mm 0.00 in0.0 mm 0.00 in0.0 mm
11:23 AM 72.9°F22.7°C 69.4°F20.8°C 89% 10.4 mph WNW16.7 kmh WNW 13.0 mph20.9 kmh 29.84 in1010.5 mb 0.00 in0.0 mm 0.00 in0.0 mm 0.00 in0.0 mm
11:24 AM 72.5°F22.5°C 69.1°F20.6°C 89% 9.9 mph W15.9 kmh W 13.0 mph20.9 kmh 29.84 in1010.5 mb 0.00 in0.0 mm 0.00 in0.0 mm 0.00 in0.0 mm
11:25 AM 72.1°F22.3°C 68.4°F20.2°C 88% 13.5 mph W21.7 kmh W 13.5 mph21.7 kmh 29.85 in1010.8 mb 0.00 in0.0 mm 0.00 in0.0 mm 0.00 in0.0 mm
11:26 AM 71.8°F22.1°C 68.0°F20.0°C 88% 12.5 mph W20.1 kmh W 13.5 mph21.7 kmh 29.85 in1010.8 mb 0.00 in0.0 mm 0.00 in0.0 mm 0.00 in0.0 mm
11:27 AM 71.6°F22.0°C 67.9°F19.9°C 88% 19.7 mph WNW31.7 kmh WNW 19.7 mph31.7 kmh 29.85 in1010.8 mb 0.00 in0.0 mm 0.00 in0.0 mm 0.00 in0.0 mm
11:28 AM 72.3°F22.4°C 69.2°F20.7°C 90% 26.4 mph W42.5 kmh W 30.0 mph48.3 kmh 29.85 in1010.8 mb 0.00 in0.0 mm 0.00 in0.0 mm 0.00 in0.0 mm
11:29 AM 73.2°F22.9°C 70.1°F21.2°C 90% 16.1 mph W25.9 kmh W 30.0 mph48.3 kmh 29.85 in1010.8 mb 0.00 in0.0 mm 0.00 in0.0 mm 0.00 in0.0 mm
11:30 AM 73.0°F22.8°C 69.6°F20.9°C 89% 8.3 mph W13.4 kmh W 30.0 mph48.3 kmh 29.85 in1010.8 mb 0.00 in0.0 mm 0.00 in0.0 mm 0.00 in0.0 mm
11:31 AM 72.7°F22.6°C 68.9°F20.5°C 88% 8.9 mph W14.3 kmh W 30.0 mph48.3 kmh 29.85 in1010.8 mb 0.00 in0.0 mm 0.00 in0.0 mm 0.00 in0.0 mm
11:32 AM 72.1°F22.3°C 68.4°F20.2°C 88% 12.5 mph W20.1 kmh W 30.0 mph48.3 kmh 29.85 in1010.8 mb 0.00 in0.0 mm 0.00 in0.0 mm 0.00 in0.0 mm
11:33 AM 71.6°F22.0°C 67.9°F19.9°C 88% 16.1 mph W25.9 kmh W 30.0 mph48.3 kmh 29.85 in1010.8 mb 0.00 in0.0 mm 0.00 in0.0 mm 0.00 in0.0 mm
11:34 AM 71.2°F21.8°C 67.5°F19.7°C 88% 14.5 mph WNW23.3 kmh WNW 30.0 mph48.3 kmh 29.85 in1010.8 mb 0.00 in0.0 mm 0.00 in0.0 mm 0.00 in0.0 mm
11:35 AM 70.9°F21.6°C 67.5°F19.7°C 89% 7.8 mph WNW12.6 kmh WNW 30.0 mph48.3 kmh 29.85 in1010.8 mb 0.00 in0.0 mm 0.00 in0.0 mm 0.00 in0.0 mm
11:36 AM 70.7°F21.5°C 67.3°F19.6°C 89% 10.9 mph W17.5 kmh W 30.0 mph48.3 kmh 29.85 in1010.8 mb 0.00 in0.0 mm 0.00 in0.0 mm 0.00 in0.0 mm
11:37 AM 70.5°F21.4°C 67.1°F19.5°C 89% 9.4 mph W15.1 kmh W 30.0 mph48.3 kmh 29.85 in1010.8 mb 0.00 in0.0 mm 0.00 in0.0 mm 0.00 in0.0 mm
11:38 AM 70.2°F21.2°C 66.8°F19.3°C 89% 8.9 mph W14.3 kmh W 26.4 mph42.5 kmh 29.85 in1010.8 mb 0.00 in0.0 mm 0.00 in0.0 mm 0.00 in0.0 mm
11:39 AM 70.0°F21.1°C 66.6°F19.2°C 89% 9.4 mph W15.1 kmh W 16.1 mph25.9 kmh 29.85 in1010.8 mb 0.00 in0.0 mm 0.00 in0.0 mm 0.00 in0.0 mm
11:40 AM 70.0°F21.1°C 66.6°F19.2°C 89% 9.9 mph W15.9 kmh W 16.1 mph25.9 kmh 29.85 in1010.8 mb 0.00 in0.0 mm 0.00 in0.0 mm 0.00 in0.0 mm
11:41 AM 69.8°F21.0°C 66.7°F19.3°C 90% 10.4 mph WNW16.7 kmh WNW 16.1 mph25.9 kmh 29.85 in1010.8 mb 0.00 in0.0 mm 0.00 in0.0 mm 0.00 in0.0 mm
11:42 AM 69.8°F21.0°C 66.7°F19.3°C 90% 12.0 mph W19.3 kmh W 16.1 mph25.9 kmh 29.85 in1010.8 mb 0.00 in0.0 mm 0.00 in0.0 mm 0.00 in0.0 mm
11:43 AM 69.6°F20.9°C 66.6°F19.2°C 90% 9.9 mph W15.9 kmh W 14.5 mph23.3 kmh 29.85 in1010.8 mb 0.00 in0.0 mm 0.00 in0.0 mm 0.00 in0.0 mm
11:44 AM 69.6°F20.9°C 66.6°F19.2°C 90% 9.9 mph W15.9 kmh W 11.9 mph19.2 kmh 29.85 in1010.8 mb 0.00 in0.0 mm 0.00 in0.0 mm 0.00 in0.0 mm
11:45 AM 69.4°F20.8°C 66.4°F19.1°C 90% 10.9 mph W17.5 kmh W 11.9 mph19.2 kmh 29.85 in1010.8 mb 0.00 in0.0 mm 0.00 in0.0 mm 0.00 in0.0 mm
11:46 AM 69.4°F20.8°C 66.4°F19.1°C 90% 10.9 mph WNW17.5 kmh WNW 11.9 mph19.2 kmh 29.85 in1010.8 mb 0.00 in0.0 mm 0.00 in0.0 mm 0.00 in0.0 mm
11:47 AM 69.4°F20.8°C 66.4°F19.1°C 90% 10.9 mph WNW17.5 kmh WNW 11.9 mph19.2 kmh 29.85 in1010.8 mb 0.00 in0.0 mm 0.00 in0.0 mm 0.00 in0.0 mm
11:48 AM 69.3°F20.7°C 66.2°F19.0°C 90% 10.9 mph W17.5 kmh W 12.5 mph20.1 kmh 29.85 in1010.8 mb 0.00 in0.0 mm 0.00 in0.0 mm 0.00 in0.0 mm
11:49 AM 69.3°F20.7°C 66.2°F19.0°C 90% 9.4 mph W15.1 kmh W 12.5 mph20.1 kmh 29.85 in1010.8 mb 0.00 in0.0 mm 0.00 in0.0 mm 0.00 in0.0 mm
11:50 AM 69.1°F20.6°C 66.0°F18.9°C 90% 14.0 mph WNW22.5 kmh WNW 14.0 mph22.5 kmh 29.85 in1010.8 mb 0.00 in0.0 mm 0.00 in0.0 mm 0.00 in0.0 mm
11:51 AM 69.1°F20.6°C 66.0°F18.9°C 90% 10.9 mph W17.5 kmh W 14.0 mph22.5 kmh 29.85 in1010.8 mb 0.00 in0.0 mm 0.00 in0.0 mm 0.00 in0.0 mm
11:52 AM 68.9°F20.5°C 65.8°F18.8°C 90% 8.9 mph W14.3 kmh W 14.0 mph22.5 kmh 29.85 in1010.8 mb 0.00 in0.0 mm 0.00 in0.0 mm 0.00 in0.0 mm
11:53 AM 68.7°F20.4°C 65.7°F18.7°C 90% 12.5 mph W20.1 kmh W 14.0 mph22.5 kmh 29.85 in1010.8 mb 0.00 in0.0 mm 0.00 in0.0 mm 0.00 in0.0 mm
11:54 AM 68.7°F20.4°C 65.7°F18.7°C 90% 9.9 mph W15.9 kmh W 14.0 mph22.5 kmh 29.85 in1010.8 mb 0.00 in0.0 mm 0.00 in0.0 mm 0.00 in0.0 mm
11:55 AM 68.7°F20.4°C 65.7°F18.7°C 90% 10.9 mph W17.5 kmh W 14.0 mph22.5 kmh 29.85 in1010.8 mb 0.00 in0.0 mm 0.00 in0.0 mm 0.00 in0.0 mm
11:56 AM 68.7°F20.4°C 65.7°F18.7°C 90% 11.4 mph W18.3 kmh W 14.0 mph22.5 kmh 29.85 in1010.8 mb 0.00 in0.0 mm 0.00 in0.0 mm 0.00 in0.0 mm
11:57 AM 68.7°F20.4°C 65.7°F18.7°C 90% 10.9 mph W17.5 kmh W 14.0 mph22.5 kmh 29.85 in1010.8 mb 0.00 in0.0 mm 0.00 in0.0 mm 0.00 in0.0 mm
11:58 AM 68.7°F20.4°C 65.7°F18.7°C 90% 8.9 mph W14.3 kmh W 14.0 mph22.5 kmh 29.85 in1010.8 mb 0.00 in0.0 mm 0.00 in0.0 mm 0.00 in0.0 mm
11:59 AM 68.5°F20.3°C 65.5°F18.6°C 90% 9.9 mph WNW15.9 kmh WNW 14.0 mph22.5 kmh 29.85 in1010.8 mb 0.00 in0.0 mm 0.00 in0.0 mm 0.00 in0.0 mm
12:00 PM 68.5°F20.3°C 65.5°F18.6°C 90% 10.4 mph W16.7 kmh W 14.0 mph22.5 kmh 29.85 in1010.8 mb 0.00 in0.0 mm 0.00 in0.0 mm 0.00 in0.0 mm
12:01 PM 68.4°F20.2°C 65.3°F18.5°C 90% 10.4 mph W16.7 kmh W 14.0 mph22.5 kmh 29.85 in1010.8 mb 0.00 in0.0 mm 0.00 in0.0 mm 0.00 in0.0 mm
12:02 PM 68.4°F20.2°C 65.3°F18.5°C 90% 9.9 mph WNW15.9 kmh WNW 13.5 mph21.7 kmh 29.85 in1010.8 mb 0.00 in0.0 mm 0.00 in0.0 mm 0.00 in0.0 mm
12:03 PM 68.4°F20.2°C 65.3°F18.5°C 90% 7.8 mph W12.6 kmh W 12.5 mph20.1 kmh 29.85 in1010.8 mb 0.00 in0.0 mm 0.00 in0.0 mm 0.00 in0.0 mm
12:04 PM 68.4°F20.2°C 65.3°F18.5°C 90% 8.3 mph W13.4 kmh W 11.4 mph18.3 kmh 29.85 in1010.8 mb 0.00 in0.0 mm 0.00 in0.0 mm 0.00 in0.0 mm
12:05 PM 68.4°F20.2°C 65.3°F18.5°C 90% 9.9 mph W15.9 kmh W 11.4 mph18.3 kmh 29.85 in1010.8 mb 0.00 in0.0 mm 0.00 in0.0 mm 0.00 in0.0 mm
12:06 PM 68.2°F20.1°C 65.1°F18.4°C 90% 8.3 mph W13.4 kmh W 11.9 mph19.2 kmh 29.85 in1010.8 mb 0.00 in0.0 mm 0.00 in0.0 mm 0.00 in0.0 mm
12:07 PM 68.2°F20.1°C 65.1°F18.4°C 90% 10.9 mph W17.5 kmh W 11.9 mph19.2 kmh 29.85 in1010.8 mb 0.00 in0.0 mm 0.00 in0.0 mm 0.00 in0.0 mm
12:08 PM 67.8°F19.9°C 64.5°F18.1°C 89% 7.8 mph W12.6 kmh W 13.5 mph21.7 kmh 29.85 in1010.8 mb 0.00 in0.0 mm 0.00 in0.0 mm 0.00 in0.0 mm
12:09 PM 67.6°F19.8°C 64.0°F17.8°C 88% 7.3 mph W11.7 kmh W 13.5 mph21.7 kmh 29.85 in1010.8 mb 0.00 in0.0 mm 0.00 in0.0 mm 0.00 in0.0 mm
12:10 PM 67.5°F19.7°C 63.8°F17.7°C 88% 10.9 mph W17.5 kmh W 13.5 mph21.7 kmh 29.85 in1010.8 mb 0.00 in0.0 mm 0.00 in0.0 mm 0.00 in0.0 mm
12:11 PM 67.3°F19.6°C 63.3°F17.4°C 87% 6.8 mph W10.9 kmh W 13.5 mph21.7 kmh 29.85 in1010.8 mb 0.00 in0.0 mm 0.00 in0.0 mm 0.00 in0.0 mm
12:12 PM 67.3°F19.6°C 63.3°F17.4°C 87% 10.9 mph W17.5 kmh W 13.5 mph21.7 kmh 29.85 in1010.8 mb 0.00 in0.0 mm 0.00 in0.0 mm 0.00 in0.0 mm
12:13 PM 67.1°F19.5°C 63.1°F17.3°C 87% 10.9 mph W17.5 kmh W 13.5 mph21.7 kmh 29.85 in1010.8 mb 0.00 in0.0 mm 0.00 in0.0 mm 0.00 in0.0 mm
12:14 PM 67.1°F19.5°C 63.1°F17.3°C 87% 9.9 mph W15.9 kmh W 13.5 mph21.7 kmh 29.85 in1010.8 mb 0.00 in0.0 mm 0.00 in0.0 mm 0.00 in0.0 mm
12:15 PM 66.9°F19.4°C 62.9°F17.2°C 87% 10.4 mph W16.7 kmh W 13.5 mph21.7 kmh 29.85 in1010.8 mb 0.01 in0.3 mm 0.60 in15.2 mm 0.01 in0.3 mm
12:16 PM 66.9°F19.4°C 62.6°F17.0°C 86% 10.9 mph W17.5 kmh W 13.5 mph21.7 kmh 29.85 in1010.8 mb 0.01 in0.3 mm 0.00 in0.0 mm 0.01 in0.3 mm
12:17 PM 66.7°F19.3°C 62.4°F16.9°C 86% 7.8 mph W12.6 kmh W 13.5 mph21.7 kmh 29.85 in1010.8 mb 0.01 in0.3 mm 0.00 in0.0 mm 0.01 in0.3 mm
12:18 PM 66.7°F19.3°C 62.4°F16.9°C 86% 9.9 mph WSW15.9 kmh WSW 12.5 mph20.1 kmh 29.85 in1010.8 mb 0.01 in0.3 mm 0.00 in0.0 mm 0.01 in0.3 mm
12:19 PM 66.6°F19.2°C 62.2°F16.8°C 86% 9.4 mph W15.1 kmh W 12.5 mph20.1 kmh 29.85 in1010.8 mb 0.01 in0.3 mm 0.00 in0.0 mm 0.01 in0.3 mm
12:20 PM 66.6°F19.2°C 62.2°F16.8°C 86% 7.3 mph W11.7 kmh W 12.5 mph20.1 kmh 29.85 in1010.8 mb 0.01 in0.3 mm 0.00 in0.0 mm 0.01 in0.3 mm
12:21 PM 66.6°F19.2°C 62.2°F16.8°C 86% 7.8 mph W12.6 kmh W 12.5 mph20.1 kmh 29.85 in1010.8 mb 0.01 in0.3 mm 0.00 in0.0 mm 0.01 in0.3 mm
12:22 PM 66.6°F19.2°C 62.2°F16.8°C 86% 8.3 mph W13.4 kmh W 12.5 mph20.1 kmh 29.85 in1010.8 mb 0.01 in0.3 mm 0.00 in0.0 mm 0.01 in0.3 mm
12:23 PM 66.6°F19.2°C 62.2°F16.8°C 86% 6.3 mph W10.1 kmh W 11.9 mph19.2 kmh 29.85 in1010.8 mb 0.01 in0.3 mm 0.00 in0.0 mm 0.01 in0.3 mm
12:24 PM 66.6°F19.2°C 62.2°F16.8°C 86% 5.3 mph W8.5 kmh W 11.9 mph19.2 kmh 29.85 in1010.8 mb 0.01 in0.3 mm 0.00 in0.0 mm 0.01 in0.3 mm
12:25 PM 66.6°F19.2°C 62.2°F16.8°C 86% 5.3 mph W8.5 kmh W 11.9 mph19.2 kmh 29.85 in1010.8 mb 0.01 in0.3 mm 0.00 in0.0 mm 0.01 in0.3 mm
12:26 PM 66.6°F19.2°C 62.2°F16.8°C 86% 5.3 mph W8.5 kmh W 10.9 mph17.5 kmh 29.84 in1010.5 mb 0.01 in0.3 mm 0.00 in0.0 mm 0.01 in0.3 mm
12:27 PM 66.6°F19.2°C 62.2°F16.8°C 86% 5.8 mph W9.3 kmh W 10.4 mph16.7 kmh 29.84 in1010.5 mb 0.01 in0.3 mm 0.00 in0.0 mm 0.01 in0.3 mm
12:28 PM 66.6°F19.2°C 62.2°F16.8°C 86% 7.3 mph W11.7 kmh W 10.4 mph16.7 kmh 29.84 in1010.5 mb 0.01 in0.3 mm 0.00 in0.0 mm 0.01 in0.3 mm
12:29 PM 66.6°F19.2°C 61.9°F16.6°C 85% 6.3 mph W10.1 kmh W 9.4 mph15.1 kmh 29.84 in1010.5 mb 0.01 in0.3 mm 0.00 in0.0 mm 0.01 in0.3 mm
12:30 PM 66.6°F19.2°C 61.9°F16.6°C 85% 6.8 mph W10.9 kmh W 9.4 mph15.1 kmh 29.84 in1010.5 mb 0.01 in0.3 mm 0.00 in0.0 mm 0.01 in0.3 mm
12:31 PM 66.6°F19.2°C 61.9°F16.6°C 85% 4.2 mph W6.8 kmh W 9.4 mph15.1 kmh 29.84 in1010.5 mb 0.01 in0.3 mm 0.00 in0.0 mm 0.01 in0.3 mm
12:32 PM 66.6°F19.2°C 61.9°F16.6°C 85% 5.3 mph W8.5 kmh W 9.4 mph15.1 kmh 29.84 in1010.5 mb 0.01 in0.3 mm 0.00 in0.0 mm 0.01 in0.3 mm
12:33 PM 66.6°F19.2°C 61.9°F16.6°C 85% 4.7 mph W7.6 kmh W 7.3 mph11.7 kmh 29.84 in1010.5 mb 0.01 in0.3 mm 0.00 in0.0 mm 0.01 in0.3 mm
12:34 PM 66.6°F19.2°C 61.9°F16.6°C 85% 6.8 mph W10.9 kmh W 7.3 mph11.7 kmh 29.84 in1010.5 mb 0.01 in0.3 mm 0.00 in0.0 mm 0.01 in0.3 mm
12:35 PM 66.6°F19.2°C 61.9°F16.6°C 85% 5.3 mph W8.5 kmh W 7.3 mph11.7 kmh 29.84 in1010.5 mb 0.01 in0.3 mm 0.00 in0.0 mm 0.01 in0.3 mm
12:36 PM 66.6°F19.2°C 61.9°F16.6°C 85% 5.8 mph W9.3 kmh W 7.3 mph11.7 kmh 29.84 in1010.5 mb 0.01 in0.3 mm 0.00 in0.0 mm 0.01 in0.3 mm
12:37 PM 66.6°F19.2°C 61.9°F16.6°C 85% 5.8 mph W9.3 kmh W 7.3 mph11.7 kmh 29.84 in1010.5 mb 0.01 in0.3 mm 0.00 in0.0 mm 0.01 in0.3 mm
12:38 PM 66.6°F19.2°C 61.9°F16.6°C 85% 5.8 mph W9.3 kmh W 7.3 mph11.7 kmh 29.84 in1010.5 mb 0.01 in0.3 mm 0.00 in0.0 mm 0.01 in0.3 mm
12:39 PM 66.6°F19.2°C 61.9°F16.6°C 85% 4.7 mph W7.6 kmh W 6.8 mph10.9 kmh 29.84 in1010.5 mb 0.01 in0.3 mm 0.00 in0.0 mm 0.01 in0.3 mm
12:40 PM 66.6°F19.2°C 61.9°F16.6°C 85% 5.3 mph W8.5 kmh W 6.8 mph10.9 kmh 29.84 in1010.5 mb 0.01 in0.3 mm 0.00 in0.0 mm 0.01 in0.3 mm
12:41 PM 66.6°F19.2°C 61.9°F16.6°C 85% 5.8 mph W9.3 kmh W 6.8 mph10.9 kmh 29.84 in1010.5 mb 0.01 in0.3 mm 0.00 in0.0 mm 0.01 in0.3 mm
12:42 PM 66.6°F19.2°C 61.9°F16.6°C 85% 4.7 mph W7.6 kmh W 6.8 mph10.9 kmh 29.84 in1010.5 mb 0.01 in0.3 mm 0.00 in0.0 mm 0.01 in0.3 mm
12:43 PM 66.6°F19.2°C 61.6°F16.4°C 84% 6.8 mph W10.9 kmh W 6.8 mph10.9 kmh 29.84 in1010.5 mb 0.01 in0.3 mm 0.00 in0.0 mm 0.01 in0.3 mm
12:44 PM 66.6°F19.2°C 61.6°F16.4°C 84% 5.8 mph W9.3 kmh W 6.8 mph10.9 kmh 29.84 in1010.5 mb 0.01 in0.3 mm 0.00 in0.0 mm 0.01 in0.3 mm
12:45 PM 66.6°F19.2°C 61.6°F16.4°C 84% 5.8 mph W9.3 kmh W 6.8 mph10.9 kmh 29.84 in1010.5 mb 0.01 in0.3 mm 0.00 in0.0 mm 0.01 in0.3 mm
12:46 PM 66.6°F19.2°C 61.6°F16.4°C 84% 4.7 mph W7.6 kmh W 6.8 mph10.9 kmh 29.84 in1010.5 mb 0.01 in0.3 mm 0.00 in0.0 mm 0.01 in0.3 mm
12:47 PM 66.6°F19.2°C 61.6°F16.4°C 84% 4.7 mph W7.6 kmh W 6.8 mph10.9 kmh 29.84 in1010.5 mb 0.01 in0.3 mm 0.00 in0.0 mm 0.01 in0.3 mm
12:48 PM 66.7°F19.3°C 62.1°F16.7°C 85% 3.7 mph W6.0 kmh W 6.8 mph10.9 kmh 29.84 in1010.5 mb 0.01 in0.3 mm 0.00 in0.0 mm 0.01 in0.3 mm
12:49 PM 66.7°F19.3°C 62.1°F16.7°C 85% 3.2 mph W5.1 kmh W 6.8 mph10.9 kmh 29.83 in1010.2 mb 0.01 in0.3 mm 0.00 in0.0 mm 0.01 in0.3 mm
12:50 PM 66.7°F19.3°C 62.1°F16.7°C 85% 3.2 mph W5.1 kmh W 6.8 mph10.9 kmh 29.83 in1010.2 mb 0.01 in0.3 mm 0.00 in0.0 mm 0.01 in0.3 mm
12:51 PM 66.7°F19.3°C 62.1°F16.7°C 85% 3.2 mph W5.1 kmh W 6.8 mph10.9 kmh 29.83 in1010.2 mb 0.01 in0.3 mm 0.00 in0.0 mm 0.01 in0.3 mm
12:52 PM 66.7°F19.3°C 62.1°F16.7°C 85% 3.7 mph W6.0 kmh W 6.8 mph10.9 kmh 29.83 in1010.2 mb 0.01 in0.3 mm 0.00 in0.0 mm 0.01 in0.3 mm
12:53 PM 66.7°F19.3°C 62.1°F16.7°C 85% 3.2 mph W5.1 kmh W 6.8 mph10.9 kmh 29.83 in1010.2 mb 0.01 in0.3 mm 0.00 in0.0 mm 0.01 in0.3 mm
12:54 PM 66.7°F19.3°C 62.1°F16.7°C 85% 3.7 mph W6.0 kmh W 5.8 mph9.3 kmh 29.83 in1010.2 mb 0.01 in0.3 mm 0.00 in0.0 mm 0.01 in0.3 mm
12:55 PM 66.7°F19.3°C 62.1°F16.7°C 85% 3.7 mph W6.0 kmh W 5.3 mph8.5 kmh 29.83 in1010.2 mb 0.01 in0.3 mm 0.00 in0.0 mm 0.01 in0.3 mm
12:56 PM 66.7°F19.3°C 62.1°F16.7°C 85% 2.7 mph W4.3 kmh W 5.3 mph8.5 kmh 29.83 in1010.2 mb 0.01 in0.3 mm 0.00 in0.0 mm 0.01 in0.3 mm
12:57 PM 66.7°F19.3°C 62.1°F16.7°C 85% 2.7 mph W4.3 kmh W 5.3 mph8.5 kmh 29.83 in1010.2 mb 0.01 in0.3 mm 0.00 in0.0 mm 0.01 in0.3 mm
12:58 PM 66.7°F19.3°C 62.1°F16.7°C 85% 2.7 mph WNW4.3 kmh WNW 4.2 mph6.8 kmh 29.83 in1010.2 mb 0.01 in0.3 mm 0.00 in0.0 mm 0.01 in0.3 mm
12:59 PM 66.9°F19.4°C 62.6°F17.0°C 86% 3.2 mph W5.1 kmh W 4.2 mph6.8 kmh 29.83 in1010.2 mb 0.01 in0.3 mm 0.00 in0.0 mm 0.01 in0.3 mm
01:00 PM 66.9°F19.4°C 62.6°F17.0°C 86% 2.7 mph WNW4.3 kmh WNW 4.2 mph6.8 kmh 29.83 in1010.2 mb 0.01 in0.3 mm 0.00 in0.0 mm 0.01 in0.3 mm
01:01 PM 66.9°F19.4°C 62.3°F16.8°C 85% 1.7 mph W2.7 kmh W 4.2 mph6.8 kmh 29.82 in1009.8 mb 0.01 in0.3 mm 0.00 in0.0 mm 0.01 in0.3 mm
01:02 PM 66.9°F19.4°C 62.6°F17.0°C 86% 2.2 mph WNW3.5 kmh WNW 4.2 mph6.8 kmh 29.82 in1009.8 mb 0.01 in0.3 mm 0.00 in0.0 mm 0.01 in0.3 mm
01:03 PM 66.9°F19.4°C 62.6°F17.0°C 86% 2.2 mph W3.5 kmh W 3.7 mph6.0 kmh 29.82 in1009.8 mb 0.01 in0.3 mm 0.00 in0.0 mm 0.01 in0.3 mm
01:04 PM 66.9°F19.4°C 62.6°F17.0°C 86% 1.7 mph W2.7 kmh W 3.7 mph6.0 kmh 29.82 in1009.8 mb 0.01 in0.3 mm 0.00 in0.0 mm 0.01 in0.3 mm
01:05 PM 66.9°F19.4°C 62.6°F17.0°C 86% 1.7 mph W2.7 kmh W 3.7 mph6.0 kmh 29.82 in1009.8 mb 0.01 in0.3 mm 0.00 in0.0 mm 0.01 in0.3 mm
01:06 PM 66.9°F19.4°C 62.6°F17.0°C 86% 1.1 mph W1.8 kmh W 3.2 mph5.1 kmh 29.82 in1009.8 mb 0.01 in0.3 mm 0.00 in0.0 mm 0.01 in0.3 mm
01:07 PM 66.9°F19.4°C 62.6°F17.0°C 86% Calm Calm 3.2 mph5.1 kmh 29.82 in1009.8 mb 0.01 in0.3 mm 0.00 in0.0 mm 0.01 in0.3 mm
01:08 PM 66.9°F19.4°C 62.3°F16.8°C 85% Calm Calm 3.2 mph5.1 kmh 29.82 in1009.8 mb 0.01 in0.3 mm 0.00 in0.0 mm 0.01 in0.3 mm
01:09 PM 66.9°F19.4°C 62.3°F16.8°C 85% 2.7 mph WSW4.3 kmh WSW 2.7 mph4.3 kmh 29.82 in1009.8 mb 0.01 in0.3 mm 0.00 in0.0 mm 0.01 in0.3 mm
01:10 PM 66.9°F19.4°C 62.3°F16.8°C 85% 2.2 mph W3.5 kmh W 2.7 mph4.3 kmh 29.82 in1009.8 mb 0.01 in0.3 mm 0.00 in0.0 mm 0.01 in0.3 mm
01:11 PM 66.9°F19.4°C 62.3°F16.8°C 85% 2.7 mph W4.3 kmh W 2.7 mph4.3 kmh 29.82 in1009.8 mb 0.01 in0.3 mm 0.00 in0.0 mm 0.01 in0.3 mm
01:12 PM 66.9°F19.4°C 62.3°F16.8°C 85% 3.2 mph W5.1 kmh W 3.7 mph6.0 kmh 29.82 in1009.8 mb 0.01 in0.3 mm 0.00 in0.0 mm 0.01 in0.3 mm
01:13 PM 67.1°F19.5°C 62.8°F17.1°C 86% 3.2 mph W5.1 kmh W 3.7 mph6.0 kmh 29.83 in1010.2 mb 0.01 in0.3 mm 0.00 in0.0 mm 0.01 in0.3 mm
01:14 PM 67.1°F19.5°C 62.8°F17.1°C 86% 2.7 mph W4.3 kmh W 3.7 mph6.0 kmh 29.83 in1010.2 mb 0.01 in0.3 mm 0.00 in0.0 mm 0.01 in0.3 mm
01:15 PM 67.1°F19.5°C 62.8°F17.1°C 86% 2.7 mph W4.3 kmh W 3.7 mph6.0 kmh 29.83 in1010.2 mb 0.00 in0.0 mm 0.00 in0.0 mm 0.01 in0.3 mm
01:16 PM 67.1°F19.5°C 62.8°F17.1°C 86% 2.7 mph WNW4.3 kmh WNW 3.7 mph6.0 kmh 29.83 in1010.2 mb 0.00 in0.0 mm 0.00 in0.0 mm 0.01 in0.3 mm
01:17 PM 67.1°F19.5°C 62.4°F16.9°C 85% 2.2 mph W3.5 kmh W 3.7 mph6.0 kmh 29.83 in1010.2 mb 0.00 in0.0 mm 0.00 in0.0 mm 0.01 in0.3 mm
01:18 PM 67.1°F19.5°C 62.4°F16.9°C 85% 2.2 mph W3.5 kmh W 3.7 mph6.0 kmh 29.83 in1010.2 mb 0.00 in0.0 mm 0.00 in0.0 mm 0.01 in0.3 mm
01:19 PM 67.1°F19.5°C 62.4°F16.9°C 85% 1.7 mph W2.7 kmh W 3.7 mph6.0 kmh 29.83 in1010.2 mb 0.00 in0.0 mm 0.00 in0.0 mm 0.01 in0.3 mm
01:20 PM 67.3°F19.6°C 62.6°F17.0°C 85% 1.7 mph W2.7 kmh W 3.7 mph6.0 kmh 29.83 in1010.2 mb 0.00 in0.0 mm 0.00 in0.0 mm 0.01 in0.3 mm
01:21 PM 67.5°F19.7°C 62.8°F17.1°C 85% 1.7 mph W2.7 kmh W 3.7 mph6.0 kmh 29.83 in1010.2 mb 0.00 in0.0 mm 0.00 in0.0 mm 0.01 in0.3 mm
01:22 PM 67.5°F19.7°C 62.8°F17.1°C 85% 1.7 mph W2.7 kmh W 3.2 mph5.1 kmh 29.83 in1010.2 mb 0.00 in0.0 mm 0.00 in0.0 mm 0.01 in0.3 mm
01:23 PM 67.5°F19.7°C 62.8°F17.1°C 85% 1.7 mph W2.7 kmh W 3.2 mph5.1 kmh 29.83 in1010.2 mb 0.00 in0.0 mm 0.00 in0.0 mm 0.01 in0.3 mm
01:24 PM 67.5°F19.7°C 62.8°F17.1°C 85% 2.2 mph W3.5 kmh W 2.7 mph4.3 kmh 29.83 in1010.2 mb 0.00 in0.0 mm 0.00 in0.0 mm 0.01 in0.3 mm
01:25 PM 67.5°F19.7°C 62.8°F17.1°C 85% 2.2 mph W3.5 kmh W 2.7 mph4.3 kmh 29.82 in1009.8 mb 0.00 in0.0 mm 0.00 in0.0 mm 0.01 in0.3 mm
01:26 PM 67.5°F19.7°C 62.8°F17.1°C 85% 2.7 mph W4.3 kmh W 2.7 mph4.3 kmh 29.82 in1009.8 mb 0.00 in0.0 mm 0.00 in0.0 mm 0.01 in0.3 mm
01:27 PM 67.5°F19.7°C 62.8°F17.1°C 85% 2.2 mph W3.5 kmh W 2.7 mph4.3 kmh 29.82 in1009.8 mb 0.00 in0.0 mm 0.00 in0.0 mm 0.01 in0.3 mm
01:28 PM 67.5°F19.7°C 62.8°F17.1°C 85% 2.7 mph W4.3 kmh W 2.7 mph4.3 kmh 29.82 in1009.8 mb 0.00 in0.0 mm 0.00 in0.0 mm 0.01 in0.3 mm
01:29 PM 67.5°F19.7°C 62.8°F17.1°C 85% 2.7 mph W4.3 kmh W 3.7 mph6.0 kmh 29.82 in1009.8 mb 0.00 in0.0 mm 0.00 in0.0 mm 0.01 in0.3 mm
01:30 PM 67.6°F19.8°C 63.3°F17.4°C 86% 2.2 mph W3.5 kmh W 3.7 mph6.0 kmh 29.82 in1009.8 mb 0.00 in0.0 mm 0.00 in0.0 mm 0.01 in0.3 mm
01:31 PM 67.6°F19.8°C 63.0°F17.2°C 85% 2.7 mph W4.3 kmh W 3.7 mph6.0 kmh 29.82 in1009.8 mb 0.00 in0.0 mm 0.00 in0.0 mm 0.01 in0.3 mm
01:32 PM 67.6°F19.8°C 63.0°F17.2°C 85% 3.7 mph W6.0 kmh W 3.7 mph6.0 kmh 29.82 in1009.8 mb 0.00 in0.0 mm 0.00 in0.0 mm 0.01 in0.3 mm
01:33 PM 67.6°F19.8°C 63.0°F17.2°C 85% 3.7 mph W6.0 kmh W 4.2 mph6.8 kmh 29.82 in1009.8 mb 0.00 in0.0 mm 0.00 in0.0 mm 0.01 in0.3 mm
01:34 PM 67.6°F19.8°C 63.0°F17.2°C 85% 5.3 mph W8.5 kmh W 5.3 mph8.5 kmh 29.82 in1009.8 mb 0.00 in0.0 mm 0.00 in0.0 mm 0.01 in0.3 mm
01:35 PM 67.6°F19.8°C 63.3°F17.4°C 86% 8.9 mph W14.3 kmh W 8.9 mph14.3 kmh 29.82 in1009.8 mb 0.00 in0.0 mm 0.00 in0.0 mm 0.01 in0.3 mm
01:36 PM 67.6°F19.8°C 63.3°F17.4°C 86% 11.4 mph W18.3 kmh W 11.4 mph18.3 kmh 29.82 in1009.8 mb 0.00 in0.0 mm 0.00 in0.0 mm 0.01 in0.3 mm
01:37 PM 67.6°F19.8°C 63.3°F17.4°C 86% 7.3 mph WSW11.7 kmh WSW 11.4 mph18.3 kmh 29.82 in1009.8 mb 0.00 in0.0 mm 0.00 in0.0 mm 0.01 in0.3 mm
01:38 PM 67.6°F19.8°C 63.3°F17.4°C 86% 5.8 mph W9.3 kmh W 11.4 mph18.3 kmh 29.85 in1010.8 mb 0.00 in0.0 mm 0.00 in0.0 mm 0.01 in0.3 mm
01:39 PM 67.6°F19.8°C 63.3°F17.4°C 86% 6.3 mph W10.1 kmh W 11.4 mph18.3 kmh 29.85 in1010.8 mb 0.00 in0.0 mm 0.00 in0.0 mm 0.01 in0.3 mm
01:40 PM 67.8°F19.9°C 63.5°F17.5°C 86% 4.7 mph SW7.6 kmh SW 11.4 mph18.3 kmh 29.85 in1010.8 mb 0.00 in0.0 mm 0.00 in0.0 mm 0.01 in0.3 mm
01:41 PM 67.8°F19.9°C 63.1°F17.3°C 85% 3.7 mph WSW6.0 kmh WSW 11.4 mph18.3 kmh 29.85 in1010.8 mb 0.00 in0.0 mm 0.00 in0.0 mm 0.01 in0.3 mm
01:42 PM 67.8°F19.9°C 63.1°F17.3°C 85% 4.2 mph W6.8 kmh W 11.4 mph18.3 kmh 29.85 in1010.8 mb 0.00 in0.0 mm 0.00 in0.0 mm 0.01 in0.3 mm
01:43 PM 67.8°F19.9°C 63.1°F17.3°C 85% 5.8 mph W9.3 kmh W 11.4 mph18.3 kmh 29.85 in1010.8 mb 0.00 in0.0 mm 0.00 in0.0 mm 0.01 in0.3 mm
01:44 PM 67.6°F19.8°C 63.0°F17.2°C 85% 4.7 mph W7.6 kmh W 11.4 mph18.3 kmh 29.85 in1010.8 mb 0.00 in0.0 mm 0.00 in0.0 mm 0.01 in0.3 mm
01:45 PM 67.6°F19.8°C 63.0°F17.2°C 85% 5.8 mph W9.3 kmh W 11.4 mph18.3 kmh 29.85 in1010.8 mb 0.00 in0.0 mm 0.00 in0.0 mm 0.01 in0.3 mm
01:46 PM 67.6°F19.8°C 63.3°F17.4°C 86% 4.2 mph W6.8 kmh W 11.4 mph18.3 kmh 29.85 in1010.8 mb 0.00 in0.0 mm 0.00 in0.0 mm 0.01 in0.3 mm
01:47 PM 67.6°F19.8°C 63.3°F17.4°C 86% 4.2 mph W6.8 kmh W 8.3 mph13.4 kmh 29.85 in1010.8 mb 0.00 in0.0 mm 0.00 in0.0 mm 0.01 in0.3 mm
01:48 PM 67.5°F19.7°C 63.1°F17.3°C 86% 4.7 mph W7.6 kmh W 6.3 mph10.1 kmh 29.85 in1010.8 mb 0.00 in0.0 mm 0.00 in0.0 mm 0.01 in0.3 mm
01:49 PM 67.5°F19.7°C 63.1°F17.3°C 86% 4.7 mph W7.6 kmh W 6.3 mph10.1 kmh 29.83 in1010.2 mb 0.00 in0.0 mm 0.00 in0.0 mm 0.01 in0.3 mm
01:50 PM 67.5°F19.7°C 63.1°F17.3°C 86% 3.7 mph W6.0 kmh W 6.3 mph10.1 kmh 29.83 in1010.2 mb 0.00 in0.0 mm 0.00 in0.0 mm 0.01 in0.3 mm
01:51 PM 67.5°F19.7°C 63.1°F17.3°C 86% 3.7 mph W6.0 kmh W 6.3 mph10.1 kmh 29.83 in1010.2 mb 0.00 in0.0 mm 0.00 in0.0 mm 0.01 in0.3 mm
01:52 PM 67.5°F19.7°C 63.1°F17.3°C 86% 3.7 mph W6.0 kmh W 6.3 mph10.1 kmh 29.83 in1010.2 mb 0.00 in0.0 mm 0.00 in0.0 mm 0.01 in0.3 mm
01:53 PM 67.5°F19.7°C 63.1°F17.3°C 86% 2.2 mph W3.5 kmh W 6.3 mph10.1 kmh 29.83 in1010.2 mb 0.00 in0.0 mm 0.00 in0.0 mm 0.01 in0.3 mm
01:54 PM 67.6°F19.8°C 63.3°F17.4°C 86% 1.7 mph WSW2.7 kmh WSW 5.8 mph9.3 kmh 29.83 in1010.2 mb 0.00 in0.0 mm 0.00 in0.0 mm 0.01 in0.3 mm
01:55 PM 67.8°F19.9°C 63.5°F17.5°C 86% 1.7 mph WSW2.7 kmh WSW 5.3 mph8.5 kmh 29.83 in1010.2 mb 0.00 in0.0 mm 0.00 in0.0 mm 0.01 in0.3 mm
01:56 PM 67.8°F19.9°C 63.5°F17.5°C 86% Calm Calm 5.3 mph8.5 kmh 29.83 in1010.2 mb 0.00 in0.0 mm 0.00 in0.0 mm 0.01 in0.3 mm
01:57 PM 68.0°F20.0°C 63.3°F17.4°C 85% 2.2 mph SSW3.5 kmh SSW 5.3 mph8.5 kmh 29.83 in1010.2 mb 0.00 in0.0 mm 0.00 in0.0 mm 0.01 in0.3 mm
01:58 PM 68.0°F20.0°C 63.3°F17.4°C 85% 2.2 mph SSW3.5 kmh SSW 5.3 mph8.5 kmh 29.83 in1010.2 mb 0.00 in0.0 mm 0.00 in0.0 mm 0.01 in0.3 mm
01:59 PM 68.0°F20.0°C 63.3°F17.4°C 85% 1.7 mph SSW2.7 kmh SSW 4.7 mph7.6 kmh 29.83 in1010.2 mb 0.00 in0.0 mm 0.00 in0.0 mm 0.01 in0.3 mm
02:00 PM 68.2°F20.1°C 63.5°F17.5°C 85% 2.2 mph SSW3.5 kmh SSW 4.2 mph6.8 kmh 29.83 in1010.2 mb 0.00 in0.0 mm 0.00 in0.0 mm 0.01 in0.3 mm
02:01 PM 68.2°F20.1°C 63.5°F17.5°C 85% 1.1 mph SW1.8 kmh SW 3.7 mph6.0 kmh 29.82 in1009.8 mb 0.00 in0.0 mm 0.00 in0.0 mm 0.01 in0.3 mm
02:02 PM 68.4°F20.2°C 63.7°F17.6°C 85% Calm Calm 2.7 mph4.3 kmh 29.82 in1009.8 mb 0.00 in0.0 mm 0.00 in0.0 mm 0.01 in0.3 mm
02:03 PM 68.4°F20.2°C 63.7°F17.6°C 85% Calm Calm 2.7 mph4.3 kmh 29.82 in1009.8 mb 0.00 in0.0 mm 0.00 in0.0 mm 0.01 in0.3 mm
02:04 PM 68.4°F20.2°C 63.7°F17.6°C 85% Calm Calm 2.7 mph4.3 kmh 29.82 in1009.8 mb 0.00 in0.0 mm 0.00 in0.0 mm 0.01 in0.3 mm
02:05 PM 68.4°F20.2°C 63.7°F17.6°C 85% Calm Calm 2.7 mph4.3 kmh 29.82 in1009.8 mb 0.00 in0.0 mm 0.00 in0.0 mm 0.01 in0.3 mm
02:06 PM 68.4°F20.2°C 63.7°F17.6°C 85% 2.2 mph W3.5 kmh W 2.7 mph4.3 kmh 29.82 in1009.8 mb 0.00 in0.0 mm 0.00 in0.0 mm 0.01 in0.3 mm
02:07 PM 68.4°F20.2°C 63.7°F17.6°C 85% 1.7 mph W2.7 kmh W 2.7 mph4.3 kmh 29.82 in1009.8 mb 0.00 in0.0 mm 0.00 in0.0 mm 0.01 in0.3 mm
02:08 PM 68.4°F20.2°C 63.7°F17.6°C 85% 2.2 mph W3.5 kmh W 2.2 mph3.5 kmh 29.82 in1009.8 mb 0.00 in0.0 mm 0.00 in0.0 mm 0.01 in0.3 mm
02:09 PM 68.4°F20.2°C 63.7°F17.6°C 85% 2.2 mph W3.5 kmh W 2.7 mph4.3 kmh 29.82 in1009.8 mb 0.00 in0.0 mm 0.00 in0.0 mm 0.01 in0.3 mm
02:10 PM 68.4°F20.2°C 63.7°F17.6°C 85% 2.2 mph W3.5 kmh W 2.7 mph4.3 kmh 29.82 in1009.8 mb 0.00 in0.0 mm 0.00 in0.0 mm 0.01 in0.3 mm
02:11 PM 68.4°F20.2°C 63.7°F17.6°C 85% 2.7 mph W4.3 kmh W 2.7 mph4.3 kmh 29.82 in1009.8 mb 0.00 in0.0 mm 0.00 in0.0 mm 0.01 in0.3 mm
02:12 PM 68.2°F20.1°C 63.5°F17.5°C 85% 1.7 mph W2.7 kmh W 2.7 mph4.3 kmh 29.82 in1009.8 mb 0.00 in0.0 mm 0.00 in0.0 mm 0.01 in0.3 mm
02:13 PM 68.2°F20.1°C 63.5°F17.5°C 85% 1.1 mph W1.8 kmh W 2.7 mph4.3 kmh 29.82 in1009.8 mb 0.00 in0.0 mm 0.00 in0.0 mm 0.01 in0.3 mm
02:14 PM 68.4°F20.2°C 63.7°F17.6°C 85% Calm Calm 2.7 mph4.3 kmh 29.82 in1009.8 mb 0.00 in0.0 mm 0.00 in0.0 mm 0.01 in0.3 mm
02:15 PM 68.5°F20.3°C 63.8°F17.7°C 85% Calm Calm 2.7 mph4.3 kmh 29.82 in1009.8 mb 0.00 in0.0 mm 0.00 in0.0 mm 0.01 in0.3 mm
02:17 PM 68.7°F20.4°C 63.7°F17.6°C 84% Calm Calm 2.7 mph4.3 kmh 29.82 in1009.8 mb 0.00 in0.0 mm 0.00 in0.0 mm 0.01 in0.3 mm
02:18 PM 68.9°F20.5°C 63.9°F17.7°C 84% Calm Calm 2.7 mph4.3 kmh 29.82 in1009.8 mb 0.00 in0.0 mm 0.00 in0.0 mm 0.01 in0.3 mm
02:19 PM 68.9°F20.5°C 63.9°F17.7°C 84% Calm Calm 2.7 mph4.3 kmh 29.82 in1009.8 mb 0.00 in0.0 mm 0.00 in0.0 mm 0.01 in0.3 mm
02:20 PM 68.5°F20.3°C 63.5°F17.5°C 84% Calm Calm 2.7 mph4.3 kmh 29.82 in1009.8 mb 0.00 in0.0 mm 0.00 in0.0 mm 0.01 in0.3 mm
02:21 PM 68.5°F20.3°C 63.5°F17.5°C 84% 1.1 mph W1.8 kmh W 2.2 mph3.5 kmh 29.82 in1009.8 mb 0.00 in0.0 mm 0.00 in0.0 mm 0.01 in0.3 mm
02:22 PM 68.5°F20.3°C 63.5°F17.5°C 84% 1.7 mph WNW2.7 kmh WNW 1.7 mph2.7 kmh 29.82 in1009.8 mb 0.00 in0.0 mm 0.00 in0.0 mm 0.01 in0.3 mm
02:23 PM 68.5°F20.3°C 63.2°F17.3°C 83% 2.2 mph WNW3.5 kmh WNW 2.2 mph3.5 kmh 29.82 in1009.8 mb 0.00 in0.0 mm 0.00 in0.0 mm 0.01 in0.3 mm
02:24 PM 68.7°F20.4°C 63.3°F17.4°C 83% 2.2 mph WNW3.5 kmh WNW 2.2 mph3.5 kmh 29.82 in1009.8 mb 0.00 in0.0 mm 0.00 in0.0 mm 0.01 in0.3 mm
02:25 PM 68.9°F20.5°C 63.5°F17.5°C 83% 2.2 mph WNW3.5 kmh WNW 2.2 mph3.5 kmh 29.82 in1009.8 mb 0.00 in0.0 mm 0.00 in0.0 mm 0.01 in0.3 mm
02:26 PM 68.9°F20.5°C 63.5°F17.5°C 83% 1.7 mph WNW2.7 kmh WNW 2.2 mph3.5 kmh 29.82 in1009.8 mb 0.00 in0.0 mm 0.00 in0.0 mm 0.01 in0.3 mm
02:27 PM 68.7°F20.4°C 63.3°F17.4°C 83% 1.7 mph WNW2.7 kmh WNW 2.2 mph3.5 kmh 29.82 in1009.8 mb 0.00 in0.0 mm 0.00 in0.0 mm 0.01 in0.3 mm
02:28 PM 68.7°F20.4°C 63.3°F17.4°C 83% 1.7 mph WNW2.7 kmh WNW 2.2 mph3.5 kmh 29.82 in1009.8 mb 0.00 in0.0 mm 0.00 in0.0 mm 0.01 in0.3 mm
02:29 PM 68.9°F20.5°C 63.9°F17.7°C 84% 1.7 mph NW2.7 kmh NW 2.2 mph3.5 kmh 29.82 in1009.8 mb 0.00 in0.0 mm 0.00 in0.0 mm 0.01 in0.3 mm
02:30 PM 69.1°F20.6°C 64.0°F17.8°C 84% 1.7 mph WNW2.7 kmh WNW 2.2 mph3.5 kmh 29.82 in1009.8 mb 0.00 in0.0 mm 0.00 in0.0 mm 0.01 in0.3 mm
02:31 PM 69.1°F20.6°C 64.0°F17.8°C 84% 1.1 mph WNW1.8 kmh WNW 2.2 mph3.5 kmh 29.82 in1009.8 mb 0.00 in0.0 mm 0.00 in0.0 mm 0.01 in0.3 mm
02:32 PM 69.1°F20.6°C 64.0°F17.8°C 84% 1.7 mph WNW2.7 kmh WNW 2.2 mph3.5 kmh 29.82 in1009.8 mb 0.00 in0.0 mm 0.00 in0.0 mm 0.01 in0.3 mm
02:33 PM 68.9°F20.5°C 63.9°F17.7°C 84% 2.2 mph WNW3.5 kmh WNW 2.2 mph3.5 kmh 29.82 in1009.8 mb 0.00 in0.0 mm 0.00 in0.0 mm 0.01 in0.3 mm
02:34 PM 68.9°F20.5°C 63.9°F17.7°C 84% 2.2 mph WNW3.5 kmh WNW 2.2 mph3.5 kmh 29.82 in1009.8 mb 0.00 in0.0 mm 0.00 in0.0 mm 0.01 in0.3 mm
02:35 PM 68.9°F20.5°C 64.2°F17.9°C 85% 2.7 mph NW4.3 kmh NW 2.7 mph4.3 kmh 29.82 in1009.8 mb 0.00 in0.0 mm 0.00 in0.0 mm 0.01 in0.3 mm
02:36 PM 68.9°F20.5°C 64.2°F17.9°C 85% 3.7 mph NNW6.0 kmh NNW 3.7 mph6.0 kmh 29.82 in1009.8 mb 0.00 in0.0 mm 0.00 in0.0 mm 0.01 in0.3 mm
02:37 PM 68.9°F20.5°C 64.5°F18.1°C 86% 4.7 mph WNW7.6 kmh WNW 4.7 mph7.6 kmh 29.82 in1009.8 mb 0.00 in0.0 mm 0.00 in0.0 mm 0.01 in0.3 mm
02:38 PM 68.7°F20.4°C 64.4°F18.0°C 86% 3.7 mph WNW6.0 kmh WNW 4.7 mph7.6 kmh 29.82 in1009.8 mb 0.00 in0.0 mm 0.00 in0.0 mm 0.01 in0.3 mm
02:39 PM 68.5°F20.3°C 64.2°F17.9°C 86% 4.7 mph WNW7.6 kmh WNW 4.7 mph7.6 kmh 29.82 in1009.8 mb 0.00 in0.0 mm 0.00 in0.0 mm 0.01 in0.3 mm
02:40 PM 68.4°F20.2°C 64.0°F17.8°C 86% 3.2 mph WNW5.1 kmh WNW 4.7 mph7.6 kmh 29.82 in1009.8 mb 0.00 in0.0 mm 0.00 in0.0 mm 0.01 in0.3 mm
02:41 PM 68.4°F20.2°C 64.0°F17.8°C 86% 3.2 mph WNW5.1 kmh WNW 4.7 mph7.6 kmh 29.82 in1009.8 mb 0.00 in0.0 mm 0.00 in0.0 mm 0.01 in0.3 mm
02:42 PM 68.4°F20.2°C 64.0°F17.8°C 86% 2.2 mph W3.5 kmh W 4.7 mph7.6 kmh 29.82 in1009.8 mb 0.00 in0.0 mm 0.00 in0.0 mm 0.01 in0.3 mm
02:43 PM 68.4°F20.2°C 64.0°F17.8°C 86% 1.7 mph W2.7 kmh W 4.7 mph7.6 kmh 29.82 in1009.8 mb 0.00 in0.0 mm 0.00 in0.0 mm 0.01 in0.3 mm
02:44 PM 68.4°F20.2°C 64.0°F17.8°C 86% 2.2 mph W3.5 kmh W 4.7 mph7.6 kmh 29.82 in1009.8 mb 0.00 in0.0 mm 0.00 in0.0 mm 0.01 in0.3 mm
02:45 PM 68.4°F20.2°C 64.0°F17.8°C 86% 2.2 mph W3.5 kmh W 4.7 mph7.6 kmh 29.82 in1009.8 mb 0.00 in0.0 mm 0.00 in0.0 mm 0.01 in0.3 mm
02:46 PM 68.4°F20.2°C 64.0°F17.8°C 86% 2.7 mph W4.3 kmh W 4.7 mph7.6 kmh 29.82 in1009.8 mb 0.00 in0.0 mm 0.00 in0.0 mm 0.01 in0.3 mm
02:47 PM 68.4°F20.2°C 64.0°F17.8°C 86% 2.2 mph W3.5 kmh W 4.7 mph7.6 kmh 29.82 in1009.8 mb 0.00 in0.0 mm 0.00 in0.0 mm 0.01 in0.3 mm
02:48 PM 68.4°F20.2°C 64.3°F17.9°C 87% 2.2 mph W3.5 kmh W 4.7 mph7.6 kmh 29.82 in1009.8 mb 0.00 in0.0 mm 0.00 in0.0 mm 0.01 in0.3 mm
02:49 PM 68.4°F20.2°C 64.3°F17.9°C 87% 2.2 mph W3.5 kmh W 4.2 mph6.8 kmh 29.82 in1009.8 mb 0.00 in0.0 mm 0.00 in0.0 mm 0.01 in0.3 mm
02:50 PM 68.4°F20.2°C 64.3°F17.9°C 87% 1.7 mph W2.7 kmh W 3.2 mph5.1 kmh 29.82 in1009.8 mb 0.00 in0.0 mm 0.00 in0.0 mm 0.01 in0.3 mm
02:51 PM 68.5°F20.3°C 64.5°F18.1°C 87% 1.7 mph W2.7 kmh W 3.2 mph5.1 kmh 29.82 in1009.8 mb 0.00 in0.0 mm 0.00 in0.0 mm 0.01 in0.3 mm
02:52 PM 68.5°F20.3°C 64.5°F18.1°C 87% 1.7 mph W2.7 kmh W 2.7 mph4.3 kmh 29.82 in1009.8 mb 0.00 in0.0 mm 0.00 in0.0 mm 0.01 in0.3 mm
02:53 PM 68.5°F20.3°C 64.5°F18.1°C 87% 1.7 mph W2.7 kmh W 2.7 mph4.3 kmh 29.82 in1009.8 mb 0.00 in0.0 mm 0.00 in0.0 mm 0.01 in0.3 mm
02:54 PM 68.5°F20.3°C 64.5°F18.1°C 87% 1.7 mph W2.7 kmh W 2.7 mph4.3 kmh 29.82 in1009.8 mb 0.00 in0.0 mm 0.00 in0.0 mm 0.01 in0.3 mm
02:55 PM 68.5°F20.3°C 64.5°F18.1°C 87% 1.7 mph W2.7 kmh W 2.7 mph4.3 kmh 29.82 in1009.8 mb 0.00 in0.0 mm 0.00 in0.0 mm 0.01 in0.3 mm
02:56 PM 68.5°F20.3°C 64.5°F18.1°C 87% 1.7 mph W2.7 kmh W 2.7 mph4.3 kmh 29.82 in1009.8 mb 0.00 in0.0 mm 0.00 in0.0 mm 0.01 in0.3 mm
02:57 PM 68.5°F20.3°C 64.5°F18.1°C 87% 1.7 mph W2.7 kmh W 2.7 mph4.3 kmh 29.82 in1009.8 mb 0.00 in0.0 mm 0.00 in0.0 mm 0.01 in0.3 mm
02:58 PM 68.5°F20.3°C 64.5°F18.1°C 87% 1.7 mph W2.7 kmh W 2.2 mph3.5 kmh 29.82 in1009.8 mb 0.00 in0.0 mm 0.00 in0.0 mm 0.01 in0.3 mm
02:59 PM 68.7°F20.4°C 64.7°F18.2°C 87% 1.7 mph W2.7 kmh W 2.2 mph3.5 kmh 29.82 in1009.8 mb 0.00 in0.0 mm 0.00 in0.0 mm 0.01 in0.3 mm
03:00 PM 68.7°F20.4°C 64.7°F18.2°C 87% 1.7 mph WNW2.7 kmh WNW 2.2 mph3.5 kmh 29.82 in1009.8 mb 0.00 in0.0 mm 0.00 in0.0 mm 0.01 in0.3 mm
03:01 PM 68.7°F20.4°C 64.7°F18.2°C 87% 1.7 mph WNW2.7 kmh WNW 2.2 mph3.5 kmh 29.82 in1009.8 mb 0.00 in0.0 mm 0.00 in0.0 mm 0.01 in0.3 mm
03:02 PM 68.7°F20.4°C 64.7°F18.2°C 87% 1.7 mph WNW2.7 kmh WNW 2.2 mph3.5 kmh 29.82 in1009.8 mb 0.00 in0.0 mm 0.00 in0.0 mm 0.01 in0.3 mm
03:03 PM 68.9°F20.5°C 64.9°F18.3°C 87% 1.1 mph WNW1.8 kmh WNW 2.2 mph3.5 kmh 29.82 in1009.8 mb 0.00 in0.0 mm 0.00 in0.0 mm 0.01 in0.3 mm
03:04 PM 68.9°F20.5°C 64.9°F18.3°C 87% 1.7 mph NW2.7 kmh NW 2.2 mph3.5 kmh 29.82 in1009.8 mb 0.00 in0.0 mm 0.00 in0.0 mm 0.01 in0.3 mm
03:05 PM 68.9°F20.5°C 64.9°F18.3°C 87% 1.7 mph WNW2.7 kmh WNW 2.2 mph3.5 kmh 29.82 in1009.8 mb 0.00 in0.0 mm 0.00 in0.0 mm 0.01 in0.3 mm
03:06 PM 68.9°F20.5°C 64.9°F18.3°C 87% 1.7 mph NW2.7 kmh NW 1.7 mph2.7 kmh 29.82 in1009.8 mb 0.00 in0.0 mm 0.00 in0.0 mm 0.01 in0.3 mm
03:07 PM 68.9°F20.5°C 64.9°F18.3°C 87% 1.7 mph NW2.7 kmh NW 1.7 mph2.7 kmh 29.82 in1009.8 mb 0.00 in0.0 mm 0.00 in0.0 mm 0.01 in0.3 mm
03:08 PM 68.9°F20.5°C 64.9°F18.3°C 87% 1.1 mph NW1.8 kmh NW 1.7 mph2.7 kmh 29.82 in1009.8 mb 0.00 in0.0 mm 0.00 in0.0 mm 0.01 in0.3 mm
03:09 PM 68.9°F20.5°C 64.9°F18.3°C 87% 1.1 mph NW1.8 kmh NW 1.7 mph2.7 kmh 29.82 in1009.8 mb 0.00 in0.0 mm 0.00 in0.0 mm 0.01 in0.3 mm
03:10 PM 68.9°F20.5°C 64.9°F18.3°C 87% Calm Calm 1.7 mph2.7 kmh 29.82 in1009.8 mb 0.00 in0.0 mm 0.00 in0.0 mm 0.01 in0.3 mm
03:11 PM 69.1°F20.6°C 65.0°F18.3°C 87% Calm Calm 1.7 mph2.7 kmh 29.82 in1009.8 mb 0.00 in0.0 mm 0.00 in0.0 mm 0.01 in0.3 mm
03:12 PM 69.1°F20.6°C 65.0°F18.3°C 87% Calm Calm 1.7 mph2.7 kmh 29.82 in1009.8 mb 0.00 in0.0 mm 0.00 in0.0 mm 0.01 in0.3 mm
03:13 PM 69.3°F20.7°C 65.2°F18.4°C 87% Calm Calm 1.7 mph2.7 kmh 29.82 in1009.8 mb 0.00 in0.0 mm 0.00 in0.0 mm 0.01 in0.3 mm
03:14 PM 69.3°F20.7°C 64.9°F18.3°C 86% Calm Calm 1.7 mph2.7 kmh 29.82 in1009.8 mb 0.00 in0.0 mm 0.00 in0.0 mm 0.01 in0.3 mm
03:15 PM 69.3°F20.7°C 64.9°F18.3°C 86% Calm Calm 1.7 mph2.7 kmh 29.82 in1009.8 mb 0.00 in0.0 mm 0.00 in0.0 mm 0.01 in0.3 mm
03:16 PM 69.3°F20.7°C 64.9°F18.3°C 86% Calm Calm 1.7 mph2.7 kmh 29.82 in1009.8 mb 0.00 in0.0 mm 0.00 in0.0 mm 0.01 in0.3 mm
03:17 PM 69.4°F20.8°C 65.1°F18.4°C 86% Calm Calm 1.7 mph2.7 kmh 29.82 in1009.8 mb 0.00 in0.0 mm 0.00 in0.0 mm 0.01 in0.3 mm
03:18 PM 69.4°F20.8°C 65.1°F18.4°C 86% Calm Calm 1.1 mph1.8 kmh 29.82 in1009.8 mb 0.00 in0.0 mm 0.00 in0.0 mm 0.01 in0.3 mm
03:19 PM 69.4°F20.8°C 65.1°F18.4°C 86% Calm Calm -- 29.82 in1009.8 mb 0.00 in0.0 mm 0.00 in0.0 mm 0.01 in0.3 mm
03:20 PM 69.4°F20.8°C 65.1°F18.4°C 86% Calm Calm -- 29.82 in1009.8 mb 0.00 in0.0 mm 0.00 in0.0 mm 0.01 in0.3 mm
03:21 PM 69.4°F20.8°C 65.1°F18.4°C 86% Calm Calm -- 29.82 in1009.8 mb 0.00 in0.0 mm 0.00 in0.0 mm 0.01 in0.3 mm
03:22 PM 69.4°F20.8°C 65.1°F18.4°C 86% Calm Calm -- 29.82 in1009.8 mb 0.00 in0.0 mm 0.00 in0.0 mm 0.01 in0.3 mm
03:23 PM 69.4°F20.8°C 65.1°F18.4°C 86% Calm Calm -- 29.82 in1009.8 mb 0.00 in0.0 mm 0.00 in0.0 mm 0.01 in0.3 mm
03:24 PM 69.4°F20.8°C 65.1°F18.4°C 86% Calm Calm -- 29.82 in1009.8 mb 0.00 in0.0 mm 0.00 in0.0 mm 0.01 in0.3 mm
03:25 PM 69.6°F20.9°C 65.2°F18.4°C 86% Calm Calm -- 29.82 in1009.8 mb 0.00 in0.0 mm 0.00 in0.0 mm 0.01 in0.3 mm
03:26 PM 69.6°F20.9°C 65.2°F18.4°C 86% Calm Calm -- 29.81 in1009.5 mb 0.00 in0.0 mm 0.00 in0.0 mm 0.01 in0.3 mm
03:27 PM 69.6°F20.9°C 65.2°F18.4°C 86% Calm Calm -- 29.81 in1009.5 mb 0.00 in0.0 mm 0.00 in0.0 mm 0.01 in0.3 mm
03:28 PM 69.6°F20.9°C 65.2°F18.4°C 86% Calm Calm -- 29.81 in1009.5 mb 0.00 in0.0 mm 0.00 in0.0 mm 0.01 in0.3 mm
03:29 PM 69.6°F20.9°C 65.2°F18.4°C 86% Calm Calm -- 29.81 in1009.5 mb 0.00 in0.0 mm 0.00 in0.0 mm 0.01 in0.3 mm
03:30 PM 69.6°F20.9°C 65.2°F18.4°C 86% Calm Calm -- 29.81 in1009.5 mb 0.00 in0.0 mm 0.00 in0.0 mm 0.01 in0.3 mm
03:31 PM 69.6°F20.9°C 65.2°F18.4°C 86% Calm Calm -- 29.81 in1009.5 mb 0.00 in0.0 mm 0.00 in0.0 mm 0.01 in0.3 mm
03:32 PM 69.6°F20.9°C 65.2°F18.4°C 86% Calm Calm -- 29.81 in1009.5 mb 0.00 in0.0 mm 0.00 in0.0 mm 0.01 in0.3 mm
03:33 PM 69.6°F20.9°C 65.2°F18.4°C 86% Calm Calm -- 29.81 in1009.5 mb 0.00 in0.0 mm 0.00 in0.0 mm 0.01 in0.3 mm
03:34 PM 69.6°F20.9°C 65.2°F18.4°C 86% Calm Calm -- 29.81 in1009.5 mb 0.00 in0.0 mm 0.00 in0.0 mm 0.01 in0.3 mm
03:35 PM 69.6°F20.9°C 65.2°F18.4°C 86% Calm Calm -- 29.81 in1009.5 mb 0.00 in0.0 mm 0.00 in0.0 mm 0.01 in0.3 mm
03:36 PM 69.6°F20.9°C 65.2°F18.4°C 86% Calm Calm -- 29.81 in1009.5 mb 0.00 in0.0 mm 0.00 in0.0 mm 0.01 in0.3 mm
03:37 PM 69.8°F21.0°C 65.4°F18.6°C 86% Calm Calm -- 29.81 in1009.5 mb 0.00 in0.0 mm 0.00 in0.0 mm 0.01 in0.3 mm
03:38 PM 69.8°F21.0°C 65.4°F18.6°C 86% Calm Calm -- 29.82 in1009.8 mb 0.00 in0.0 mm 0.00 in0.0 mm 0.01 in0.3 mm
03:39 PM 69.8°F21.0°C 65.4°F18.6°C 86% Calm Calm -- 29.82 in1009.8 mb 0.00 in0.0 mm 0.00 in0.0 mm 0.01 in0.3 mm
03:40 PM 69.8°F21.0°C 65.4°F18.6°C 86% Calm Calm -- 29.82 in1009.8 mb 0.00 in0.0 mm 0.00 in0.0 mm 0.01 in0.3 mm
03:41 PM 69.8°F21.0°C 65.4°F18.6°C 86% Calm Calm -- 29.82 in1009.8 mb 0.00 in0.0 mm 0.00 in0.0 mm 0.01 in0.3 mm
03:42 PM 69.8°F21.0°C 65.4°F18.6°C 86% Calm Calm -- 29.82 in1009.8 mb 0.00 in0.0 mm 0.00 in0.0 mm 0.01 in0.3 mm
03:43 PM 69.8°F21.0°C 65.4°F18.6°C 86% Calm Calm -- 29.82 in1009.8 mb 0.00 in0.0 mm 0.00 in0.0 mm 0.01 in0.3 mm
03:44 PM 69.8°F21.0°C 65.4°F18.6°C 86% Calm Calm -- 29.82 in1009.8 mb 0.00 in0.0 mm 0.00 in0.0 mm 0.01 in0.3 mm
03:45 PM 69.8°F21.0°C 65.4°F18.6°C 86% Calm Calm -- 29.82 in1009.8 mb 0.00 in0.0 mm 0.00 in0.0 mm 0.01 in0.3 mm
03:46 PM 69.8°F21.0°C 65.4°F18.6°C 86% Calm Calm -- 29.82 in1009.8 mb 0.00 in0.0 mm 0.00 in0.0 mm 0.01 in0.3 mm
03:47 PM 69.8°F21.0°C 65.4°F18.6°C 86% Calm Calm -- 29.82 in1009.8 mb 0.00 in0.0 mm 0.00 in0.0 mm 0.01 in0.3 mm
03:48 PM 70.0°F21.1°C 65.6°F18.7°C 86% Calm Calm -- 29.82 in1009.8 mb 0.00 in0.0 mm 0.00 in0.0 mm 0.01 in0.3 mm
03:49 PM 70.0°F21.1°C 65.6°F18.7°C 86% Calm Calm -- 29.82 in1009.8 mb 0.00 in0.0 mm 0.00 in0.0 mm 0.01 in0.3 mm
03:50 PM 70.0°F21.1°C 65.6°F18.7°C 86% Calm Calm -- 29.82 in1009.8 mb 0.00 in0.0 mm 0.00 in0.0 mm 0.01 in0.3 mm
03:51 PM 70.0°F21.1°C 65.6°F18.7°C 86% Calm Calm -- 29.82 in1009.8 mb 0.00 in0.0 mm 0.00 in0.0 mm 0.01 in0.3 mm
03:52 PM 70.0°F21.1°C 65.6°F18.7°C 86% Calm Calm -- 29.82 in1009.8 mb 0.00 in0.0 mm 0.00 in0.0 mm 0.01 in0.3 mm
03:53 PM 69.8°F21.0°C 65.4°F18.6°C 86% Calm Calm -- 29.82 in1009.8 mb 0.00 in0.0 mm 0.00 in0.0 mm 0.01 in0.3 mm
03:54 PM 69.8°F21.0°C 65.4°F18.6°C 86% Calm Calm -- 29.82 in1009.8 mb 0.00 in0.0 mm 0.00 in0.0 mm 0.01 in0.3 mm
03:55 PM 69.8°F21.0°C 65.4°F18.6°C 86% Calm Calm -- 29.82 in1009.8 mb 0.00 in0.0 mm 0.00 in0.0 mm 0.01 in0.3 mm
03:56 PM 69.8°F21.0°C 65.4°F18.6°C 86% Calm Calm -- 29.82 in1009.8 mb 0.00 in0.0 mm 0.00 in0.0 mm 0.01 in0.3 mm
03:57 PM 69.8°F21.0°C 65.4°F18.6°C 86% Calm Calm -- 29.82 in1009.8 mb 0.00 in0.0 mm 0.00 in0.0 mm 0.01 in0.3 mm
03:58 PM 69.8°F21.0°C 65.4°F18.6°C 86% Calm Calm -- 29.82 in1009.8 mb 0.00 in0.0 mm 0.00 in0.0 mm 0.01 in0.3 mm
03:59 PM 69.8°F21.0°C 65.4°F18.6°C 86% Calm Calm -- 29.82 in1009.8 mb 0.00 in0.0 mm 0.00 in0.0 mm 0.01 in0.3 mm
04:00 PM 69.8°F21.0°C 65.4°F18.6°C 86% Calm Calm -- 29.82 in1009.8 mb 0.00 in0.0 mm 0.00 in0.0 mm 0.01 in0.3 mm
04:01 PM 69.8°F21.0°C 65.4°F18.6°C 86% Calm Calm -- 29.82 in1009.8 mb 0.00 in0.0 mm 0.00 in0.0 mm 0.01 in0.3 mm
04:02 PM 69.8°F21.0°C 65.4°F18.6°C 86% Calm Calm -- 29.82 in1009.8 mb 0.00 in0.0 mm 0.00 in0.0 mm 0.01 in0.3 mm
04:03 PM 69.8°F21.0°C 65.4°F18.6°C 86% Calm Calm -- 29.82 in1009.8 mb 0.00 in0.0 mm 0.00 in0.0 mm 0.01 in0.3 mm
04:04 PM 69.8°F21.0°C 65.4°F18.6°C 86% Calm Calm -- 29.82 in1009.8 mb 0.00 in0.0 mm 0.00 in0.0 mm 0.01 in0.3 mm
04:05 PM 69.8°F21.0°C 65.4°F18.6°C 86% Calm Calm -- 29.82 in1009.8 mb 0.00 in0.0 mm 0.00 in0.0 mm 0.01 in0.3 mm
04:06 PM 69.8°F21.0°C 65.4°F18.6°C 86% Calm Calm -- 29.82 in1009.8 mb 0.00 in0.0 mm 0.00 in0.0 mm 0.01 in0.3 mm
04:07 PM 69.8°F21.0°C 65.4°F18.6°C 86% Calm Calm -- 29.82 in1009.8 mb 0.00 in0.0 mm 0.00 in0.0 mm 0.01 in0.3 mm
04:08 PM 69.8°F21.0°C 65.4°F18.6°C 86% Calm Calm -- 29.82 in1009.8 mb 0.00 in0.0 mm 0.00 in0.0 mm 0.01 in0.3 mm
04:09 PM 69.8°F21.0°C 65.4°F18.6°C 86% Calm Calm -- 29.82 in1009.8 mb 0.00 in0.0 mm 0.00 in0.0 mm 0.01 in0.3 mm
04:10 PM 69.8°F21.0°C 65.4°F18.6°C 86% Calm Calm -- 29.82 in1009.8 mb 0.00 in0.0 mm 0.00 in0.0 mm 0.01 in0.3 mm
04:11 PM 69.8°F21.0°C 65.4°F18.6°C 86% Calm Calm -- 29.82 in1009.8 mb 0.00 in0.0 mm 0.00 in0.0 mm 0.01 in0.3 mm
04:12 PM 69.8°F21.0°C 65.4°F18.6°C 86% Calm Calm -- 29.82 in1009.8 mb 0.00 in0.0 mm 0.00 in0.0 mm 0.01 in0.3 mm
04:13 PM 69.8°F21.0°C 65.4°F18.6°C 86% Calm Calm -- 29.82 in1009.8 mb 0.00 in0.0 mm 0.00 in0.0 mm 0.01 in0.3 mm
04:14 PM 69.8°F21.0°C 65.4°F18.6°C 86% Calm Calm -- 29.82 in1009.8 mb 0.00 in0.0 mm 0.00 in0.0 mm 0.01 in0.3 mm
04:15 PM 69.8°F21.0°C 65.4°F18.6°C 86% Calm Calm -- 29.82 in1009.8 mb 0.00 in0.0 mm 0.00 in0.0 mm 0.01 in0.3 mm
04:16 PM 69.8°F21.0°C 65.4°F18.6°C 86% Calm Calm -- 29.82 in1009.8 mb 0.00 in0.0 mm 0.00 in0.0 mm 0.01 in0.3 mm
04:17 PM 69.6°F20.9°C 65.2°F18.4°C 86% Calm Calm -- 29.82 in1009.8 mb 0.00 in0.0 mm 0.00 in0.0 mm 0.01 in0.3 mm
04:18 PM 69.6°F20.9°C 65.2°F18.4°C 86% Calm Calm -- 29.82 in1009.8 mb 0.00 in0.0 mm 0.00 in0.0 mm 0.01 in0.3 mm
04:19 PM 69.6°F20.9°C 65.2°F18.4°C 86% Calm Calm -- 29.82 in1009.8 mb 0.00 in0.0 mm 0.00 in0.0 mm 0.01 in0.3 mm
04:20 PM 69.6°F20.9°C 65.2°F18.4°C 86% Calm Calm -- 29.82 in1009.8 mb 0.00 in0.0 mm 0.00 in0.0 mm 0.01 in0.3 mm
04:21 PM 69.6°F20.9°C 65.2°F18.4°C 86% Calm Calm -- 29.82 in1009.8 mb 0.00 in0.0 mm 0.00 in0.0 mm 0.01 in0.3 mm
04:22 PM 69.6°F20.9°C 65.6°F18.7°C 87% Calm Calm -- 29.82 in1009.8 mb 0.00 in0.0 mm 0.00 in0.0 mm 0.01 in0.3 mm
04:23 PM 69.6°F20.9°C 65.6°F18.7°C 87% Calm Calm -- 29.82 in1009.8 mb 0.00 in0.0 mm 0.00 in0.0 mm 0.01 in0.3 mm
04:24 PM 69.6°F20.9°C 65.6°F18.7°C 87% Calm Calm -- 29.82 in1009.8 mb 0.00 in0.0 mm 0.00 in0.0 mm 0.01 in0.3 mm
04:25 PM 69.6°F20.9°C 65.6°F18.7°C 87% Calm Calm -- 29.82 in1009.8 mb 0.00 in0.0 mm 0.00 in0.0 mm 0.01 in0.3 mm
04:26 PM 69.6°F20.9°C 65.6°F18.7°C 87% Calm Calm -- 29.83 in1010.2 mb 0.00 in0.0 mm 0.00 in0.0 mm 0.01 in0.3 mm
04:27 PM 69.4°F20.8°C 65.4°F18.6°C 87% Calm Calm -- 29.83 in1010.2 mb 0.00 in0.0 mm 0.00 in0.0 mm 0.01 in0.3 mm
04:28 PM 69.4°F20.8°C 65.4°F18.6°C 87% Calm Calm -- 29.83 in1010.2 mb 0.00 in0.0 mm 0.00 in0.0 mm 0.01 in0.3 mm
04:29 PM 69.4°F20.8°C 65.4°F18.6°C 87% Calm Calm -- 29.83 in1010.2 mb 0.00 in0.0 mm 0.00 in0.0 mm 0.01 in0.3 mm
04:30 PM 69.4°F20.8°C 65.4°F18.6°C 87% Calm Calm -- 29.83 in1010.2 mb 0.00 in0.0 mm 0.00 in0.0 mm 0.01 in0.3 mm
04:31 PM 69.4°F20.8°C 65.4°F18.6°C 87% Calm Calm -- 29.83 in1010.2 mb 0.00 in0.0 mm 0.00 in0.0 mm 0.01 in0.3 mm
04:32 PM 69.4°F20.8°C 65.4°F18.6°C 87% Calm Calm -- 29.83 in1010.2 mb 0.00 in0.0 mm 0.00 in0.0 mm 0.01 in0.3 mm
04:33 PM 69.4°F20.8°C 65.4°F18.6°C 87% Calm Calm -- 29.83 in1010.2 mb 0.00 in0.0 mm 0.00 in0.0 mm 0.01 in0.3 mm
04:34 PM 69.4°F20.8°C 65.4°F18.6°C 87% Calm Calm -- 29.83 in1010.2 mb 0.00 in0.0 mm 0.00 in0.0 mm 0.01 in0.3 mm
04:35 PM 69.4°F20.8°C 65.4°F18.6°C 87% Calm Calm -- 29.83 in1010.2 mb 0.00 in0.0 mm 0.00 in0.0 mm 0.01 in0.3 mm
04:36 PM 69.4°F20.8°C 65.4°F18.6°C 87% Calm Calm -- 29.83 in1010.2 mb 0.00 in0.0 mm 0.00 in0.0 mm 0.01 in0.3 mm
04:37 PM 69.4°F20.8°C 65.4°F18.6°C 87% Calm Calm -- 29.83 in1010.2 mb 0.00 in0.0 mm 0.00 in0.0 mm 0.01 in0.3 mm
04:38 PM 69.4°F20.8°C 65.4°F18.6°C 87% Calm Calm -- 29.84 in1010.5 mb 0.00 in0.0 mm 0.00 in0.0 mm 0.01 in0.3 mm
04:39 PM 69.4°F20.8°C 65.4°F18.6°C 87% Calm Calm -- 29.84 in1010.5 mb 0.00 in0.0 mm 0.00 in0.0 mm 0.01 in0.3 mm
04:40 PM 69.4°F20.8°C 65.4°F18.6°C 87% Calm Calm -- 29.84 in1010.5 mb 0.00 in0.0 mm 0.00 in0.0 mm 0.01 in0.3 mm
04:41 PM 69.4°F20.8°C 65.4°F18.6°C 87% Calm Calm -- 29.84 in1010.5 mb 0.00 in0.0 mm 0.00 in0.0 mm 0.01 in0.3 mm
04:42 PM 69.3°F20.7°C 65.2°F18.4°C 87% Calm Calm -- 29.84 in1010.5 mb 0.00 in0.0 mm 0.00 in0.0 mm 0.01 in0.3 mm
04:43 PM 69.3°F20.7°C 65.2°F18.4°C 87% Calm Calm -- 29.84 in1010.5 mb 0.00 in0.0 mm 0.00 in0.0 mm 0.01 in0.3 mm
04:44 PM 69.3°F20.7°C 65.2°F18.4°C 87% Calm Calm -- 29.84 in1010.5 mb 0.00 in0.0 mm 0.00 in0.0 mm 0.01 in0.3 mm
04:45 PM 69.3°F20.7°C 65.2°F18.4°C 87% Calm Calm -- 29.84 in1010.5 mb 0.00 in0.0 mm 0.00 in0.0 mm 0.01 in0.3 mm
04:46 PM 69.1°F20.6°C 65.0°F18.3°C 87% Calm Calm -- 29.84 in1010.5 mb 0.00 in0.0 mm 0.00 in0.0 mm 0.01 in0.3 mm
04:47 PM 69.1°F20.6°C 65.0°F18.3°C 87% Calm Calm -- 29.84 in1010.5 mb 0.00 in0.0 mm 0.00 in0.0 mm 0.01 in0.3 mm
04:48 PM 69.1°F20.6°C 65.0°F18.3°C 87% Calm Calm -- 29.84 in1010.5 mb 0.00 in0.0 mm 0.00 in0.0 mm 0.01 in0.3 mm
04:49 PM 69.1°F20.6°C 65.0°F18.3°C 87% Calm Calm -- 29.84 in1010.5 mb 0.00 in0.0 mm 0.00 in0.0 mm 0.01 in0.3 mm
04:50 PM 69.1°F20.6°C 65.0°F18.3°C 87% Calm Calm -- 29.84 in1010.5 mb 0.00 in0.0 mm 0.00 in0.0 mm 0.01 in0.3 mm
04:51 PM 69.1°F20.6°C 65.0°F18.3°C 87% 1.7 mph ESE2.7 kmh ESE 1.7 mph2.7 kmh 29.84 in1010.5 mb 0.00 in0.0 mm 0.00 in0.0 mm 0.01 in0.3 mm
04:52 PM 69.1°F20.6°C 65.0°F18.3°C 87% 1.7 mph ESE2.7 kmh ESE 1.7 mph2.7 kmh 29.84 in1010.5 mb 0.00 in0.0 mm 0.00 in0.0 mm 0.01 in0.3 mm
04:53 PM 68.9°F20.5°C 64.9°F18.3°C 87% 1.7 mph ESE2.7 kmh ESE 1.7 mph2.7 kmh 29.84 in1010.5 mb 0.00 in0.0 mm 0.00 in0.0 mm 0.01 in0.3 mm
04:54 PM 68.9°F20.5°C 64.9°F18.3°C 87% 1.7 mph ESE2.7 kmh ESE 1.7 mph2.7 kmh 29.84 in1010.5 mb 0.00 in0.0 mm 0.00 in0.0 mm 0.01 in0.3 mm
04:55 PM 68.9°F20.5°C 64.9°F18.3°C 87% 1.1 mph ESE1.8 kmh ESE 1.7 mph2.7 kmh 29.84 in1010.5 mb 0.00 in0.0 mm 0.00 in0.0 mm 0.01 in0.3 mm
04:56 PM 68.9°F20.5°C 64.9°F18.3°C 87% 1.1 mph E1.8 kmh E 1.7 mph2.7 kmh 29.84 in1010.5 mb 0.00 in0.0 mm 0.00 in0.0 mm 0.01 in0.3 mm
04:57 PM 68.9°F20.5°C 64.9°F18.3°C 87% Calm Calm 1.7 mph2.7 kmh 29.84 in1010.5 mb 0.00 in0.0 mm 0.00 in0.0 mm 0.01 in0.3 mm
04:58 PM 68.9°F20.5°C 65.2°F18.4°C 88% Calm Calm 1.7 mph2.7 kmh 29.84 in1010.5 mb 0.00 in0.0 mm 0.00 in0.0 mm 0.01 in0.3 mm
04:59 PM 68.9°F20.5°C 65.2°F18.4°C 88% Calm Calm 1.7 mph2.7 kmh 29.84 in1010.5 mb 0.00 in0.0 mm 0.00 in0.0 mm 0.01 in0.3 mm
05:00 PM 68.9°F20.5°C 65.2°F18.4°C 88% Calm Calm 1.7 mph2.7 kmh 29.84 in1010.5 mb 0.00 in0.0 mm 0.00 in0.0 mm 0.01 in0.3 mm
05:01 PM 68.9°F20.5°C 65.2°F18.4°C 88% Calm Calm 1.7 mph2.7 kmh 29.84 in1010.5 mb 0.00 in0.0 mm 0.00 in0.0 mm 0.01 in0.3 mm
05:02 PM 68.9°F20.5°C 65.2°F18.4°C 88% Calm Calm 1.7 mph2.7 kmh 29.84 in1010.5 mb 0.00 in0.0 mm 0.00 in0.0 mm 0.01 in0.3 mm
05:03 PM 68.9°F20.5°C 65.2°F18.4°C 88% Calm Calm 1.7 mph2.7 kmh 29.84 in1010.5 mb 0.00 in0.0 mm 0.00 in0.0 mm 0.01 in0.3 mm
05:04 PM 68.9°F20.5°C 65.2°F18.4°C 88% Calm Calm 1.7 mph2.7 kmh 29.84 in1010.5 mb 0.00 in0.0 mm 0.00 in0.0 mm 0.01 in0.3 mm
05:05 PM 68.9°F20.5°C 65.2°F18.4°C 88% 1.7 mph SSE2.7 kmh SSE 1.7 mph2.7 kmh 29.84 in1010.5 mb 0.00 in0.0 mm 0.00 in0.0 mm 0.01 in0.3 mm
05:06 PM 68.7°F20.4°C 65.0°F18.3°C 88% 1.1 mph SSE1.8 kmh SSE 1.7 mph2.7 kmh 29.84 in1010.5 mb 0.00 in0.0 mm 0.00 in0.0 mm 0.01 in0.3 mm
05:07 PM 68.7°F20.4°C 65.0°F18.3°C 88% 1.1 mph SE1.8 kmh SE 1.7 mph2.7 kmh 29.84 in1010.5 mb 0.00 in0.0 mm 0.00 in0.0 mm 0.01 in0.3 mm
05:08 PM 68.7°F20.4°C 65.0°F18.3°C 88% 1.7 mph SE2.7 kmh SE 1.7 mph2.7 kmh 29.84 in1010.5 mb 0.00 in0.0 mm 0.00 in0.0 mm 0.01 in0.3 mm
05:09 PM 68.5°F20.3°C 64.8°F18.2°C 88% 1.7 mph SE2.7 kmh SE 1.7 mph2.7 kmh 29.84 in1010.5 mb 0.00 in0.0 mm 0.00 in0.0 mm 0.01 in0.3 mm
05:10 PM 68.5°F20.3°C 64.8°F18.2°C 88% Calm Calm 1.7 mph2.7 kmh 29.84 in1010.5 mb 0.00 in0.0 mm 0.00 in0.0 mm 0.01 in0.3 mm
05:11 PM 68.5°F20.3°C 64.8°F18.2°C 88% Calm Calm 1.7 mph2.7 kmh 29.84 in1010.5 mb 0.00 in0.0 mm 0.00 in0.0 mm 0.01 in0.3 mm
05:12 PM 68.5°F20.3°C 64.8°F18.2°C 88% 1.1 mph ESE1.8 kmh ESE 1.7 mph2.7 kmh 29.84 in1010.5 mb 0.00 in0.0 mm 0.00 in0.0 mm 0.01 in0.3 mm
05:13 PM 68.5°F20.3°C 64.8°F18.2°C 88% 1.1 mph ESE1.8 kmh ESE 1.7 mph2.7 kmh 29.84 in1010.5 mb 0.00 in0.0 mm 0.00 in0.0 mm 0.01 in0.3 mm
05:14 PM 68.5°F20.3°C 64.8°F18.2°C 88% Calm Calm 1.7 mph2.7 kmh 29.84 in1010.5 mb 0.00 in0.0 mm 0.00 in0.0 mm 0.01 in0.3 mm
05:15 PM 68.5°F20.3°C 64.8°F18.2°C 88% 1.1 mph ESE1.8 kmh ESE 1.7 mph2.7 kmh 29.84 in1010.5 mb 0.00 in0.0 mm 0.00 in0.0 mm 0.01 in0.3 mm
05:16 PM 68.5°F20.3°C 64.8°F18.2°C 88% Calm Calm 1.7 mph2.7 kmh 29.84 in1010.5 mb 0.00 in0.0 mm 0.00 in0.0 mm 0.01 in0.3 mm
05:17 PM 68.5°F20.3°C 64.8°F18.2°C 88% Calm Calm 1.7 mph2.7 kmh 29.84 in1010.5 mb 0.00 in0.0 mm 0.00 in0.0 mm 0.01 in0.3 mm
05:18 PM 68.5°F20.3°C 64.8°F18.2°C 88% Calm Calm 1.7 mph2.7 kmh 29.84 in1010.5 mb 0.00 in0.0 mm 0.00 in0.0 mm 0.01 in0.3 mm
05:19 PM 68.4°F20.2°C 64.7°F18.2°C 88% Calm Calm 1.7 mph2.7 kmh 29.84 in1010.5 mb 0.00 in0.0 mm 0.00 in0.0 mm 0.01 in0.3 mm
05:20 PM 68.4°F20.2°C 65.0°F18.3°C 89% 2.2 mph ESE3.5 kmh ESE 2.2 mph3.5 kmh 29.84 in1010.5 mb 0.00 in0.0 mm 0.00 in0.0 mm 0.01 in0.3 mm
05:21 PM 68.4°F20.2°C 65.0°F18.3°C 89% 1.7 mph ESE2.7 kmh ESE 2.2 mph3.5 kmh 29.84 in1010.5 mb 0.00 in0.0 mm 0.00 in0.0 mm 0.01 in0.3 mm
05:22 PM 68.4°F20.2°C 65.0°F18.3°C 89% 2.2 mph ESE3.5 kmh ESE 2.2 mph3.5 kmh 29.84 in1010.5 mb 0.00 in0.0 mm 0.00 in0.0 mm 0.01 in0.3 mm
05:23 PM 68.4°F20.2°C 65.0°F18.3°C 89% 2.2 mph ESE3.5 kmh ESE 2.2 mph3.5 kmh 29.84 in1010.5 mb 0.00 in0.0 mm 0.00 in0.0 mm 0.01 in0.3 mm
05:24 PM 68.4°F20.2°C 65.0°F18.3°C 89% 2.2 mph ESE3.5 kmh ESE 2.2 mph3.5 kmh 29.84 in1010.5 mb 0.00 in0.0 mm 0.00 in0.0 mm 0.01 in0.3 mm
05:25 PM 68.2°F20.1°C 64.8°F18.2°C 89% 1.7 mph SE2.7 kmh SE 2.2 mph3.5 kmh 29.84 in1010.5 mb 0.00 in0.0 mm 0.00 in0.0 mm 0.01 in0.3 mm
05:26 PM 68.2°F20.1°C 64.8°F18.2°C 89% 1.7 mph ESE2.7 kmh ESE 2.2 mph3.5 kmh 29.84 in1010.5 mb 0.00 in0.0 mm 0.00 in0.0 mm 0.01 in0.3 mm
05:27 PM 68.2°F20.1°C 64.8°F18.2°C 89% 2.2 mph ESE3.5 kmh ESE 2.2 mph3.5 kmh 29.84 in1010.5 mb 0.00 in0.0 mm 0.00 in0.0 mm 0.01 in0.3 mm
05:28 PM 68.2°F20.1°C 64.8°F18.2°C 89% 1.7 mph ESE2.7 kmh ESE 2.2 mph3.5 kmh 29.84 in1010.5 mb 0.00 in0.0 mm 0.00 in0.0 mm 0.01 in0.3 mm
05:29 PM 68.2°F20.1°C 64.8°F18.2°C 89% 2.7 mph ESE4.3 kmh ESE 2.7 mph4.3 kmh 29.84 in1010.5 mb 0.00 in0.0 mm 0.00 in0.0 mm 0.01 in0.3 mm
05:30 PM 68.2°F20.1°C 64.8°F18.2°C 89% 1.7 mph ESE2.7 kmh ESE 2.7 mph4.3 kmh 29.84 in1010.5 mb 0.00 in0.0 mm 0.00 in0.0 mm 0.01 in0.3 mm
05:31 PM 68.2°F20.1°C 64.8°F18.2°C 89% Calm Calm 2.7 mph4.3 kmh 29.84 in1010.5 mb 0.00 in0.0 mm 0.00 in0.0 mm 0.01 in0.3 mm
05:32 PM 68.2°F20.1°C 64.8°F18.2°C 89% Calm Calm 2.7 mph4.3 kmh 29.84 in1010.5 mb 0.00 in0.0 mm 0.00 in0.0 mm 0.01 in0.3 mm
05:33 PM 68.0°F20.0°C 64.6°F18.1°C 89% Calm Calm 2.7 mph4.3 kmh 29.84 in1010.5 mb 0.00 in0.0 mm 0.00 in0.0 mm 0.01 in0.3 mm
05:34 PM 68.0°F20.0°C 64.6°F18.1°C 89% Calm Calm 2.7 mph4.3 kmh 29.84 in1010.5 mb 0.00 in0.0 mm 0.00 in0.0 mm 0.01 in0.3 mm
05:35 PM 68.0°F20.0°C 64.6°F18.1°C 89% Calm Calm 2.7 mph4.3 kmh 29.84 in1010.5 mb 0.00 in0.0 mm 0.00 in0.0 mm 0.01 in0.3 mm
05:36 PM 68.0°F20.0°C 64.6°F18.1°C 89% Calm Calm 2.7 mph4.3 kmh 29.84 in1010.5 mb 0.00 in0.0 mm 0.00 in0.0 mm 0.01 in0.3 mm
05:37 PM 68.0°F20.0°C 64.6°F18.1°C 89% Calm Calm 2.7 mph4.3 kmh 29.84 in1010.5 mb 0.00 in0.0 mm 0.00 in0.0 mm 0.01 in0.3 mm
05:38 PM 68.0°F20.0°C 64.6°F18.1°C 89% Calm Calm 2.7 mph4.3 kmh 29.84 in1010.5 mb 0.00 in0.0 mm 0.00 in0.0 mm 0.01 in0.3 mm
05:39 PM 68.0°F20.0°C 64.6°F18.1°C 89% Calm Calm 2.7 mph4.3 kmh 29.84 in1010.5 mb 0.00 in0.0 mm 0.00 in0.0 mm 0.01 in0.3 mm
05:40 PM 68.0°F20.0°C 64.6°F18.1°C 89% Calm Calm 1.7 mph2.7 kmh 29.84 in1010.5 mb 0.00 in0.0 mm 0.00 in0.0 mm 0.01 in0.3 mm
05:41 PM 68.0°F20.0°C 64.6°F18.1°C 89% Calm Calm -- 29.84 in1010.5 mb 0.00 in0.0 mm 0.00 in0.0 mm 0.01 in0.3 mm
05:42 PM 68.0°F20.0°C 64.6°F18.1°C 89% Calm Calm -- 29.84 in1010.5 mb 0.00 in0.0 mm 0.00 in0.0 mm 0.01 in0.3 mm
05:43 PM 68.0°F20.0°C 64.6°F18.1°C 89% Calm Calm -- 29.84 in1010.5 mb 0.00 in0.0 mm 0.00 in0.0 mm 0.01 in0.3 mm
05:44 PM 68.0°F20.0°C 64.6°F18.1°C 89% Calm Calm -- 29.84 in1010.5 mb 0.00 in0.0 mm 0.00 in0.0 mm 0.01 in0.3 mm
05:45 PM 68.0°F20.0°C 64.6°F18.1°C 89% 1.7 mph ESE2.7 kmh ESE 1.7 mph2.7 kmh 29.84 in1010.5 mb 0.00 in0.0 mm 0.00 in0.0 mm 0.01 in0.3 mm
05:46 PM 68.0°F20.0°C 64.6°F18.1°C 89% 1.1 mph ESE1.8 kmh ESE 1.7 mph2.7 kmh 29.84 in1010.5 mb 0.00 in0.0 mm 0.00 in0.0 mm 0.01 in0.3 mm
05:47 PM 68.0°F20.0°C 64.6°F18.1°C 89% 1.1 mph ESE1.8 kmh ESE 1.7 mph2.7 kmh 29.84 in1010.5 mb 0.00 in0.0 mm 0.00 in0.0 mm 0.01 in0.3 mm
05:48 PM 68.0°F20.0°C 64.6°F18.1°C 89% Calm Calm 1.7 mph2.7 kmh 29.84 in1010.5 mb 0.00 in0.0 mm 0.00 in0.0 mm 0.01 in0.3 mm
05:49 PM 68.0°F20.0°C 64.6°F18.1°C 89% Calm Calm 1.7 mph2.7 kmh 29.84 in1010.5 mb 0.00 in0.0 mm 0.00 in0.0 mm 0.01 in0.3 mm
05:50 PM 68.0°F20.0°C 64.6°F18.1°C 89% Calm Calm 1.7 mph2.7 kmh 29.85 in1010.8 mb 0.00 in0.0 mm 0.00 in0.0 mm 0.01 in0.3 mm
05:51 PM 68.0°F20.0°C 64.6°F18.1°C 89% Calm Calm 1.7 mph2.7 kmh 29.85 in1010.8 mb 0.00 in0.0 mm 0.00 in0.0 mm 0.01 in0.3 mm
05:52 PM 68.0°F20.0°C 64.6°F18.1°C 89% Calm Calm 1.7 mph2.7 kmh 29.85 in1010.8 mb 0.00 in0.0 mm 0.00 in0.0 mm 0.01 in0.3 mm
05:53 PM 68.0°F20.0°C 64.6°F18.1°C 89% Calm Calm 1.7 mph2.7 kmh 29.85 in1010.8 mb 0.00 in0.0 mm 0.00 in0.0 mm 0.01 in0.3 mm
05:54 PM 68.0°F20.0°C 64.6°F18.1°C 89% Calm Calm 1.7 mph2.7 kmh 29.85 in1010.8 mb 0.00 in0.0 mm 0.00 in0.0 mm 0.01 in0.3 mm
05:55 PM 68.0°F20.0°C 64.6°F18.1°C 89% Calm Calm 1.7 mph2.7 kmh 29.85 in1010.8 mb 0.00 in0.0 mm 0.00 in0.0 mm 0.01 in0.3 mm
05:56 PM 68.0°F20.0°C 64.6°F18.1°C 89% Calm Calm 1.7 mph2.7 kmh 29.85 in1010.8 mb 0.00 in0.0 mm 0.00 in0.0 mm 0.01 in0.3 mm
05:57 PM 68.0°F20.0°C 64.6°F18.1°C 89% Calm Calm 1.1 mph1.8 kmh 29.85 in1010.8 mb 0.00 in0.0 mm 0.00 in0.0 mm 0.01 in0.3 mm
05:58 PM 68.0°F20.0°C 64.6°F18.1°C 89% Calm Calm -- 29.85 in1010.8 mb 0.00 in0.0 mm 0.00 in0.0 mm 0.01 in0.3 mm
05:59 PM 68.0°F20.0°C 64.6°F18.1°C 89% Calm Calm -- 29.85 in1010.8 mb 0.00 in0.0 mm 0.00 in0.0 mm 0.01 in0.3 mm
06:00 PM 68.0°F20.0°C 64.6°F18.1°C 89% Calm Calm -- 29.85 in1010.8 mb 0.00 in0.0 mm 0.00 in0.0 mm 0.01 in0.3 mm
06:01 PM 68.0°F20.0°C 64.6°F18.1°C 89% Calm Calm -- 29.85 in1010.8 mb 0.00 in0.0 mm 0.00 in0.0 mm 0.01 in0.3 mm
06:02 PM 68.0°F20.0°C 64.6°F18.1°C 89% Calm Calm -- 29.85 in1010.8 mb 0.00 in0.0 mm 0.00 in0.0 mm 0.01 in0.3 mm
06:03 PM 68.0°F20.0°C 64.6°F18.1°C 89% Calm Calm -- 29.85 in1010.8 mb 0.00 in0.0 mm 0.00 in0.0 mm 0.01 in0.3 mm
06:04 PM 68.0°F20.0°C 64.6°F18.1°C 89% Calm Calm -- 29.85 in1010.8 mb 0.00 in0.0 mm 0.00 in0.0 mm 0.01 in0.3 mm
06:05 PM 68.0°F20.0°C 64.6°F18.1°C 89% Calm Calm -- 29.85 in1010.8 mb 0.00 in0.0 mm 0.00 in0.0 mm 0.01 in0.3 mm
06:06 PM 68.0°F20.0°C 64.6°F18.1°C 89% Calm Calm -- 29.85 in1010.8 mb 0.00 in0.0 mm 0.00 in0.0 mm 0.01 in0.3 mm
06:07 PM 68.0°F20.0°C 64.6°F18.1°C 89% Calm Calm -- 29.85 in1010.8 mb 0.00 in0.0 mm 0.00 in0.0 mm 0.01 in0.3 mm
06:08 PM 68.0°F20.0°C 64.6°F18.1°C 89% Calm Calm -- 29.85 in1010.8 mb 0.00 in0.0 mm 0.00 in0.0 mm 0.01 in0.3 mm
06:09 PM 68.0°F20.0°C 64.6°F18.1°C 89% Calm Calm -- 29.85 in1010.8 mb 0.00 in0.0 mm 0.00 in0.0 mm 0.01 in0.3 mm
06:10 PM 68.0°F20.0°C 64.6°F18.1°C 89% Calm Calm -- 29.85 in1010.8 mb 0.00 in0.0 mm 0.00 in0.0 mm 0.01 in0.3 mm
06:11 PM 68.0°F20.0°C 64.6°F18.1°C 89% Calm Calm -- 29.85 in1010.8 mb 0.00 in0.0 mm 0.00 in0.0 mm 0.01 in0.3 mm
06:12 PM 68.0°F20.0°C 64.6°F18.1°C 89% Calm Calm -- 29.85 in1010.8 mb 0.00 in0.0 mm 0.00 in0.0 mm 0.01 in0.3 mm
06:13 PM 68.0°F20.0°C 64.6°F18.1°C 89% Calm Calm -- 29.85 in1010.8 mb 0.00 in0.0 mm 0.00 in0.0 mm 0.01 in0.3 mm
06:14 PM 68.0°F20.0°C 64.6°F18.1°C 89% Calm Calm -- 29.85 in1010.8 mb 0.00 in0.0 mm 0.00 in0.0 mm 0.01 in0.3 mm
06:15 PM 68.0°F20.0°C 64.6°F18.1°C 89% Calm Calm -- 29.85 in1010.8 mb 0.00 in0.0 mm 0.00 in0.0 mm 0.01 in0.3 mm
06:16 PM 68.0°F20.0°C 64.6°F18.1°C 89% Calm Calm -- 29.85 in1010.8 mb 0.00 in0.0 mm 0.00 in0.0 mm 0.01 in0.3 mm
06:17 PM 68.0°F20.0°C 64.6°F18.1°C 89% Calm Calm -- 29.85 in1010.8 mb 0.00 in0.0 mm 0.00 in0.0 mm 0.01 in0.3 mm
06:18 PM 68.0°F20.0°C 64.6°F18.1°C 89% Calm Calm -- 29.85 in1010.8 mb 0.00 in0.0 mm 0.00 in0.0 mm 0.01 in0.3 mm
06:19 PM 68.0°F20.0°C 64.6°F18.1°C 89% Calm Calm -- 29.85 in1010.8 mb 0.00 in0.0 mm 0.00 in0.0 mm 0.01 in0.3 mm
06:20 PM 68.0°F20.0°C 64.6°F18.1°C 89% Calm Calm -- 29.85 in1010.8 mb 0.00 in0.0 mm 0.00 in0.0 mm 0.01 in0.3 mm
06:21 PM 68.0°F20.0°C 64.6°F18.1°C 89% Calm Calm -- 29.85 in1010.8 mb 0.00 in0.0 mm 0.00 in0.0 mm 0.01 in0.3 mm
06:22 PM 68.0°F20.0°C 64.6°F18.1°C 89% Calm Calm -- 29.85 in1010.8 mb 0.00 in0.0 mm 0.00 in0.0 mm 0.01 in0.3 mm
06:23 PM 68.0°F20.0°C 64.6°F18.1°C 89% Calm Calm -- 29.85 in1010.8 mb 0.00 in0.0 mm 0.00 in0.0 mm 0.01 in0.3 mm
06:24 PM 68.0°F20.0°C 64.6°F18.1°C 89% Calm Calm -- 29.85 in1010.8 mb 0.00 in0.0 mm 0.00 in0.0 mm 0.01 in0.3 mm
06:25 PM 68.0°F20.0°C 64.6°F18.1°C 89% Calm Calm -- 29.85 in1010.8 mb 0.00 in0.0 mm 0.00 in0.0 mm 0.01 in0.3 mm
06:26 PM 68.0°F20.0°C 64.6°F18.1°C 89% Calm Calm -- 29.85 in1010.8 mb 0.00 in0.0 mm 0.00 in0.0 mm 0.01 in0.3 mm
06:27 PM 68.0°F20.0°C 64.6°F18.1°C 89% Calm Calm -- 29.85 in1010.8 mb 0.00 in0.0 mm 0.00 in0.0 mm 0.01 in0.3 mm
06:28 PM 68.0°F20.0°C 64.6°F18.1°C 89% Calm Calm -- 29.85 in1010.8 mb 0.00 in0.0 mm 0.00 in0.0 mm 0.01 in0.3 mm
06:29 PM 68.0°F20.0°C 64.6°F18.1°C 89% Calm Calm -- 29.85 in1010.8 mb 0.00 in0.0 mm 0.00 in0.0 mm 0.01 in0.3 mm
06:30 PM 68.0°F20.0°C 64.6°F18.1°C 89% Calm Calm -- 29.85 in1010.8 mb 0.00 in0.0 mm 0.00 in0.0 mm 0.01 in0.3 mm
06:31 PM 67.8°F19.9°C 64.5°F18.1°C 89% Calm Calm -- 29.85 in1010.8 mb 0.00 in0.0 mm 0.00 in0.0 mm 0.01 in0.3 mm
06:32 PM 67.8°F19.9°C 64.5°F18.1°C 89% Calm Calm -- 29.85 in1010.8 mb 0.00 in0.0 mm 0.00 in0.0 mm 0.01 in0.3 mm
06:33 PM 67.8°F19.9°C 64.5°F18.1°C 89% Calm Calm -- 29.85 in1010.8 mb 0.00 in0.0 mm 0.00 in0.0 mm 0.01 in0.3 mm
06:34 PM 67.8°F19.9°C 64.5°F18.1°C 89% Calm Calm -- 29.85 in1010.8 mb 0.00 in0.0 mm 0.00 in0.0 mm 0.01 in0.3 mm
06:35 PM 67.8°F19.9°C 64.5°F18.1°C 89% Calm Calm -- 29.85 in1010.8 mb 0.00 in0.0 mm 0.00 in0.0 mm 0.01 in0.3 mm
06:36 PM 67.8°F19.9°C 64.5°F18.1°C 89% Calm Calm -- 29.85 in1010.8 mb 0.00 in0.0 mm 0.00 in0.0 mm 0.01 in0.3 mm
06:37 PM 67.8°F19.9°C 64.5°F18.1°C 89% 1.7 mph ESE2.7 kmh ESE 1.7 mph2.7 kmh 29.85 in1010.8 mb 0.00 in0.0 mm 0.00 in0.0 mm 0.01 in0.3 mm
06:38 PM 67.8°F19.9°C 64.5°F18.1°C 89% Calm Calm 1.7 mph2.7 kmh 29.84 in1010.5 mb 0.00 in0.0 mm 0.00 in0.0 mm 0.01 in0.3 mm
06:39 PM 67.8°F19.9°C 64.5°F18.1°C 89% Calm Calm 1.7 mph2.7 kmh 29.84 in1010.5 mb 0.00 in0.0 mm 0.00 in0.0 mm 0.01 in0.3 mm
06:40 PM 67.8°F19.9°C 64.5°F18.1°C 89% Calm Calm 1.7 mph2.7 kmh 29.84 in1010.5 mb 0.00 in0.0 mm 0.00 in0.0 mm 0.01 in0.3 mm
06:41 PM 67.8°F19.9°C 64.5°F18.1°C 89% Calm Calm 1.7 mph2.7 kmh 29.84 in1010.5 mb 0.00 in0.0 mm 0.00 in0.0 mm 0.01 in0.3 mm
06:42 PM 67.8°F19.9°C 64.5°F18.1°C 89% Calm Calm 1.7 mph2.7 kmh 29.84 in1010.5 mb 0.00 in0.0 mm 0.00 in0.0 mm 0.01 in0.3 mm
06:43 PM 67.8°F19.9°C 64.5°F18.1°C 89% Calm Calm 1.7 mph2.7 kmh 29.84 in1010.5 mb 0.00 in0.0 mm 0.00 in0.0 mm 0.01 in0.3 mm
06:44 PM 67.8°F19.9°C 64.5°F18.1°C 89% Calm Calm 1.7 mph2.7 kmh 29.84 in1010.5 mb 0.00 in0.0 mm 0.00 in0.0 mm 0.01 in0.3 mm
06:45 PM 67.8°F19.9°C 64.5°F18.1°C 89% Calm Calm 1.7 mph2.7 kmh 29.84 in1010.5 mb 0.00 in0.0 mm 0.00 in0.0 mm 0.01 in0.3 mm
06:46 PM 67.8°F19.9°C 64.5°F18.1°C 89% Calm Calm 1.7 mph2.7 kmh 29.84 in1010.5 mb 0.00 in0.0 mm 0.00 in0.0 mm 0.01 in0.3 mm
06:47 PM 67.8°F19.9°C 64.5°F18.1°C 89% Calm Calm 1.7 mph2.7 kmh 29.84 in1010.5 mb 0.00 in0.0 mm 0.00 in0.0 mm 0.01 in0.3 mm
06:48 PM 67.8°F19.9°C 64.5°F18.1°C 89% Calm Calm -- 29.84 in1010.5 mb 0.00 in0.0 mm 0.00 in0.0 mm 0.01 in0.3 mm
06:49 PM 67.8°F19.9°C 64.5°F18.1°C 89% Calm Calm -- 29.84 in1010.5 mb 0.00 in0.0 mm 0.00 in0.0 mm 0.01 in0.3 mm
06:50 PM 67.8°F19.9°C 64.5°F18.1°C 89% 2.2 mph WSW3.5 kmh WSW 2.2 mph3.5 kmh 29.86 in1011.2 mb 0.02 in0.5 mm 1.20 in30.5 mm 0.03 in0.8 mm
06:51 PM 67.8°F19.9°C 64.8°F18.2°C 90% 1.1 mph W1.8 kmh W 2.2 mph3.5 kmh 29.86 in1011.2 mb 0.04 in1.0 mm 1.20 in30.5 mm 0.05 in1.3 mm
06:52 PM 67.8°F19.9°C 64.8°F18.2°C 90% 2.7 mph S4.3 kmh S 2.7 mph4.3 kmh 29.86 in1011.2 mb 0.07 in1.8 mm 1.80 in45.7 mm 0.08 in2.0 mm
06:53 PM 67.8°F19.9°C 64.8°F18.2°C 90% 1.7 mph SSE2.7 kmh SSE 2.7 mph4.3 kmh 29.86 in1011.2 mb 0.10 in2.5 mm 1.80 in45.7 mm 0.11 in2.8 mm
06:54 PM 67.8°F19.9°C 64.8°F18.2°C 90% 1.1 mph ESE1.8 kmh ESE 2.7 mph4.3 kmh 29.86 in1011.2 mb 0.17 in4.3 mm 4.20 in106.7 mm 0.18 in4.6 mm
06:55 PM 67.6°F19.8°C 64.6°F18.1°C 90% Calm Calm 2.7 mph4.3 kmh 29.86 in1011.2 mb 0.22 in5.6 mm 3.00 in76.2 mm 0.23 in5.8 mm
06:56 PM 67.6°F19.8°C 64.6°F18.1°C 90% 1.7 mph SE2.7 kmh SE 2.7 mph4.3 kmh 29.86 in1011.2 mb 0.29 in7.4 mm 4.20 in106.7 mm 0.30 in7.6 mm
06:57 PM 67.5°F19.7°C 64.4°F18.0°C 90% Calm Calm 2.7 mph4.3 kmh 29.86 in1011.2 mb 0.31 in7.9 mm 1.20 in30.5 mm 0.32 in8.1 mm
06:58 PM 67.5°F19.7°C 64.4°F18.0°C 90% Calm Calm 2.7 mph4.3 kmh 29.86 in1011.2 mb 0.34 in8.6 mm 1.80 in45.7 mm 0.35 in8.9 mm
06:59 PM 67.5°F19.7°C 64.4°F18.0°C 90% Calm Calm 2.7 mph4.3 kmh 29.86 in1011.2 mb 0.35 in8.9 mm 0.60 in15.2 mm 0.36 in9.1 mm
07:00 PM 67.5°F19.7°C 64.4°F18.0°C 90% Calm Calm 2.7 mph4.3 kmh 29.86 in1011.2 mb 0.37 in9.4 mm 0.02 in0.5 mm 0.38 in9.7 mm
07:01 PM 67.3°F19.6°C 64.2°F17.9°C 90% Calm Calm 2.7 mph4.3 kmh 29.86 in1011.2 mb 0.39 in9.9 mm 1.20 in30.5 mm 0.40 in10.2 mm
07:02 PM 67.3°F19.6°C 64.2°F17.9°C 90% Calm Calm 2.7 mph4.3 kmh 29.87 in1011.5 mb 0.39 in9.9 mm 0.00 in0.0 mm 0.40 in10.2 mm
07:03 PM 67.3°F19.6°C 64.2°F17.9°C 90% 1.1 mph SSE1.8 kmh SSE 1.7 mph2.7 kmh 29.87 in1011.5 mb 0.42 in10.7 mm 1.80 in45.7 mm 0.43 in10.9 mm
07:04 PM 67.3°F19.6°C 64.2°F17.9°C 90% 1.7 mph SE2.7 kmh SE 1.7 mph2.7 kmh 29.87 in1011.5 mb 0.43 in10.9 mm 0.60 in15.2 mm 0.44 in11.2 mm
07:05 PM 67.3°F19.6°C 64.2°F17.9°C 90% Calm Calm 1.7 mph2.7 kmh 29.87 in1011.5 mb 0.44 in11.2 mm 0.60 in15.2 mm 0.45 in11.4 mm
07:06 PM 67.1°F19.5°C 64.4°F18.0°C 91% Calm Calm 1.7 mph2.7 kmh 29.87 in1011.5 mb 0.45 in11.4 mm 0.60 in15.2 mm 0.46 in11.7 mm
07:07 PM 67.1°F19.5°C 64.4°F18.0°C 91% 1.1 mph SSW1.8 kmh SSW 1.7 mph2.7 kmh 29.87 in1011.5 mb 0.46 in11.7 mm 0.60 in15.2 mm 0.47 in11.9 mm
07:08 PM 67.1°F19.5°C 64.4°F18.0°C 91% 2.2 mph SSW3.5 kmh SSW 2.2 mph3.5 kmh 29.87 in1011.5 mb 0.47 in11.9 mm 0.60 in15.2 mm 0.48 in12.2 mm
07:09 PM 67.1°F19.5°C 64.4°F18.0°C 91% 2.2 mph SSW3.5 kmh SSW 2.2 mph3.5 kmh 29.87 in1011.5 mb 0.48 in12.2 mm 0.60 in15.2 mm 0.49 in12.4 mm
07:10 PM 67.1°F19.5°C 64.4°F18.0°C 91% 1.7 mph SSW2.7 kmh SSW 2.2 mph3.5 kmh 29.87 in1011.5 mb 0.50 in12.7 mm 1.20 in30.5 mm 0.51 in13.0 mm
07:11 PM 67.1°F19.5°C 64.4°F18.0°C 91% Calm Calm 2.2 mph3.5 kmh 29.87 in1011.5 mb 0.51 in13.0 mm 0.60 in15.2 mm 0.52 in13.2 mm
07:12 PM 67.1°F19.5°C 64.4°F18.0°C 91% Calm Calm 2.2 mph3.5 kmh 29.87 in1011.5 mb 0.51 in13.0 mm 0.00 in0.0 mm 0.52 in13.2 mm
07:13 PM 67.1°F19.5°C 64.4°F18.0°C 91% Calm Calm 2.2 mph3.5 kmh 29.87 in1011.5 mb 0.51 in13.0 mm 0.00 in0.0 mm 0.52 in13.2 mm
07:14 PM 67.1°F19.5°C 64.4°F18.0°C 91% Calm Calm 2.2 mph3.5 kmh 29.87 in1011.5 mb 0.51 in13.0 mm 0.00 in0.0 mm 0.52 in13.2 mm
07:15 PM 67.1°F19.5°C 64.4°F18.0°C 91% Calm Calm 2.2 mph3.5 kmh 29.87 in1011.5 mb 0.51 in13.0 mm 0.00 in0.0 mm 0.52 in13.2 mm
07:16 PM 67.1°F19.5°C 64.4°F18.0°C 91% Calm Calm 2.2 mph3.5 kmh 29.87 in1011.5 mb 0.52 in13.2 mm 0.60 in15.2 mm 0.53 in13.5 mm
07:17 PM 67.1°F19.5°C 64.4°F18.0°C 91% Calm Calm 2.2 mph3.5 kmh 29.87 in1011.5 mb 0.52 in13.2 mm 0.00 in0.0 mm 0.53 in13.5 mm
07:18 PM 67.1°F19.5°C 64.4°F18.0°C 91% Calm Calm 2.2 mph3.5 kmh 29.87 in1011.5 mb 0.52 in13.2 mm 0.00 in0.0 mm 0.53 in13.5 mm
07:19 PM 67.1°F19.5°C 64.4°F18.0°C 91% Calm Calm 1.7 mph2.7 kmh 29.87 in1011.5 mb 0.52 in13.2 mm 0.00 in0.0 mm 0.53 in13.5 mm
07:20 PM 67.1°F19.5°C 64.4°F18.0°C 91% Calm Calm 1.1 mph1.8 kmh 29.87 in1011.5 mb 0.52 in13.2 mm 0.00 in0.0 mm 0.53 in13.5 mm
07:21 PM 67.1°F19.5°C 64.4°F18.0°C 91% Calm Calm -- 29.87 in1011.5 mb 0.52 in13.2 mm 0.00 in0.0 mm 0.53 in13.5 mm
07:22 PM 67.1°F19.5°C 64.4°F18.0°C 91% Calm Calm -- 29.87 in1011.5 mb 0.52 in13.2 mm 0.00 in0.0 mm 0.53 in13.5 mm
07:23 PM 67.1°F19.5°C 64.4°F18.0°C 91% Calm Calm -- 29.87 in1011.5 mb 0.52 in13.2 mm 0.00 in0.0 mm 0.53 in13.5 mm
07:24 PM 67.1°F19.5°C 64.4°F18.0°C 91% Calm Calm -- 29.87 in1011.5 mb 0.52 in13.2 mm 0.00 in0.0 mm 0.53 in13.5 mm
07:25 PM 67.1°F19.5°C 64.4°F18.0°C 91% Calm Calm -- 29.87 in1011.5 mb 0.52 in13.2 mm 0.00 in0.0 mm 0.53 in13.5 mm
07:26 PM 67.1°F19.5°C 64.4°F18.0°C 91% Calm Calm -- 29.87 in1011.5 mb 0.52 in13.2 mm 0.00 in0.0 mm 0.53 in13.5 mm
07:27 PM 67.1°F19.5°C 64.4°F18.0°C 91% Calm Calm -- 29.87 in1011.5 mb 0.52 in13.2 mm 0.00 in0.0 mm 0.53 in13.5 mm
07:28 PM 67.1°F19.5°C 64.4°F18.0°C 91% Calm Calm -- 29.87 in1011.5 mb 0.52 in13.2 mm 0.00 in0.0 mm 0.53 in13.5 mm
07:29 PM 67.1°F19.5°C 64.4°F18.0°C 91% 1.7 mph ESE2.7 kmh ESE 1.7 mph2.7 kmh 29.87 in1011.5 mb 0.52 in13.2 mm 0.00 in0.0 mm 0.53 in13.5 mm
07:30 PM 67.1°F19.5°C 64.4°F18.0°C 91% 1.7 mph ESE2.7 kmh ESE 1.7 mph2.7 kmh 29.87 in1011.5 mb 0.52 in13.2 mm 0.00 in0.0 mm 0.53 in13.5 mm
07:31 PM 67.1°F19.5°C 64.4°F18.0°C 91% Calm Calm 1.7 mph2.7 kmh 29.87 in1011.5 mb 0.52 in13.2 mm 0.00 in0.0 mm 0.53 in13.5 mm
07:32 PM 67.1°F19.5°C 64.4°F18.0°C 91% Calm Calm 1.7 mph2.7 kmh 29.87 in1011.5 mb 0.52 in13.2 mm 0.00 in0.0 mm 0.53 in13.5 mm
07:33 PM 67.1°F19.5°C 64.4°F18.0°C 91% Calm Calm 1.7 mph2.7 kmh 29.87 in1011.5 mb 0.52 in13.2 mm 0.00 in0.0 mm 0.53 in13.5 mm
07:34 PM 66.9°F19.4°C 64.2°F17.9°C 91% Calm Calm 1.7 mph2.7 kmh 29.87 in1011.5 mb 0.52 in13.2 mm 0.00 in0.0 mm 0.53 in13.5 mm
07:35 PM 66.9°F19.4°C 64.2°F17.9°C 91% Calm Calm 1.7 mph2.7 kmh 29.87 in1011.5 mb 0.52 in13.2 mm 0.00 in0.0 mm 0.53 in13.5 mm
07:36 PM 66.9°F19.4°C 64.2°F17.9°C 91% Calm Calm 1.7 mph2.7 kmh 29.87 in1011.5 mb 0.52 in13.2 mm 0.00 in0.0 mm 0.53 in13.5 mm
07:37 PM 66.9°F19.4°C 64.2°F17.9°C 91% Calm Calm 1.7 mph2.7 kmh 29.87 in1011.5 mb 0.52 in13.2 mm 0.00 in0.0 mm 0.53 in13.5 mm
07:38 PM 66.9°F19.4°C 64.2°F17.9°C 91% Calm Calm 1.7 mph2.7 kmh 29.87 in1011.5 mb 0.52 in13.2 mm 0.00 in0.0 mm 0.53 in13.5 mm
07:39 PM 66.9°F19.4°C 64.2°F17.9°C 91% Calm Calm 1.7 mph2.7 kmh 29.86 in1011.2 mb 0.52 in13.2 mm 0.00 in0.0 mm 0.53 in13.5 mm
07:40 PM 66.9°F19.4°C 64.2°F17.9°C 91% 1.7 mph SE2.7 kmh SE 1.7 mph2.7 kmh 29.86 in1011.2 mb 0.52 in13.2 mm 0.00 in0.0 mm 0.53 in13.5 mm
07:41 PM 66.9°F19.4°C 64.2°F17.9°C 91% Calm Calm 1.7 mph2.7 kmh 29.86 in1011.2 mb 0.52 in13.2 mm 0.00 in0.0 mm 0.53 in13.5 mm
07:42 PM 66.9°F19.4°C 64.2°F17.9°C 91% Calm Calm 1.7 mph2.7 kmh 29.86 in1011.2 mb 0.52 in13.2 mm 0.00 in0.0 mm 0.53 in13.5 mm
07:43 PM 66.9°F19.4°C 64.2°F17.9°C 91% Calm Calm 1.7 mph2.7 kmh 29.86 in1011.2 mb 0.52 in13.2 mm 0.00 in0.0 mm 0.53 in13.5 mm
07:44 PM 66.9°F19.4°C 64.5°F18.1°C 92% Calm Calm 1.7 mph2.7 kmh 29.86 in1011.2 mb 0.52 in13.2 mm 0.00 in0.0 mm 0.53 in13.5 mm
07:45 PM 66.9°F19.4°C 64.5°F18.1°C 92% Calm Calm 1.7 mph2.7 kmh 29.86 in1011.2 mb 0.52 in13.2 mm 0.00 in0.0 mm 0.53 in13.5 mm
07:46 PM 66.9°F19.4°C 64.5°F18.1°C 92% Calm Calm 1.7 mph2.7 kmh 29.86 in1011.2 mb 0.52 in13.2 mm 0.00 in0.0 mm 0.53 in13.5 mm
07:47 PM 66.9°F19.4°C 64.5°F18.1°C 92% Calm Calm 1.7 mph2.7 kmh 29.86 in1011.2 mb 0.52 in13.2 mm 0.00 in0.0 mm 0.53 in13.5 mm
07:48 PM 66.9°F19.4°C 64.5°F18.1°C 92% Calm Calm 1.7 mph2.7 kmh 29.86 in1011.2 mb 0.52 in13.2 mm 0.00 in0.0 mm 0.53 in13.5 mm
07:49 PM 66.9°F19.4°C 64.5°F18.1°C 92% 1.7 mph ESE2.7 kmh ESE 1.7 mph2.7 kmh 29.86 in1011.2 mb 0.52 in13.2 mm 0.00 in0.0 mm 0.53 in13.5 mm
07:50 PM 66.9°F19.4°C 64.5°F18.1°C 92% 2.2 mph SE3.5 kmh SE 2.2 mph3.5 kmh 29.86 in1011.2 mb 0.53 in13.5 mm 0.60 in15.2 mm 0.54 in13.7 mm
07:51 PM 66.9°F19.4°C 64.5°F18.1°C 92% 2.2 mph SE3.5 kmh SE 2.2 mph3.5 kmh 29.86 in1011.2 mb 0.49 in12.4 mm 0.00 in0.0 mm 0.54 in13.7 mm
07:52 PM 66.9°F19.4°C 64.5°F18.1°C 92% 1.1 mph SE1.8 kmh SE 2.2 mph3.5 kmh 29.86 in1011.2 mb 0.48 in12.2 mm 0.00 in0.0 mm 0.54 in13.7 mm
07:53 PM 66.9°F19.4°C 64.5°F18.1°C 92% Calm Calm 2.2 mph3.5 kmh 29.86 in1011.2 mb 0.43 in10.9 mm 0.00 in0.0 mm 0.54 in13.7 mm
07:54 PM 66.9°F19.4°C 64.5°F18.1°C 92% Calm Calm 2.2 mph3.5 kmh 29.86 in1011.2 mb 0.39 in9.9 mm 0.00 in0.0 mm 0.54 in13.7 mm
07:55 PM 66.9°F19.4°C 64.5°F18.1°C 92% Calm Calm 2.2 mph3.5 kmh 29.86 in1011.2 mb 0.31 in7.9 mm 0.00 in0.0 mm 0.54 in13.7 mm
07:56 PM 66.9°F19.4°C 64.5°F18.1°C 92% Calm Calm 2.2 mph3.5 kmh 29.86 in1011.2 mb 0.27 in6.9 mm 0.00 in0.0 mm 0.54 in13.7 mm
07:57 PM 66.9°F19.4°C 64.5°F18.1°C 92% Calm Calm 2.2 mph3.5 kmh 29.86 in1011.2 mb 0.22 in5.6 mm 0.00 in0.0 mm 0.54 in13.7 mm
07:58 PM 66.9°F19.4°C 64.5°F18.1°C 92% Calm Calm 2.2 mph3.5 kmh 29.86 in1011.2 mb 0.20 in5.1 mm 0.00 in0.0 mm 0.54 in13.7 mm
07:59 PM 66.9°F19.4°C 64.5°F18.1°C 92% Calm Calm 2.2 mph3.5 kmh 29.86 in1011.2 mb 0.18 in4.6 mm 0.00 in0.0 mm 0.54 in13.7 mm
08:00 PM 66.9°F19.4°C 64.5°F18.1°C 92% Calm Calm 2.2 mph3.5 kmh 29.86 in1011.2 mb 0.16 in4.1 mm 0.00 in0.0 mm 0.54 in13.7 mm
08:01 PM 66.9°F19.4°C 64.5°F18.1°C 92% Calm Calm 1.7 mph2.7 kmh 29.86 in1011.2 mb 0.15 in3.8 mm 0.00 in0.0 mm 0.54 in13.7 mm
08:02 PM 66.9°F19.4°C 64.5°F18.1°C 92% Calm Calm 1.1 mph1.8 kmh 29.86 in1011.2 mb 0.14 in3.6 mm 0.00 in0.0 mm 0.54 in13.7 mm
08:03 PM 66.9°F19.4°C 64.5°F18.1°C 92% Calm Calm -- 29.87 in1011.5 mb 0.12 in3.0 mm 0.00 in0.0 mm 0.54 in13.7 mm
08:04 PM 66.9°F19.4°C 64.5°F18.1°C 92% Calm Calm -- 29.87 in1011.5 mb 0.10 in2.5 mm 0.00 in0.0 mm 0.54 in13.7 mm
08:05 PM 66.9°F19.4°C 64.5°F18.1°C 92% Calm Calm -- 29.87 in1011.5 mb 0.09 in2.3 mm 0.00 in0.0 mm 0.54 in13.7 mm
08:06 PM 66.9°F19.4°C 64.5°F18.1°C 92% Calm Calm -- 29.87 in1011.5 mb 0.08 in2.0 mm 0.00 in0.0 mm 0.54 in13.7 mm
08:07 PM 66.9°F19.4°C 64.5°F18.1°C 92% Calm Calm -- 29.87 in1011.5 mb 0.07 in1.8 mm 0.00 in0.0 mm 0.54 in13.7 mm
08:08 PM 66.9°F19.4°C 64.5°F18.1°C 92% Calm Calm -- 29.87 in1011.5 mb 0.06 in1.5 mm 0.00 in0.0 mm 0.54 in13.7 mm
08:09 PM 66.9°F19.4°C 64.5°F18.1°C 92% Calm Calm -- 29.87 in1011.5 mb 0.05 in1.3 mm 0.00 in0.0 mm 0.54 in13.7 mm
08:10 PM 67.1°F19.5°C 64.7°F18.2°C 92% 1.7 mph NW2.7 kmh NW 1.7 mph2.7 kmh 29.87 in1011.5 mb 0.03 in0.8 mm 0.00 in0.0 mm 0.54 in13.7 mm
08:11 PM 67.1°F19.5°C 64.7°F18.2°C 92% 2.7 mph NW4.3 kmh NW 2.7 mph4.3 kmh 29.87 in1011.5 mb 0.03 in0.8 mm 0.00 in0.0 mm 0.54 in13.7 mm
08:12 PM 67.1°F19.5°C 64.7°F18.2°C 92% 2.7 mph WNW4.3 kmh WNW 2.7 mph4.3 kmh 29.87 in1011.5 mb 0.02 in0.5 mm 0.00 in0.0 mm 0.54 in13.7 mm
08:13 PM 67.1°F19.5°C 64.7°F18.2°C 92% 2.2 mph NW3.5 kmh NW 2.7 mph4.3 kmh 29.87 in1011.5 mb 0.02 in0.5 mm 0.00 in0.0 mm 0.54 in13.7 mm
08:14 PM 67.1°F19.5°C 64.7°F18.2°C 92% 1.1 mph NNW1.8 kmh NNW 2.7 mph4.3 kmh 29.87 in1011.5 mb 0.02 in0.5 mm 0.00 in0.0 mm 0.54 in13.7 mm
08:15 PM 67.1°F19.5°C 64.7°F18.2°C 92% Calm Calm 2.7 mph4.3 kmh 29.87 in1011.5 mb 0.02 in0.5 mm 0.00 in0.0 mm 0.54 in13.7 mm
08:16 PM 67.1°F19.5°C 64.7°F18.2°C 92% 1.7 mph WNW2.7 kmh WNW 2.7 mph4.3 kmh 29.87 in1011.5 mb 0.01 in0.3 mm 0.00 in0.0 mm 0.54 in13.7 mm
08:17 PM 67.1°F19.5°C 64.7°F18.2°C 92% 1.7 mph W2.7 kmh W 2.7 mph4.3 kmh 29.87 in1011.5 mb 0.01 in0.3 mm 0.00 in0.0 mm 0.54 in13.7 mm
08:18 PM 67.1°F19.5°C 64.7°F18.2°C 92% 2.2 mph W3.5 kmh W 2.7 mph4.3 kmh 29.87 in1011.5 mb 0.01 in0.3 mm 0.00 in0.0 mm 0.54 in13.7 mm
08:19 PM 67.1°F19.5°C 64.7°F18.2°C 92% 2.7 mph W4.3 kmh W 2.7 mph4.3 kmh 29.87 in1011.5 mb 0.01 in0.3 mm 0.00 in0.0 mm 0.54 in13.7 mm
08:20 PM 67.1°F19.5°C 64.7°F18.2°C 92% 2.7 mph W4.3 kmh W 3.7 mph6.0 kmh 29.87 in1011.5 mb 0.01 in0.3 mm 0.00 in0.0 mm 0.54 in13.7 mm
08:21 PM 66.9°F19.4°C 64.5°F18.1°C 92% 3.7 mph W6.0 kmh W 3.7 mph6.0 kmh 29.87 in1011.5 mb 0.01 in0.3 mm 0.00 in0.0 mm 0.54 in13.7 mm
08:22 PM 66.9°F19.4°C 64.5°F18.1°C 92% 4.2 mph WNW6.8 kmh WNW 4.2 mph6.8 kmh 29.87 in1011.5 mb 0.01 in0.3 mm 0.00 in0.0 mm 0.54 in13.7 mm
08:23 PM 66.9°F19.4°C 64.5°F18.1°C 92% 4.2 mph WNW6.8 kmh WNW 4.2 mph6.8 kmh 29.87 in1011.5 mb 0.02 in0.5 mm 0.60 in15.2 mm 0.55 in14.0 mm
08:24 PM 66.9°F19.4°C 64.5°F18.1°C 92% 4.2 mph WNW6.8 kmh WNW 4.2 mph6.8 kmh 29.87 in1011.5 mb 0.02 in0.5 mm 0.00 in0.0 mm 0.55 in14.0 mm
08:25 PM 66.9°F19.4°C 64.5°F18.1°C 92% 4.2 mph W6.8 kmh W 4.2 mph6.8 kmh 29.87 in1011.5 mb 0.03 in0.8 mm 0.60 in15.2 mm 0.56 in14.2 mm
08:26 PM 66.9°F19.4°C 64.5°F18.1°C 92% 3.7 mph W6.0 kmh W 4.2 mph6.8 kmh 29.87 in1011.5 mb 0.06 in1.5 mm 1.80 in45.7 mm 0.59 in15.0 mm
08:27 PM 66.9°F19.4°C 64.5°F18.1°C 92% 2.7 mph W4.3 kmh W 4.2 mph6.8 kmh 29.87 in1011.5 mb 0.07 in1.8 mm 0.60 in15.2 mm 0.60 in15.2 mm
08:28 PM 66.9°F19.4°C 64.5°F18.1°C 92% 2.7 mph W4.3 kmh W 4.2 mph6.8 kmh 29.87 in1011.5 mb 0.09 in2.3 mm 1.20 in30.5 mm 0.62 in15.7 mm
08:29 PM 66.9°F19.4°C 64.5°F18.1°C 92% 1.7 mph W2.7 kmh W 4.2 mph6.8 kmh 29.87 in1011.5 mb 0.10 in2.5 mm 0.60 in15.2 mm 0.63 in16.0 mm
08:30 PM 66.9°F19.4°C 64.5°F18.1°C 92% 1.7 mph WNW2.7 kmh WNW 4.2 mph6.8 kmh 29.87 in1011.5 mb 0.11 in2.8 mm 0.60 in15.2 mm 0.64 in16.3 mm
08:31 PM 66.9°F19.4°C 64.5°F18.1°C 92% 1.7 mph WNW2.7 kmh WNW 4.2 mph6.8 kmh 29.87 in1011.5 mb 0.12 in3.0 mm 0.60 in15.2 mm 0.65 in16.5 mm
08:32 PM 66.9°F19.4°C 64.5°F18.1°C 92% 2.7 mph WNW4.3 kmh WNW 4.2 mph6.8 kmh 29.87 in1011.5 mb 0.13 in3.3 mm 0.60 in15.2 mm 0.66 in16.8 mm
08:33 PM 66.9°F19.4°C 64.5°F18.1°C 92% 2.7 mph WNW4.3 kmh WNW 4.2 mph6.8 kmh 29.87 in1011.5 mb 0.14 in3.6 mm 0.60 in15.2 mm 0.67 in17.0 mm
08:34 PM 66.9°F19.4°C 64.5°F18.1°C 92% 2.2 mph W3.5 kmh W 4.2 mph6.8 kmh 29.87 in1011.5 mb 0.14 in3.6 mm 0.00 in0.0 mm 0.67 in17.0 mm
08:35 PM 66.9°F19.4°C 64.5°F18.1°C 92% 2.2 mph WNW3.5 kmh WNW 3.7 mph6.0 kmh 29.87 in1011.5 mb 0.14 in3.6 mm 0.00 in0.0 mm 0.67 in17.0 mm
08:36 PM 66.9°F19.4°C 64.5°F18.1°C 92% 1.7 mph NNW2.7 kmh NNW 3.2 mph5.1 kmh 29.87 in1011.5 mb 0.15 in3.8 mm 0.60 in15.2 mm 0.68 in17.3 mm
08:37 PM 66.9°F19.4°C 64.5°F18.1°C 92% Calm Calm 2.7 mph4.3 kmh 29.87 in1011.5 mb 0.17 in4.3 mm 1.20 in30.5 mm 0.70 in17.8 mm
08:38 PM 66.9°F19.4°C 64.5°F18.1°C 92% Calm Calm 2.7 mph4.3 kmh 29.87 in1011.5 mb 0.18 in4.6 mm 0.60 in15.2 mm 0.71 in18.0 mm
08:39 PM 66.9°F19.4°C 64.5°F18.1°C 92% Calm Calm 2.7 mph4.3 kmh 29.86 in1011.2 mb 0.19 in4.8 mm 0.60 in15.2 mm 0.72 in18.3 mm
08:40 PM 66.7°F19.3°C 64.3°F17.9°C 92% Calm Calm 2.7 mph4.3 kmh 29.86 in1011.2 mb 0.19 in